<?xml version="1.0" encoding="UTF-8" standalone="no" ?>
<gpx xmlns="http://www.topografix.com/GPX/1/1" xmlns:xsi="http://www.w3.org/2001/XMLSchema-instance" xsi:schemaLocation="http://www.topografix.com/GPX/1/1 http://www.topografix.com/GPX/1/1/gpx.xsd" version="1.1" creator="VisuGPX - https://www.visugpx.com">
  <metadata>
    <name>Le tour des 10 Royans</name>
    <desc><![CDATA[Le tour des 10 Royans]]></desc>
  </metadata>
  <trk>
    <name><![CDATA[Le tour des 10 Royans on GPSies.com]]></name>
    <cmt><![CDATA[Gilles,Jacques, Bruno, Alain, Philippe1 & 2, Thierry 1 & 2, Jean Pierre, Pascal, Laurent, Claude, ]]></cmt>
    <trkseg>
      <trkpt lat="45.11974" lon="4.98405">
        <ele>203.86949157715</ele>
        <time>2010-03-13T12:31:18Z</time>
      </trkpt>
      <trkpt lat="45.11981" lon="4.98378">
        <ele>203.59492492676</ele>
        <time>2010-03-13T12:31:21Z</time>
      </trkpt>
      <trkpt lat="45.12024" lon="4.98399">
        <ele>204.86357116699</ele>
        <time>2010-03-13T12:31:28Z</time>
      </trkpt>
      <trkpt lat="45.12026" lon="4.98427">
        <ele>205.30999755859</ele>
        <time>2010-03-13T12:31:31Z</time>
      </trkpt>
      <trkpt lat="45.12019" lon="4.98482">
        <ele>205.22760009766</ele>
        <time>2010-03-13T12:31:37Z</time>
      </trkpt>
      <trkpt lat="45.12017" lon="4.98555">
        <ele>204.40971374512</ele>
        <time>2010-03-13T12:31:45Z</time>
      </trkpt>
      <trkpt lat="45.12028" lon="4.98671">
        <ele>203.64041137695</ele>
        <time>2010-03-13T12:31:58Z</time>
      </trkpt>
      <trkpt lat="45.12048" lon="4.98766">
        <ele>203.69752502441</ele>
        <time>2010-03-13T12:32:08Z</time>
      </trkpt>
      <trkpt lat="45.12065" lon="4.98815">
        <ele>203.9052734375</ele>
        <time>2010-03-13T12:32:14Z</time>
      </trkpt>
      <trkpt lat="45.12103" lon="4.98886">
        <ele>204.13391113281</ele>
        <time>2010-03-13T12:32:24Z</time>
      </trkpt>
      <trkpt lat="45.12161" lon="4.98968">
        <ele>206.76472473144</ele>
        <time>2010-03-13T12:32:37Z</time>
      </trkpt>
      <trkpt lat="45.12215" lon="4.99027">
        <ele>213.65786743164</ele>
        <time>2010-03-13T12:32:47Z</time>
      </trkpt>
      <trkpt lat="45.12214" lon="4.99046">
        <ele>212.87773132324</ele>
        <time>2010-03-13T12:32:49Z</time>
      </trkpt>
      <trkpt lat="45.12221" lon="4.99061">
        <ele>213.33065795898</ele>
        <time>2010-03-13T12:32:51Z</time>
      </trkpt>
      <trkpt lat="45.12227" lon="4.99065">
        <ele>213.92024230957</ele>
        <time>2010-03-13T12:32:52Z</time>
      </trkpt>
      <trkpt lat="45.12196" lon="4.99199">
        <ele>209.83680725098</ele>
        <time>2010-03-13T12:33:07Z</time>
      </trkpt>
      <trkpt lat="45.12157" lon="4.99334">
        <ele>208.66213989258</ele>
        <time>2010-03-13T12:33:23Z</time>
      </trkpt>
      <trkpt lat="45.12127" lon="4.99425">
        <ele>208.46482849121</ele>
        <time>2010-03-13T12:33:34Z</time>
      </trkpt>
      <trkpt lat="45.12075" lon="4.99532">
        <ele>206.97688293457</ele>
        <time>2010-03-13T12:33:48Z</time>
      </trkpt>
      <trkpt lat="45.11972" lon="4.99708">
        <ele>207.65893554688</ele>
        <time>2010-03-13T12:34:13Z</time>
      </trkpt>
      <trkpt lat="45.11905" lon="4.99811">
        <ele>213.69618225098</ele>
        <time>2010-03-13T12:34:28Z</time>
      </trkpt>
      <trkpt lat="45.11873" lon="4.99834">
        <ele>219.34411621094</ele>
        <time>2010-03-13T12:34:34Z</time>
      </trkpt>
      <trkpt lat="45.11674" lon="4.9992">
        <ele>235.75573730469</ele>
        <time>2010-03-13T12:35:05Z</time>
      </trkpt>
      <trkpt lat="45.11651" lon="4.99942">
        <ele>236.03540039062</ele>
        <time>2010-03-13T12:35:10Z</time>
      </trkpt>
      <trkpt lat="45.11601" lon="5.0003">
        <ele>242.57743835449</ele>
        <time>2010-03-13T12:35:22Z</time>
      </trkpt>
      <trkpt lat="45.11587" lon="5.00047">
        <ele>242.3405456543</ele>
        <time>2010-03-13T12:35:25Z</time>
      </trkpt>
      <trkpt lat="45.11285" lon="5.00317">
        <ele>237.41204833984</ele>
        <time>2010-03-13T12:36:20Z</time>
      </trkpt>
      <trkpt lat="45.1127" lon="5.00319">
        <ele>237.48414611816</ele>
        <time>2010-03-13T12:36:22Z</time>
      </trkpt>
      <trkpt lat="45.11185" lon="5.00361">
        <ele>238</ele>
        <time>2010-03-13T12:36:36Z</time>
      </trkpt>
      <trkpt lat="45.11085" lon="5.00418">
        <ele>245.96640014648</ele>
        <time>2010-03-13T12:36:52Z</time>
      </trkpt>
      <trkpt lat="45.11021" lon="5.00459">
        <ele>253.77572631836</ele>
        <time>2010-03-13T12:37:03Z</time>
      </trkpt>
      <trkpt lat="45.10919" lon="5.00538">
        <ele>267.7610168457</ele>
        <time>2010-03-13T12:37:21Z</time>
      </trkpt>
      <trkpt lat="45.10901" lon="5.00547">
        <ele>269.13671875</ele>
        <time>2010-03-13T12:37:24Z</time>
      </trkpt>
      <trkpt lat="45.1073" lon="5.00582">
        <ele>260.85095214844</ele>
        <time>2010-03-13T12:37:50Z</time>
      </trkpt>
      <trkpt lat="45.10627" lon="5.00619">
        <ele>248.52589416504</ele>
        <time>2010-03-13T12:38:07Z</time>
      </trkpt>
      <trkpt lat="45.10429" lon="5.00765">
        <ele>224.53964233398</ele>
        <time>2010-03-13T12:38:41Z</time>
      </trkpt>
      <trkpt lat="45.10243" lon="5.00917">
        <ele>232.76362609863</ele>
        <time>2010-03-13T12:39:14Z</time>
      </trkpt>
      <trkpt lat="45.10182" lon="5.00989">
        <ele>233.05966186523</ele>
        <time>2010-03-13T12:39:26Z</time>
      </trkpt>
      <trkpt lat="45.10122" lon="5.01107">
        <ele>229.66537475586</ele>
        <time>2010-03-13T12:39:42Z</time>
      </trkpt>
      <trkpt lat="45.1011" lon="5.01138">
        <ele>227.96984863281</ele>
        <time>2010-03-13T12:39:46Z</time>
      </trkpt>
      <trkpt lat="45.10097" lon="5.01191">
        <ele>229</ele>
        <time>2010-03-13T12:39:52Z</time>
      </trkpt>
      <trkpt lat="45.10084" lon="5.01275">
        <ele>230.90054321289</ele>
        <time>2010-03-13T12:40:01Z</time>
      </trkpt>
      <trkpt lat="45.10069" lon="5.01491">
        <ele>233.83198547363</ele>
        <time>2010-03-13T12:40:25Z</time>
      </trkpt>
      <trkpt lat="45.10054" lon="5.0162">
        <ele>235.30249023438</ele>
        <time>2010-03-13T12:40:39Z</time>
      </trkpt>
      <trkpt lat="45.10044" lon="5.01673">
        <ele>236.13360595703</ele>
        <time>2010-03-13T12:40:45Z</time>
      </trkpt>
      <trkpt lat="45.09876" lon="5.02146">
        <ele>243.16380310059</ele>
        <time>2010-03-13T12:41:42Z</time>
      </trkpt>
      <trkpt lat="45.09857" lon="5.02214">
        <ele>247.40818786621</ele>
        <time>2010-03-13T12:41:50Z</time>
      </trkpt>
      <trkpt lat="45.09854" lon="5.02255">
        <ele>250.36076354981</ele>
        <time>2010-03-13T12:41:54Z</time>
      </trkpt>
      <trkpt lat="45.09859" lon="5.02325">
        <ele>255.37889099121</ele>
        <time>2010-03-13T12:42:02Z</time>
      </trkpt>
      <trkpt lat="45.09923" lon="5.02493">
        <ele>262.05902099609</ele>
        <time>2010-03-13T12:42:23Z</time>
      </trkpt>
      <trkpt lat="45.09968" lon="5.02561">
        <ele>259.78201293945</ele>
        <time>2010-03-13T12:42:33Z</time>
      </trkpt>
      <trkpt lat="45.09984" lon="5.02608">
        <ele>256.32266235352</ele>
        <time>2010-03-13T12:42:39Z</time>
      </trkpt>
      <trkpt lat="45.10049" lon="5.02724">
        <ele>238.95152282715</ele>
        <time>2010-03-13T12:42:55Z</time>
      </trkpt>
      <trkpt lat="45.10055" lon="5.02754">
        <ele>237.87359619141</ele>
        <time>2010-03-13T12:42:58Z</time>
      </trkpt>
      <trkpt lat="45.10052" lon="5.02781">
        <ele>237.27033996582</ele>
        <time>2010-03-13T12:43:01Z</time>
      </trkpt>
      <trkpt lat="45.10045" lon="5.028">
        <ele>237.66331481934</ele>
        <time>2010-03-13T12:43:03Z</time>
      </trkpt>
      <trkpt lat="45.10049" lon="5.02803">
        <ele>237.00648498535</ele>
        <time>2010-03-13T12:43:04Z</time>
      </trkpt>
      <trkpt lat="45.10054" lon="5.02817">
        <ele>235.39689636231</ele>
        <time>2010-03-13T12:43:06Z</time>
      </trkpt>
      <trkpt lat="45.10054" lon="5.02837">
        <ele>234.0827331543</ele>
        <time>2010-03-13T12:43:08Z</time>
      </trkpt>
      <trkpt lat="45.10024" lon="5.02936">
        <ele>230.6520690918</ele>
        <time>2010-03-13T12:43:19Z</time>
      </trkpt>
      <trkpt lat="45.09906" lon="5.0337">
        <ele>219.6162109375</ele>
        <time>2010-03-13T12:44:10Z</time>
      </trkpt>
      <trkpt lat="45.09893" lon="5.03407">
        <ele>219.14929199219</ele>
        <time>2010-03-13T12:44:14Z</time>
      </trkpt>
      <trkpt lat="45.09814" lon="5.0354">
        <ele>215.00169372559</ele>
        <time>2010-03-13T12:44:33Z</time>
      </trkpt>
      <trkpt lat="45.09794" lon="5.0359">
        <ele>214.39788818359</ele>
        <time>2010-03-13T12:44:39Z</time>
      </trkpt>
      <trkpt lat="45.09791" lon="5.03652">
        <ele>216.4372253418</ele>
        <time>2010-03-13T12:44:46Z</time>
      </trkpt>
      <trkpt lat="45.09799" lon="5.03701">
        <ele>219.15000915527</ele>
        <time>2010-03-13T12:44:52Z</time>
      </trkpt>
      <trkpt lat="45.09824" lon="5.03806">
        <ele>217.31059265137</ele>
        <time>2010-03-13T12:45:04Z</time>
      </trkpt>
      <trkpt lat="45.09885" lon="5.03963">
        <ele>215.19313049316</ele>
        <time>2010-03-13T12:45:23Z</time>
      </trkpt>
      <trkpt lat="45.09888" lon="5.04008">
        <ele>213.97918701172</ele>
        <time>2010-03-13T12:45:28Z</time>
      </trkpt>
      <trkpt lat="45.09882" lon="5.04052">
        <ele>214.87268066406</ele>
        <time>2010-03-13T12:45:33Z</time>
      </trkpt>
      <trkpt lat="45.09871" lon="5.04097">
        <ele>216.49145507812</ele>
        <time>2010-03-13T12:45:38Z</time>
      </trkpt>
      <trkpt lat="45.09842" lon="5.04153">
        <ele>218.15716552734</ele>
        <time>2010-03-13T12:45:45Z</time>
      </trkpt>
      <trkpt lat="45.0978" lon="5.0422">
        <ele>219.84735107422</ele>
        <time>2010-03-13T12:45:57Z</time>
      </trkpt>
      <trkpt lat="45.09729" lon="5.04261">
        <ele>219.54391479492</ele>
        <time>2010-03-13T12:46:06Z</time>
      </trkpt>
      <trkpt lat="45.09686" lon="5.04323">
        <ele>220</ele>
        <time>2010-03-13T12:46:16Z</time>
      </trkpt>
      <trkpt lat="45.09626" lon="5.04482">
        <ele>220</ele>
        <time>2010-03-13T12:46:35Z</time>
      </trkpt>
      <trkpt lat="45.09628" lon="5.04532">
        <ele>220</ele>
        <time>2010-03-13T12:46:41Z</time>
      </trkpt>
      <trkpt lat="45.09605" lon="5.04548">
        <ele>220</ele>
        <time>2010-03-13T12:46:45Z</time>
      </trkpt>
      <trkpt lat="45.09583" lon="5.04582">
        <ele>220</ele>
        <time>2010-03-13T12:46:50Z</time>
      </trkpt>
      <trkpt lat="45.09554" lon="5.0461">
        <ele>220</ele>
        <time>2010-03-13T12:46:55Z</time>
      </trkpt>
      <trkpt lat="45.09383" lon="5.04697">
        <ele>220</ele>
        <time>2010-03-13T12:47:23Z</time>
      </trkpt>
      <trkpt lat="45.09314" lon="5.04748">
        <ele>215.02975463867</ele>
        <time>2010-03-13T12:47:35Z</time>
      </trkpt>
      <trkpt lat="45.09302" lon="5.04876">
        <ele>204.78654479981</ele>
        <time>2010-03-13T12:47:49Z</time>
      </trkpt>
      <trkpt lat="45.09287" lon="5.04923">
        <ele>201.61012268066</ele>
        <time>2010-03-13T12:47:55Z</time>
      </trkpt>
      <trkpt lat="45.09257" lon="5.04964">
        <ele>200.54228210449</ele>
        <time>2010-03-13T12:48:01Z</time>
      </trkpt>
      <trkpt lat="45.09248" lon="5.04981">
        <ele>200</ele>
        <time>2010-03-13T12:48:03Z</time>
      </trkpt>
      <trkpt lat="45.09244" lon="5.05002">
        <ele>200.11494445801</ele>
        <time>2010-03-13T12:48:06Z</time>
      </trkpt>
      <trkpt lat="45.09247" lon="5.05034">
        <ele>202.16941833496</ele>
        <time>2010-03-13T12:48:09Z</time>
      </trkpt>
      <trkpt lat="45.09269" lon="5.05088">
        <ele>209.7469329834</ele>
        <time>2010-03-13T12:48:16Z</time>
      </trkpt>
      <trkpt lat="45.09322" lon="5.05189">
        <ele>226.85920715332</ele>
        <time>2010-03-13T12:48:29Z</time>
      </trkpt>
      <trkpt lat="45.094" lon="5.05333">
        <ele>220.87145996094</ele>
        <time>2010-03-13T12:48:49Z</time>
      </trkpt>
      <trkpt lat="45.09422" lon="5.05383">
        <ele>219.48062133789</ele>
        <time>2010-03-13T12:48:56Z</time>
      </trkpt>
      <trkpt lat="45.0943" lon="5.05436">
        <ele>219.4775390625</ele>
        <time>2010-03-13T12:49:01Z</time>
      </trkpt>
      <trkpt lat="45.09442" lon="5.05608">
        <ele>219.9169921875</ele>
        <time>2010-03-13T12:49:20Z</time>
      </trkpt>
      <trkpt lat="45.0943" lon="5.05698">
        <ele>219.4775390625</ele>
        <time>2010-03-13T12:49:30Z</time>
      </trkpt>
      <trkpt lat="45.09383" lon="5.05882">
        <ele>218.78839111328</ele>
        <time>2010-03-13T12:49:51Z</time>
      </trkpt>
      <trkpt lat="45.09374" lon="5.05971">
        <ele>219.45880126953</ele>
        <time>2010-03-13T12:50:01Z</time>
      </trkpt>
      <trkpt lat="45.09372" lon="5.06238">
        <ele>219.39013671875</ele>
        <time>2010-03-13T12:50:30Z</time>
      </trkpt>
      <trkpt lat="45.09386" lon="5.06537">
        <ele>219.89825439453</ele>
        <time>2010-03-13T12:51:02Z</time>
      </trkpt>
      <trkpt lat="45.09385" lon="5.06601">
        <ele>219.85705566406</ele>
        <time>2010-03-13T12:51:09Z</time>
      </trkpt>
      <trkpt lat="45.09373" lon="5.06683">
        <ele>219.43133544922</ele>
        <time>2010-03-13T12:51:18Z</time>
      </trkpt>
      <trkpt lat="45.09372" lon="5.06713">
        <ele>219.39013671875</ele>
        <time>2010-03-13T12:51:22Z</time>
      </trkpt>
      <trkpt lat="45.09393" lon="5.07032">
        <ele>220</ele>
        <time>2010-03-13T12:51:56Z</time>
      </trkpt>
      <trkpt lat="45.09393" lon="5.07147">
        <ele>220</ele>
        <time>2010-03-13T12:52:09Z</time>
      </trkpt>
      <trkpt lat="45.09353" lon="5.07198">
        <ele>219.70349121094</ele>
        <time>2010-03-13T12:52:17Z</time>
      </trkpt>
      <trkpt lat="45.09316" lon="5.07256">
        <ele>218.37139892578</ele>
        <time>2010-03-13T12:52:26Z</time>
      </trkpt>
      <trkpt lat="45.09123" lon="5.07645">
        <ele>219.79699707031</ele>
        <time>2010-03-13T12:53:17Z</time>
      </trkpt>
      <trkpt lat="45.09076" lon="5.07698">
        <ele>225.39501953125</ele>
        <time>2010-03-13T12:53:26Z</time>
      </trkpt>
      <trkpt lat="45.08987" lon="5.07781">
        <ele>233.58169555664</ele>
        <time>2010-03-13T12:53:43Z</time>
      </trkpt>
      <trkpt lat="45.08878" lon="5.07861">
        <ele>240</ele>
        <time>2010-03-13T12:54:01Z</time>
      </trkpt>
      <trkpt lat="45.08845" lon="5.07916">
        <ele>242.31340026856</ele>
        <time>2010-03-13T12:54:09Z</time>
      </trkpt>
      <trkpt lat="45.08817" lon="5.08031">
        <ele>238.51948547363</ele>
        <time>2010-03-13T12:54:22Z</time>
      </trkpt>
      <trkpt lat="45.0879" lon="5.08195">
        <ele>229.4220123291</ele>
        <time>2010-03-13T12:54:41Z</time>
      </trkpt>
      <trkpt lat="45.08727" lon="5.08636">
        <ele>205.45710754394</ele>
        <time>2010-03-13T12:55:29Z</time>
      </trkpt>
      <trkpt lat="45.08691" lon="5.08812">
        <ele>197.55039978027</ele>
        <time>2010-03-13T12:55:49Z</time>
      </trkpt>
      <trkpt lat="45.08669" lon="5.08886">
        <ele>194.25628662109</ele>
        <time>2010-03-13T12:55:58Z</time>
      </trkpt>
      <trkpt lat="45.08643" lon="5.08954">
        <ele>192.14654541016</ele>
        <time>2010-03-13T12:56:06Z</time>
      </trkpt>
      <trkpt lat="45.08592" lon="5.09053">
        <ele>190.61267089844</ele>
        <time>2010-03-13T12:56:20Z</time>
      </trkpt>
      <trkpt lat="45.08585" lon="5.09079">
        <ele>190.96154785156</ele>
        <time>2010-03-13T12:56:23Z</time>
      </trkpt>
      <trkpt lat="45.08576" lon="5.09143">
        <ele>192.72955322266</ele>
        <time>2010-03-13T12:56:30Z</time>
      </trkpt>
      <trkpt lat="45.08563" lon="5.09186">
        <ele>192.95797729492</ele>
        <time>2010-03-13T12:56:35Z</time>
      </trkpt>
      <trkpt lat="45.08551" lon="5.09212">
        <ele>193.46952819824</ele>
        <time>2010-03-13T12:56:38Z</time>
      </trkpt>
      <trkpt lat="45.08502" lon="5.09282">
        <ele>193.2833404541</ele>
        <time>2010-03-13T12:56:49Z</time>
      </trkpt>
      <trkpt lat="45.08493" lon="5.09302">
        <ele>193.40298461914</ele>
        <time>2010-03-13T12:56:51Z</time>
      </trkpt>
      <trkpt lat="45.08482" lon="5.09367">
        <ele>193.91412353516</ele>
        <time>2010-03-13T12:56:59Z</time>
      </trkpt>
      <trkpt lat="45.08467" lon="5.09524">
        <ele>196.63134765625</ele>
        <time>2010-03-13T12:57:16Z</time>
      </trkpt>
      <trkpt lat="45.08478" lon="5.09592">
        <ele>197.74017333984</ele>
        <time>2010-03-13T12:57:23Z</time>
      </trkpt>
      <trkpt lat="45.08549" lon="5.09795">
        <ele>198.14831542969</ele>
        <time>2010-03-13T12:57:48Z</time>
      </trkpt>
      <trkpt lat="45.0862" lon="5.1005">
        <ele>194.5221862793</ele>
        <time>2010-03-13T12:58:18Z</time>
      </trkpt>
      <trkpt lat="45.08657" lon="5.1025">
        <ele>192.65461730957</ele>
        <time>2010-03-13T12:58:40Z</time>
      </trkpt>
      <trkpt lat="45.08705" lon="5.10403">
        <ele>194.77001953125</ele>
        <time>2010-03-13T12:58:58Z</time>
      </trkpt>
      <trkpt lat="45.08777" lon="5.10675">
        <ele>196.966796875</ele>
        <time>2010-03-13T12:59:30Z</time>
      </trkpt>
      <trkpt lat="45.08783" lon="5.10722">
        <ele>197.1865234375</ele>
        <time>2010-03-13T12:59:35Z</time>
      </trkpt>
      <trkpt lat="45.0879" lon="5.10929">
        <ele>196.24095153809</ele>
        <time>2010-03-13T12:59:57Z</time>
      </trkpt>
      <trkpt lat="45.08827" lon="5.11142">
        <ele>195.76580810547</ele>
        <time>2010-03-13T13:00:21Z</time>
      </trkpt>
      <trkpt lat="45.08845" lon="5.11324">
        <ele>195</ele>
        <time>2010-03-13T13:00:41Z</time>
      </trkpt>
      <trkpt lat="45.08884" lon="5.11827">
        <ele>196</ele>
        <time>2010-03-13T13:01:36Z</time>
      </trkpt>
      <trkpt lat="45.08908" lon="5.12188">
        <ele>198.53076171875</ele>
        <time>2010-03-13T13:02:15Z</time>
      </trkpt>
      <trkpt lat="45.08916" lon="5.1245">
        <ele>200</ele>
        <time>2010-03-13T13:02:44Z</time>
      </trkpt>
      <trkpt lat="45.08914" lon="5.12518">
        <ele>201.55780029297</ele>
        <time>2010-03-13T13:02:51Z</time>
      </trkpt>
      <trkpt lat="45.08908" lon="5.12543">
        <ele>202.78768920898</ele>
        <time>2010-03-13T13:02:54Z</time>
      </trkpt>
      <trkpt lat="45.08886" lon="5.12592">
        <ele>204.51710510254</ele>
        <time>2010-03-13T13:03:00Z</time>
      </trkpt>
      <trkpt lat="45.08887" lon="5.12601">
        <ele>205.20718383789</ele>
        <time>2010-03-13T13:03:01Z</time>
      </trkpt>
      <trkpt lat="45.0885" lon="5.12698">
        <ele>209.33441162109</ele>
        <time>2010-03-13T13:03:13Z</time>
      </trkpt>
      <trkpt lat="45.0883" lon="5.12776">
        <ele>209.62701416016</ele>
        <time>2010-03-13T13:03:22Z</time>
      </trkpt>
      <trkpt lat="45.0881" lon="5.12874">
        <ele>207.48468017578</ele>
        <time>2010-03-13T13:03:33Z</time>
      </trkpt>
      <trkpt lat="45.08801" lon="5.1298">
        <ele>206.66394042969</ele>
        <time>2010-03-13T13:03:45Z</time>
      </trkpt>
      <trkpt lat="45.08802" lon="5.13017">
        <ele>206.74633789062</ele>
        <time>2010-03-13T13:03:49Z</time>
      </trkpt>
      <trkpt lat="45.08782" lon="5.13129">
        <ele>203.69854736328</ele>
        <time>2010-03-13T13:04:01Z</time>
      </trkpt>
      <trkpt lat="45.08774" lon="5.13151">
        <ele>202.61199951172</ele>
        <time>2010-03-13T13:04:04Z</time>
      </trkpt>
      <trkpt lat="45.08765" lon="5.13158">
        <ele>201.62322998047</ele>
        <time>2010-03-13T13:04:05Z</time>
      </trkpt>
      <trkpt lat="45.0872" lon="5.13252">
        <ele>199</ele>
        <time>2010-03-13T13:04:18Z</time>
      </trkpt>
      <trkpt lat="45.08634" lon="5.13466">
        <ele>199</ele>
        <time>2010-03-13T13:04:44Z</time>
      </trkpt>
      <trkpt lat="45.08628" lon="5.1347">
        <ele>199</ele>
        <time>2010-03-13T13:04:46Z</time>
      </trkpt>
      <trkpt lat="45.0863" lon="5.13477">
        <ele>199</ele>
        <time>2010-03-13T13:04:46Z</time>
      </trkpt>
      <trkpt lat="45.08614" lon="5.13519">
        <ele>199</ele>
        <time>2010-03-13T13:04:51Z</time>
      </trkpt>
      <trkpt lat="45.08598" lon="5.1355">
        <ele>199</ele>
        <time>2010-03-13T13:04:56Z</time>
      </trkpt>
      <trkpt lat="45.08495" lon="5.13693">
        <ele>199</ele>
        <time>2010-03-13T13:05:18Z</time>
      </trkpt>
      <trkpt lat="45.08437" lon="5.13762">
        <ele>198.73077392578</ele>
        <time>2010-03-13T13:05:29Z</time>
      </trkpt>
      <trkpt lat="45.08378" lon="5.13846">
        <ele>197.78381347656</ele>
        <time>2010-03-13T13:05:42Z</time>
      </trkpt>
      <trkpt lat="45.0836" lon="5.13884">
        <ele>197.95672607422</ele>
        <time>2010-03-13T13:05:47Z</time>
      </trkpt>
      <trkpt lat="45.08239" lon="5.14287">
        <ele>200.13542175293</ele>
        <time>2010-03-13T13:06:35Z</time>
      </trkpt>
      <trkpt lat="45.08178" lon="5.14467">
        <ele>200.81225585938</ele>
        <time>2010-03-13T13:06:56Z</time>
      </trkpt>
      <trkpt lat="45.08143" lon="5.14601">
        <ele>201.23341369629</ele>
        <time>2010-03-13T13:07:12Z</time>
      </trkpt>
      <trkpt lat="45.08065" lon="5.14814">
        <ele>198.34118652344</ele>
        <time>2010-03-13T13:07:38Z</time>
      </trkpt>
      <trkpt lat="45.08051" lon="5.14862">
        <ele>198.66613769531</ele>
        <time>2010-03-13T13:07:43Z</time>
      </trkpt>
      <trkpt lat="45.07992" lon="5.15126">
        <ele>198.58734130859</ele>
        <time>2010-03-13T13:08:13Z</time>
      </trkpt>
      <trkpt lat="45.07982" lon="5.1519">
        <ele>197.34741210938</ele>
        <time>2010-03-13T13:08:21Z</time>
      </trkpt>
      <trkpt lat="45.07969" lon="5.15287">
        <ele>198.09362792969</ele>
        <time>2010-03-13T13:08:31Z</time>
      </trkpt>
      <trkpt lat="45.0791" lon="5.15517">
        <ele>197.53125</ele>
        <time>2010-03-13T13:08:58Z</time>
      </trkpt>
      <trkpt lat="45.07862" lon="5.15764">
        <ele>197.08833312988</ele>
        <time>2010-03-13T13:09:26Z</time>
      </trkpt>
      <trkpt lat="45.07815" lon="5.15927">
        <ele>196.82078552246</ele>
        <time>2010-03-13T13:09:45Z</time>
      </trkpt>
      <trkpt lat="45.07787" lon="5.16053">
        <ele>195.5983581543</ele>
        <time>2010-03-13T13:09:59Z</time>
      </trkpt>
      <trkpt lat="45.0778" lon="5.16072">
        <ele>195.21432495117</ele>
        <time>2010-03-13T13:10:01Z</time>
      </trkpt>
      <trkpt lat="45.07705" lon="5.16194">
        <ele>190.74873352051</ele>
        <time>2010-03-13T13:10:19Z</time>
      </trkpt>
      <trkpt lat="45.07665" lon="5.16268">
        <ele>190</ele>
        <time>2010-03-13T13:10:29Z</time>
      </trkpt>
      <trkpt lat="45.07784" lon="5.1681">
        <ele>190</ele>
        <time>2010-03-13T13:11:30Z</time>
      </trkpt>
      <trkpt lat="45.07804" lon="5.16888">
        <ele>188.92947387695</ele>
        <time>2010-03-13T13:11:39Z</time>
      </trkpt>
      <trkpt lat="45.07827" lon="5.16959">
        <ele>187.01971435547</ele>
        <time>2010-03-13T13:11:48Z</time>
      </trkpt>
      <trkpt lat="45.07911" lon="5.17135">
        <ele>188.5192565918</ele>
        <time>2010-03-13T13:12:11Z</time>
      </trkpt>
      <trkpt lat="45.07987" lon="5.17267">
        <ele>188.69644165039</ele>
        <time>2010-03-13T13:12:29Z</time>
      </trkpt>
      <trkpt lat="45.08026" lon="5.17356">
        <ele>186.37174987793</ele>
        <time>2010-03-13T13:12:41Z</time>
      </trkpt>
      <trkpt lat="45.08091" lon="5.17462">
        <ele>186.16668701172</ele>
        <time>2010-03-13T13:12:56Z</time>
      </trkpt>
      <trkpt lat="45.08159" lon="5.1757">
        <ele>174.67216491699</ele>
        <time>2010-03-13T13:13:12Z</time>
      </trkpt>
      <trkpt lat="45.08376" lon="5.1785">
        <ele>191.2734375</ele>
        <time>2010-03-13T13:13:57Z</time>
      </trkpt>
      <trkpt lat="45.08422" lon="5.17924">
        <ele>184.5223236084</ele>
        <time>2010-03-13T13:14:07Z</time>
      </trkpt>
      <trkpt lat="45.08499" lon="5.1809">
        <ele>176.23550415039</ele>
        <time>2010-03-13T13:14:29Z</time>
      </trkpt>
      <trkpt lat="45.08556" lon="5.18255">
        <ele>170.63037109375</ele>
        <time>2010-03-13T13:14:49Z</time>
      </trkpt>
      <trkpt lat="45.08571" lon="5.18315">
        <ele>168.59429931641</ele>
        <time>2010-03-13T13:14:56Z</time>
      </trkpt>
      <trkpt lat="45.08573" lon="5.18526">
        <ele>158.63342285156</ele>
        <time>2010-03-13T13:15:19Z</time>
      </trkpt>
      <trkpt lat="45.08567" lon="5.18785">
        <ele>156.97982788086</ele>
        <time>2010-03-13T13:15:47Z</time>
      </trkpt>
      <trkpt lat="45.08556" lon="5.18789">
        <ele>156.42883300781</ele>
        <time>2010-03-13T13:15:48Z</time>
      </trkpt>
      <trkpt lat="45.08551" lon="5.18803">
        <ele>156.59613037109</ele>
        <time>2010-03-13T13:15:50Z</time>
      </trkpt>
      <trkpt lat="45.08553" lon="5.18822">
        <ele>156.81115722656</ele>
        <time>2010-03-13T13:15:52Z</time>
      </trkpt>
      <trkpt lat="45.08565" lon="5.1883">
        <ele>157.34503173828</ele>
        <time>2010-03-13T13:15:54Z</time>
      </trkpt>
      <trkpt lat="45.0852" lon="5.19439">
        <ele>157.72454833984</ele>
        <time>2010-03-13T13:17:01Z</time>
      </trkpt>
      <trkpt lat="45.08508" lon="5.19684">
        <ele>158.57019042969</ele>
        <time>2010-03-13T13:17:27Z</time>
      </trkpt>
      <trkpt lat="45.08506" lon="5.19786">
        <ele>159.28030395508</ele>
        <time>2010-03-13T13:17:38Z</time>
      </trkpt>
      <trkpt lat="45.08518" lon="5.20664">
        <ele>158.64215087891</ele>
        <time>2010-03-13T13:19:13Z</time>
      </trkpt>
      <trkpt lat="45.08524" lon="5.20841">
        <ele>158.34942626953</ele>
        <time>2010-03-13T13:19:33Z</time>
      </trkpt>
      <trkpt lat="45.08522" lon="5.20992">
        <ele>158</ele>
        <time>2010-03-13T13:19:49Z</time>
      </trkpt>
      <trkpt lat="45.0848" lon="5.21136">
        <ele>159</ele>
        <time>2010-03-13T13:20:06Z</time>
      </trkpt>
      <trkpt lat="45.08477" lon="5.21186">
        <ele>160.04211425781</ele>
        <time>2010-03-13T13:20:11Z</time>
      </trkpt>
      <trkpt lat="45.08544" lon="5.21413">
        <ele>176.32518005371</ele>
        <time>2010-03-13T13:20:38Z</time>
      </trkpt>
      <trkpt lat="45.08543" lon="5.21421">
        <ele>176.70465087891</ele>
        <time>2010-03-13T13:20:39Z</time>
      </trkpt>
      <trkpt lat="45.08556" lon="5.21472">
        <ele>179.99794006348</ele>
        <time>2010-03-13T13:20:45Z</time>
      </trkpt>
      <trkpt lat="45.08617" lon="5.21656">
        <ele>183.61560058594</ele>
        <time>2010-03-13T13:21:07Z</time>
      </trkpt>
      <trkpt lat="45.08654" lon="5.21738">
        <ele>184.8034362793</ele>
        <time>2010-03-13T13:21:17Z</time>
      </trkpt>
      <trkpt lat="45.0868" lon="5.21788">
        <ele>185.67007446289</ele>
        <time>2010-03-13T13:21:24Z</time>
      </trkpt>
      <trkpt lat="45.08696" lon="5.2181">
        <ele>186.16024780273</ele>
        <time>2010-03-13T13:21:27Z</time>
      </trkpt>
      <trkpt lat="45.08658" lon="5.2184">
        <ele>186.16371154785</ele>
        <time>2010-03-13T13:21:34Z</time>
      </trkpt>
      <trkpt lat="45.08622" lon="5.2184">
        <ele>186</ele>
        <time>2010-03-13T13:21:40Z</time>
      </trkpt>
      <trkpt lat="45.08571" lon="5.21821">
        <ele>185.80101013184</ele>
        <time>2010-03-13T13:21:48Z</time>
      </trkpt>
      <trkpt lat="45.08559" lon="5.21821">
        <ele>185.61233520508</ele>
        <time>2010-03-13T13:21:50Z</time>
      </trkpt>
      <trkpt lat="45.08549" lon="5.21824">
        <ele>185.50952148438</ele>
        <time>2010-03-13T13:21:51Z</time>
      </trkpt>
      <trkpt lat="45.08528" lon="5.21849">
        <ele>185.57008361816</ele>
        <time>2010-03-13T13:21:55Z</time>
      </trkpt>
      <trkpt lat="45.08461" lon="5.22016">
        <ele>187.34327697754</ele>
        <time>2010-03-13T13:22:16Z</time>
      </trkpt>
      <trkpt lat="45.08439" lon="5.2206">
        <ele>187.79943847656</ele>
        <time>2010-03-13T13:22:22Z</time>
      </trkpt>
      <trkpt lat="45.08391" lon="5.22136">
        <ele>187.90528869629</ele>
        <time>2010-03-13T13:22:33Z</time>
      </trkpt>
      <trkpt lat="45.08336" lon="5.22258">
        <ele>188.11790466309</ele>
        <time>2010-03-13T13:22:49Z</time>
      </trkpt>
      <trkpt lat="45.08318" lon="5.2241">
        <ele>191.20651245117</ele>
        <time>2010-03-13T13:23:05Z</time>
      </trkpt>
      <trkpt lat="45.083" lon="5.22478">
        <ele>192.80065917969</ele>
        <time>2010-03-13T13:23:13Z</time>
      </trkpt>
      <trkpt lat="45.08287" lon="5.22506">
        <ele>192.54968261719</ele>
        <time>2010-03-13T13:23:17Z</time>
      </trkpt>
      <trkpt lat="45.08218" lon="5.22602">
        <ele>192.51957702637</ele>
        <time>2010-03-13T13:23:32Z</time>
      </trkpt>
      <trkpt lat="45.08202" lon="5.22617">
        <ele>192.48352050781</ele>
        <time>2010-03-13T13:23:35Z</time>
      </trkpt>
      <trkpt lat="45.08107" lon="5.22753">
        <ele>182.84744262695</ele>
        <time>2010-03-13T13:23:55Z</time>
      </trkpt>
      <trkpt lat="45.08095" lon="5.22773">
        <ele>182.81050109863</ele>
        <time>2010-03-13T13:23:58Z</time>
      </trkpt>
      <trkpt lat="45.08056" lon="5.22882">
        <ele>184.79495239258</ele>
        <time>2010-03-13T13:24:12Z</time>
      </trkpt>
      <trkpt lat="45.08039" lon="5.22932">
        <ele>185.91616821289</ele>
        <time>2010-03-13T13:24:18Z</time>
      </trkpt>
      <trkpt lat="45.08025" lon="5.23036">
        <ele>190.28991699219</ele>
        <time>2010-03-13T13:24:29Z</time>
      </trkpt>
      <trkpt lat="45.07998" lon="5.23121">
        <ele>193.38339233398</ele>
        <time>2010-03-13T13:24:39Z</time>
      </trkpt>
      <trkpt lat="45.07955" lon="5.23235">
        <ele>194.61785888672</ele>
        <time>2010-03-13T13:24:53Z</time>
      </trkpt>
      <trkpt lat="45.07926" lon="5.23303">
        <ele>197.15727233887</ele>
        <time>2010-03-13T13:25:02Z</time>
      </trkpt>
      <trkpt lat="45.07878" lon="5.23397">
        <ele>199.90466308594</ele>
        <time>2010-03-13T13:25:14Z</time>
      </trkpt>
      <trkpt lat="45.07862" lon="5.2344">
        <ele>200.84494018555</ele>
        <time>2010-03-13T13:25:20Z</time>
      </trkpt>
      <trkpt lat="45.07845" lon="5.23497">
        <ele>201.93725585938</ele>
        <time>2010-03-13T13:25:26Z</time>
      </trkpt>
      <trkpt lat="45.07811" lon="5.23645">
        <ele>205.220703125</ele>
        <time>2010-03-13T13:25:43Z</time>
      </trkpt>
      <trkpt lat="45.07719" lon="5.23943">
        <ele>206</ele>
        <time>2010-03-13T13:26:18Z</time>
      </trkpt>
      <trkpt lat="45.07689" lon="5.24008">
        <ele>205.80053710938</ele>
        <time>2010-03-13T13:26:27Z</time>
      </trkpt>
      <trkpt lat="45.07676" lon="5.24014">
        <ele>205.33361816406</ele>
        <time>2010-03-13T13:26:29Z</time>
      </trkpt>
      <trkpt lat="45.0747" lon="5.24043">
        <ele>201.96282958984</ele>
        <time>2010-03-13T13:27:01Z</time>
      </trkpt>
      <trkpt lat="45.07279" lon="5.24063">
        <ele>198.59216308594</ele>
        <time>2010-03-13T13:27:30Z</time>
      </trkpt>
      <trkpt lat="45.07218" lon="5.24065">
        <ele>194.48571777344</ele>
        <time>2010-03-13T13:27:40Z</time>
      </trkpt>
      <trkpt lat="45.07147" lon="5.24043">
        <ele>189.83363342285</ele>
        <time>2010-03-13T13:27:51Z</time>
      </trkpt>
      <trkpt lat="45.07114" lon="5.2404">
        <ele>187.64950561523</ele>
        <time>2010-03-13T13:27:56Z</time>
      </trkpt>
      <trkpt lat="45.07098" lon="5.24085">
        <ele>188.0881652832</ele>
        <time>2010-03-13T13:28:01Z</time>
      </trkpt>
      <trkpt lat="45.07061" lon="5.24261">
        <ele>189.78825378418</ele>
        <time>2010-03-13T13:28:21Z</time>
      </trkpt>
      <trkpt lat="45.07038" lon="5.24306">
        <ele>188.75048828125</ele>
        <time>2010-03-13T13:28:27Z</time>
      </trkpt>
      <trkpt lat="45.06982" lon="5.24392">
        <ele>185.17181396484</ele>
        <time>2010-03-13T13:28:40Z</time>
      </trkpt>
      <trkpt lat="45.06975" lon="5.24394">
        <ele>184.50234985352</ele>
        <time>2010-03-13T13:28:41Z</time>
      </trkpt>
      <trkpt lat="45.06864" lon="5.2434">
        <ele>168.79028320312</ele>
        <time>2010-03-13T13:28:59Z</time>
      </trkpt>
      <trkpt lat="45.06764" lon="5.24304">
        <ele>160</ele>
        <time>2010-03-13T13:29:15Z</time>
      </trkpt>
      <trkpt lat="45.06564" lon="5.24247">
        <ele>169.97592163086</ele>
        <time>2010-03-13T13:29:46Z</time>
      </trkpt>
      <trkpt lat="45.06546" lon="5.24227">
        <ele>173.34257507324</ele>
        <time>2010-03-13T13:29:50Z</time>
      </trkpt>
      <trkpt lat="45.06513" lon="5.24118">
        <ele>186.11848449707</ele>
        <time>2010-03-13T13:30:02Z</time>
      </trkpt>
      <trkpt lat="45.06412" lon="5.24175">
        <ele>199.55102539062</ele>
        <time>2010-03-13T13:30:19Z</time>
      </trkpt>
      <trkpt lat="45.06329" lon="5.24242">
        <ele>194.44580078125</ele>
        <time>2010-03-13T13:30:34Z</time>
      </trkpt>
      <trkpt lat="45.06249" lon="5.24273">
        <ele>197.96401977539</ele>
        <time>2010-03-13T13:30:47Z</time>
      </trkpt>
      <trkpt lat="45.06233" lon="5.24277">
        <ele>198.5604095459</ele>
        <time>2010-03-13T13:30:49Z</time>
      </trkpt>
      <trkpt lat="45.06099" lon="5.2427">
        <ele>235.05914306641</ele>
        <time>2010-03-13T13:31:10Z</time>
      </trkpt>
      <trkpt lat="45.06079" lon="5.24273">
        <ele>239.50608825684</ele>
        <time>2010-03-13T13:31:13Z</time>
      </trkpt>
      <trkpt lat="45.06038" lon="5.24294">
        <ele>236.04606628418</ele>
        <time>2010-03-13T13:31:19Z</time>
      </trkpt>
      <trkpt lat="45.06017" lon="5.2432">
        <ele>221.55659484863</ele>
        <time>2010-03-13T13:31:24Z</time>
      </trkpt>
      <trkpt lat="45.05999" lon="5.24356">
        <ele>203.06941223144</ele>
        <time>2010-03-13T13:31:28Z</time>
      </trkpt>
      <trkpt lat="45.05984" lon="5.24396">
        <ele>193.87701416016</ele>
        <time>2010-03-13T13:31:33Z</time>
      </trkpt>
      <trkpt lat="45.05973" lon="5.24472">
        <ele>177.89102172852</ele>
        <time>2010-03-13T13:31:42Z</time>
      </trkpt>
      <trkpt lat="45.05983" lon="5.24627">
        <ele>169.67822265625</ele>
        <time>2010-03-13T13:31:59Z</time>
      </trkpt>
      <trkpt lat="45.05995" lon="5.24675">
        <ele>166.86791992188</ele>
        <time>2010-03-13T13:32:04Z</time>
      </trkpt>
      <trkpt lat="45.06015" lon="5.24699">
        <ele>163.92694091797</ele>
        <time>2010-03-13T13:32:08Z</time>
      </trkpt>
      <trkpt lat="45.06043" lon="5.24722">
        <ele>161.91035461426</ele>
        <time>2010-03-13T13:32:13Z</time>
      </trkpt>
      <trkpt lat="45.06049" lon="5.24759">
        <ele>161.72180175781</ele>
        <time>2010-03-13T13:32:17Z</time>
      </trkpt>
      <trkpt lat="45.06027" lon="5.24856">
        <ele>163.10125732422</ele>
        <time>2010-03-13T13:32:28Z</time>
      </trkpt>
      <trkpt lat="45.05988" lon="5.24946">
        <ele>167.27885437012</ele>
        <time>2010-03-13T13:32:40Z</time>
      </trkpt>
      <trkpt lat="45.05951" lon="5.24995">
        <ele>168.7666015625</ele>
        <time>2010-03-13T13:32:48Z</time>
      </trkpt>
      <trkpt lat="45.0584" lon="5.25093">
        <ele>180.52575683594</ele>
        <time>2010-03-13T13:33:08Z</time>
      </trkpt>
      <trkpt lat="45.05825" lon="5.25205">
        <ele>180.91873168945</ele>
        <time>2010-03-13T13:33:20Z</time>
      </trkpt>
      <trkpt lat="45.05836" lon="5.25331">
        <ele>178.70062255859</ele>
        <time>2010-03-13T13:33:34Z</time>
      </trkpt>
      <trkpt lat="45.05836" lon="5.25416">
        <ele>178.60083007812</ele>
        <time>2010-03-13T13:33:43Z</time>
      </trkpt>
      <trkpt lat="45.05823" lon="5.25469">
        <ele>180.36712646484</ele>
        <time>2010-03-13T13:33:49Z</time>
      </trkpt>
      <trkpt lat="45.05766" lon="5.25598">
        <ele>183.32608032227</ele>
        <time>2010-03-13T13:34:06Z</time>
      </trkpt>
      <trkpt lat="45.05756" lon="5.25629">
        <ele>184.21209716797</ele>
        <time>2010-03-13T13:34:09Z</time>
      </trkpt>
      <trkpt lat="45.05754" lon="5.25646">
        <ele>184.92446899414</ele>
        <time>2010-03-13T13:34:11Z</time>
      </trkpt>
      <trkpt lat="45.05759" lon="5.25715">
        <ele>186.52214050293</ele>
        <time>2010-03-13T13:34:19Z</time>
      </trkpt>
      <trkpt lat="45.05757" lon="5.25763">
        <ele>188.18212890625</ele>
        <time>2010-03-13T13:34:24Z</time>
      </trkpt>
      <trkpt lat="45.05755" lon="5.25767">
        <ele>188.73831176758</ele>
        <time>2010-03-13T13:34:24Z</time>
      </trkpt>
      <trkpt lat="45.05746" lon="5.25765">
        <ele>189.8219909668</ele>
        <time>2010-03-13T13:34:26Z</time>
      </trkpt>
      <trkpt lat="45.05733" lon="5.25689">
        <ele>188.01953125</ele>
        <time>2010-03-13T13:34:34Z</time>
      </trkpt>
      <trkpt lat="45.05709" lon="5.25644">
        <ele>187.70161437988</ele>
        <time>2010-03-13T13:34:40Z</time>
      </trkpt>
      <trkpt lat="45.05687" lon="5.25618">
        <ele>189.53955078125</ele>
        <time>2010-03-13T13:34:45Z</time>
      </trkpt>
      <trkpt lat="45.05646" lon="5.25604">
        <ele>191.73919677734</ele>
        <time>2010-03-13T13:34:51Z</time>
      </trkpt>
      <trkpt lat="45.05605" lon="5.2561">
        <ele>194.44470214844</ele>
        <time>2010-03-13T13:34:58Z</time>
      </trkpt>
      <trkpt lat="45.05569" lon="5.25627">
        <ele>195.94149780273</ele>
        <time>2010-03-13T13:35:03Z</time>
      </trkpt>
      <trkpt lat="45.05461" lon="5.25746">
        <ele>198.85641479492</ele>
        <time>2010-03-13T13:35:24Z</time>
      </trkpt>
      <trkpt lat="45.05448" lon="5.25767">
        <ele>199</ele>
        <time>2010-03-13T13:35:27Z</time>
      </trkpt>
      <trkpt lat="45.05432" lon="5.25815">
        <ele>199</ele>
        <time>2010-03-13T13:35:33Z</time>
      </trkpt>
      <trkpt lat="45.05418" lon="5.25957">
        <ele>200</ele>
        <time>2010-03-13T13:35:49Z</time>
      </trkpt>
      <trkpt lat="45.054" lon="5.26068">
        <ele>200</ele>
        <time>2010-03-13T13:36:01Z</time>
      </trkpt>
      <trkpt lat="45.05394" lon="5.26087">
        <ele>200</ele>
        <time>2010-03-13T13:36:03Z</time>
      </trkpt>
      <trkpt lat="45.05355" lon="5.26151">
        <ele>200</ele>
        <time>2010-03-13T13:36:12Z</time>
      </trkpt>
      <trkpt lat="45.05342" lon="5.26181">
        <ele>200.51538085938</ele>
        <time>2010-03-13T13:36:16Z</time>
      </trkpt>
      <trkpt lat="45.05338" lon="5.26208">
        <ele>202.46607971191</ele>
        <time>2010-03-13T13:36:19Z</time>
      </trkpt>
      <trkpt lat="45.05338" lon="5.2625">
        <ele>206.99794006348</ele>
        <time>2010-03-13T13:36:24Z</time>
      </trkpt>
      <trkpt lat="45.0535" lon="5.26419">
        <ele>220</ele>
        <time>2010-03-13T13:36:42Z</time>
      </trkpt>
      <trkpt lat="45.05343" lon="5.26536">
        <ele>220</ele>
        <time>2010-03-13T13:36:55Z</time>
      </trkpt>
      <trkpt lat="45.05321" lon="5.2657">
        <ele>220</ele>
        <time>2010-03-13T13:37:00Z</time>
      </trkpt>
      <trkpt lat="45.05257" lon="5.26625">
        <ele>220</ele>
        <time>2010-03-13T13:37:11Z</time>
      </trkpt>
      <trkpt lat="45.052" lon="5.26683">
        <ele>220</ele>
        <time>2010-03-13T13:37:22Z</time>
      </trkpt>
      <trkpt lat="45.05118" lon="5.26783">
        <ele>220</ele>
        <time>2010-03-13T13:37:39Z</time>
      </trkpt>
      <trkpt lat="45.05091" lon="5.26824">
        <ele>220</ele>
        <time>2010-03-13T13:37:45Z</time>
      </trkpt>
      <trkpt lat="45.05077" lon="5.26861">
        <ele>220.45739746094</ele>
        <time>2010-03-13T13:37:50Z</time>
      </trkpt>
      <trkpt lat="45.05081" lon="5.26892">
        <ele>220.1552734375</ele>
        <time>2010-03-13T13:37:53Z</time>
      </trkpt>
      <trkpt lat="45.05113" lon="5.26985">
        <ele>218.96636962891</ele>
        <time>2010-03-13T13:38:04Z</time>
      </trkpt>
      <trkpt lat="45.05116" lon="5.2702">
        <ele>219</ele>
        <time>2010-03-13T13:38:08Z</time>
      </trkpt>
      <trkpt lat="45.05074" lon="5.27237">
        <ele>227.36724853516</ele>
        <time>2010-03-13T13:38:32Z</time>
      </trkpt>
      <trkpt lat="45.0507" lon="5.27277">
        <ele>228.92352294922</ele>
        <time>2010-03-13T13:38:37Z</time>
      </trkpt>
      <trkpt lat="45.05068" lon="5.27349">
        <ele>228.80180358887</ele>
        <time>2010-03-13T13:38:45Z</time>
      </trkpt>
      <trkpt lat="45.05071" lon="5.27499">
        <ele>223.93255615234</ele>
        <time>2010-03-13T13:39:01Z</time>
      </trkpt>
      <trkpt lat="45.05076" lon="5.27534">
        <ele>222.53979492188</ele>
        <time>2010-03-13T13:39:05Z</time>
      </trkpt>
      <trkpt lat="45.05093" lon="5.27562">
        <ele>221.76806640625</ele>
        <time>2010-03-13T13:39:09Z</time>
      </trkpt>
      <trkpt lat="45.05162" lon="5.27631">
        <ele>207.33996582031</ele>
        <time>2010-03-13T13:39:22Z</time>
      </trkpt>
      <trkpt lat="45.05233" lon="5.27724">
        <ele>198.06327819824</ele>
        <time>2010-03-13T13:39:37Z</time>
      </trkpt>
      <trkpt lat="45.05241" lon="5.27729">
        <ele>198.24353027344</ele>
        <time>2010-03-13T13:39:38Z</time>
      </trkpt>
      <trkpt lat="45.05264" lon="5.27728">
        <ele>198.20747375488</ele>
        <time>2010-03-13T13:39:41Z</time>
      </trkpt>
      <trkpt lat="45.05331" lon="5.27682">
        <ele>197.55265808106</ele>
        <time>2010-03-13T13:39:53Z</time>
      </trkpt>
      <trkpt lat="45.05348" lon="5.27673">
        <ele>197.22821044922</ele>
        <time>2010-03-13T13:39:56Z</time>
      </trkpt>
      <trkpt lat="45.0537" lon="5.27671">
        <ele>197.15612792969</ele>
        <time>2010-03-13T13:39:59Z</time>
      </trkpt>
      <trkpt lat="45.05398" lon="5.2769">
        <ele>197.83932495117</ele>
        <time>2010-03-13T13:40:04Z</time>
      </trkpt>
      <trkpt lat="45.05502" lon="5.27787">
        <ele>198.57217407227</ele>
        <time>2010-03-13T13:40:23Z</time>
      </trkpt>
      <trkpt lat="45.05512" lon="5.2781">
        <ele>200.16004943848</ele>
        <time>2010-03-13T13:40:26Z</time>
      </trkpt>
      <trkpt lat="45.05511" lon="5.28088">
        <ele>211.36920166016</ele>
        <time>2010-03-13T13:40:56Z</time>
      </trkpt>
      <trkpt lat="45.05515" lon="5.2846">
        <ele>212.92663574219</ele>
        <time>2010-03-13T13:41:36Z</time>
      </trkpt>
      <trkpt lat="45.05513" lon="5.28493">
        <ele>213.06396484375</ele>
        <time>2010-03-13T13:41:40Z</time>
      </trkpt>
      <trkpt lat="45.05495" lon="5.28578">
        <ele>214.17742919922</ele>
        <time>2010-03-13T13:41:49Z</time>
      </trkpt>
      <trkpt lat="45.05483" lon="5.2861">
        <ele>214.61688232422</ele>
        <time>2010-03-13T13:41:53Z</time>
      </trkpt>
      <trkpt lat="45.05454" lon="5.2861">
        <ele>216.32116699219</ele>
        <time>2010-03-13T13:41:58Z</time>
      </trkpt>
      <trkpt lat="45.05445" lon="5.2862">
        <ele>216.64025878906</ele>
        <time>2010-03-13T13:42:00Z</time>
      </trkpt>
      <trkpt lat="45.05442" lon="5.28656">
        <ele>216.17260742188</ele>
        <time>2010-03-13T13:42:04Z</time>
      </trkpt>
      <trkpt lat="45.05452" lon="5.28675">
        <ele>215.72924804688</ele>
        <time>2010-03-13T13:42:06Z</time>
      </trkpt>
      <trkpt lat="45.05458" lon="5.28678">
        <ele>215.50952148438</ele>
        <time>2010-03-13T13:42:07Z</time>
      </trkpt>
      <trkpt lat="45.05253" lon="5.29161">
        <ele>220.71391296387</ele>
        <time>2010-03-13T13:43:08Z</time>
      </trkpt>
      <trkpt lat="45.05229" lon="5.29214">
        <ele>222.49853515625</ele>
        <time>2010-03-13T13:43:15Z</time>
      </trkpt>
      <trkpt lat="45.05214" lon="5.29233">
        <ele>223.20993041992</ele>
        <time>2010-03-13T13:43:18Z</time>
      </trkpt>
      <trkpt lat="45.05132" lon="5.29298">
        <ele>226.5224609375</ele>
        <time>2010-03-13T13:43:33Z</time>
      </trkpt>
      <trkpt lat="45.05052" lon="5.29352">
        <ele>228.44943237305</ele>
        <time>2010-03-13T13:43:46Z</time>
      </trkpt>
      <trkpt lat="45.05011" lon="5.29373">
        <ele>229.35455322266</ele>
        <time>2010-03-13T13:43:53Z</time>
      </trkpt>
      <trkpt lat="45.04945" lon="5.29422">
        <ele>229.78460693359</ele>
        <time>2010-03-13T13:44:04Z</time>
      </trkpt>
      <trkpt lat="45.04942" lon="5.2943">
        <ele>229.79016113281</ele>
        <time>2010-03-13T13:44:05Z</time>
      </trkpt>
      <trkpt lat="45.04904" lon="5.29463">
        <ele>232.01275634766</ele>
        <time>2010-03-13T13:44:12Z</time>
      </trkpt>
      <trkpt lat="45.04887" lon="5.29488">
        <ele>232.52926635742</ele>
        <time>2010-03-13T13:44:16Z</time>
      </trkpt>
      <trkpt lat="45.0486" lon="5.2951">
        <ele>232.47668457031</ele>
        <time>2010-03-13T13:44:21Z</time>
      </trkpt>
      <trkpt lat="45.04839" lon="5.29525">
        <ele>234.47254943848</ele>
        <time>2010-03-13T13:44:24Z</time>
      </trkpt>
      <trkpt lat="45.04815" lon="5.29531">
        <ele>238.86317443848</ele>
        <time>2010-03-13T13:44:28Z</time>
      </trkpt>
      <trkpt lat="45.04545" lon="5.29721">
        <ele>237.97163391113</ele>
        <time>2010-03-13T13:45:14Z</time>
      </trkpt>
      <trkpt lat="45.045" lon="5.29738">
        <ele>237.74160766602</ele>
        <time>2010-03-13T13:45:21Z</time>
      </trkpt>
      <trkpt lat="45.04465" lon="5.29744">
        <ele>238.09439086914</ele>
        <time>2010-03-13T13:45:27Z</time>
      </trkpt>
      <trkpt lat="45.04373" lon="5.2975">
        <ele>228.99882507324</ele>
        <time>2010-03-13T13:45:41Z</time>
      </trkpt>
      <trkpt lat="45.04246" lon="5.29719">
        <ele>238.63230895996</ele>
        <time>2010-03-13T13:46:01Z</time>
      </trkpt>
      <trkpt lat="45.04166" lon="5.29707">
        <ele>241.64797973633</ele>
        <time>2010-03-13T13:46:13Z</time>
      </trkpt>
      <trkpt lat="45.04071" lon="5.29705">
        <ele>241.92239379883</ele>
        <time>2010-03-13T13:46:28Z</time>
      </trkpt>
      <trkpt lat="45.03911" lon="5.29726">
        <ele>241.9860534668</ele>
        <time>2010-03-13T13:46:52Z</time>
      </trkpt>
      <trkpt lat="45.03749" lon="5.29737">
        <ele>239.74078369141</ele>
        <time>2010-03-13T13:47:17Z</time>
      </trkpt>
      <trkpt lat="45.03726" lon="5.29738">
        <ele>236.24575805664</ele>
        <time>2010-03-13T13:47:21Z</time>
      </trkpt>
      <trkpt lat="45.03698" lon="5.29729">
        <ele>235.27984619141</ele>
        <time>2010-03-13T13:47:25Z</time>
      </trkpt>
      <trkpt lat="45.03529" lon="5.29534">
        <ele>240.05848693848</ele>
        <time>2010-03-13T13:47:59Z</time>
      </trkpt>
      <trkpt lat="45.03473" lon="5.29416">
        <ele>242.29351806641</ele>
        <time>2010-03-13T13:48:14Z</time>
      </trkpt>
      <trkpt lat="45.03455" lon="5.29385">
        <ele>242.50875854492</ele>
        <time>2010-03-13T13:48:18Z</time>
      </trkpt>
      <trkpt lat="45.03423" lon="5.29344">
        <ele>243.82273864746</ele>
        <time>2010-03-13T13:48:25Z</time>
      </trkpt>
      <trkpt lat="45.03235" lon="5.29197">
        <ele>230.72776794434</ele>
        <time>2010-03-13T13:48:58Z</time>
      </trkpt>
      <trkpt lat="45.03195" lon="5.29171">
        <ele>229.76510620117</ele>
        <time>2010-03-13T13:49:05Z</time>
      </trkpt>
      <trkpt lat="45.02991" lon="5.28977">
        <ele>234.84213256836</ele>
        <time>2010-03-13T13:49:43Z</time>
      </trkpt>
      <trkpt lat="45.02951" lon="5.28944">
        <ele>235.79058837891</ele>
        <time>2010-03-13T13:49:50Z</time>
      </trkpt>
      <trkpt lat="45.02924" lon="5.28935">
        <ele>236.21273803711</ele>
        <time>2010-03-13T13:49:54Z</time>
      </trkpt>
      <trkpt lat="45.02851" lon="5.28961">
        <ele>220</ele>
        <time>2010-03-13T13:50:05Z</time>
      </trkpt>
      <trkpt lat="45.02822" lon="5.28961">
        <ele>220</ele>
        <time>2010-03-13T13:50:10Z</time>
      </trkpt>
      <trkpt lat="45.0281" lon="5.28955">
        <ele>220</ele>
        <time>2010-03-13T13:50:12Z</time>
      </trkpt>
      <trkpt lat="45.02772" lon="5.2892">
        <ele>220</ele>
        <time>2010-03-13T13:50:19Z</time>
      </trkpt>
      <trkpt lat="45.0276" lon="5.28914">
        <ele>220</ele>
        <time>2010-03-13T13:50:21Z</time>
      </trkpt>
      <trkpt lat="45.02671" lon="5.28828">
        <ele>232.17471313477</ele>
        <time>2010-03-13T13:50:37Z</time>
      </trkpt>
      <trkpt lat="45.02607" lon="5.28798">
        <ele>237.1955871582</ele>
        <time>2010-03-13T13:50:48Z</time>
      </trkpt>
      <trkpt lat="45.02565" lon="5.28792">
        <ele>237.80410766602</ele>
        <time>2010-03-13T13:50:54Z</time>
      </trkpt>
      <trkpt lat="45.02531" lon="5.28776">
        <ele>239.25915527344</ele>
        <time>2010-03-13T13:51:00Z</time>
      </trkpt>
      <trkpt lat="45.02476" lon="5.28691">
        <ele>250.60160827637</ele>
        <time>2010-03-13T13:51:12Z</time>
      </trkpt>
      <trkpt lat="45.02466" lon="5.28679">
        <ele>252.78190612793</ele>
        <time>2010-03-13T13:51:14Z</time>
      </trkpt>
      <trkpt lat="45.02445" lon="5.2867">
        <ele>254.40411376953</ele>
        <time>2010-03-13T13:51:17Z</time>
      </trkpt>
      <trkpt lat="45.02418" lon="5.28669">
        <ele>254.57577514648</ele>
        <time>2010-03-13T13:51:22Z</time>
      </trkpt>
      <trkpt lat="45.02396" lon="5.28681">
        <ele>250.19064331055</ele>
        <time>2010-03-13T13:51:25Z</time>
      </trkpt>
      <trkpt lat="45.02375" lon="5.287">
        <ele>245.59797668457</ele>
        <time>2010-03-13T13:51:29Z</time>
      </trkpt>
      <trkpt lat="45.02335" lon="5.28757">
        <ele>240.7996673584</ele>
        <time>2010-03-13T13:51:38Z</time>
      </trkpt>
      <trkpt lat="45.02312" lon="5.288">
        <ele>237.12850952148</ele>
        <time>2010-03-13T13:51:44Z</time>
      </trkpt>
      <trkpt lat="45.02279" lon="5.28895">
        <ele>224.98223876953</ele>
        <time>2010-03-13T13:51:55Z</time>
      </trkpt>
      <trkpt lat="45.02191" lon="5.29011">
        <ele>237.16500854492</ele>
        <time>2010-03-13T13:52:14Z</time>
      </trkpt>
      <trkpt lat="45.02065" lon="5.29146">
        <ele>239</ele>
        <time>2010-03-13T13:52:38Z</time>
      </trkpt>
      <trkpt lat="45.02004" lon="5.29106">
        <ele>239</ele>
        <time>2010-03-13T13:52:48Z</time>
      </trkpt>
      <trkpt lat="45.01841" lon="5.29025">
        <ele>238.89936828613</ele>
        <time>2010-03-13T13:53:15Z</time>
      </trkpt>
      <trkpt lat="45.01825" lon="5.29008">
        <ele>238.28825378418</ele>
        <time>2010-03-13T13:53:18Z</time>
      </trkpt>
      <trkpt lat="45.01788" lon="5.28945">
        <ele>238</ele>
        <time>2010-03-13T13:53:27Z</time>
      </trkpt>
      <trkpt lat="45.01634" lon="5.28882">
        <ele>238</ele>
        <time>2010-03-13T13:53:51Z</time>
      </trkpt>
      <trkpt lat="45.01568" lon="5.28846">
        <ele>238</ele>
        <time>2010-03-13T13:54:02Z</time>
      </trkpt>
      <trkpt lat="45.01484" lon="5.28833">
        <ele>238.01171875</ele>
        <time>2010-03-13T13:54:15Z</time>
      </trkpt>
      <trkpt lat="45.01451" lon="5.28835">
        <ele>238</ele>
        <time>2010-03-13T13:54:20Z</time>
      </trkpt>
      <trkpt lat="45.0139" lon="5.28853">
        <ele>238</ele>
        <time>2010-03-13T13:54:30Z</time>
      </trkpt>
      <trkpt lat="45.01326" lon="5.28857">
        <ele>238.22520446777</ele>
        <time>2010-03-13T13:54:40Z</time>
      </trkpt>
      <trkpt lat="45.01285" lon="5.28847">
        <ele>239.22506713867</ele>
        <time>2010-03-13T13:54:46Z</time>
      </trkpt>
      <trkpt lat="45.01261" lon="5.28852">
        <ele>240.27049255371</ele>
        <time>2010-03-13T13:54:50Z</time>
      </trkpt>
      <trkpt lat="45.01245" lon="5.28867">
        <ele>241.98825073242</ele>
        <time>2010-03-13T13:54:53Z</time>
      </trkpt>
      <trkpt lat="45.01189" lon="5.28834">
        <ele>241.24317932129</ele>
        <time>2010-03-13T13:55:02Z</time>
      </trkpt>
      <trkpt lat="45.01094" lon="5.2878">
        <ele>240.74217224121</ele>
        <time>2010-03-13T13:55:18Z</time>
      </trkpt>
      <trkpt lat="45.01054" lon="5.28735">
        <ele>240.62854003906</ele>
        <time>2010-03-13T13:55:25Z</time>
      </trkpt>
      <trkpt lat="45.00645" lon="5.28399">
        <ele>248.14131164551</ele>
        <time>2010-03-13T13:56:38Z</time>
      </trkpt>
      <trkpt lat="45.0054" lon="5.28302">
        <ele>256.16543579102</ele>
        <time>2010-03-13T13:56:57Z</time>
      </trkpt>
      <trkpt lat="45.0052" lon="5.28275">
        <ele>257.63555908203</ele>
        <time>2010-03-13T13:57:02Z</time>
      </trkpt>
      <trkpt lat="45.00505" lon="5.28241">
        <ele>258.81762695312</ele>
        <time>2010-03-13T13:57:06Z</time>
      </trkpt>
      <trkpt lat="45.00508" lon="5.28074">
        <ele>260</ele>
        <time>2010-03-13T13:57:24Z</time>
      </trkpt>
      <trkpt lat="45.00496" lon="5.28038">
        <ele>260</ele>
        <time>2010-03-13T13:57:28Z</time>
      </trkpt>
      <trkpt lat="45.00468" lon="5.28002">
        <ele>261.85430908203</ele>
        <time>2010-03-13T13:57:34Z</time>
      </trkpt>
      <trkpt lat="45.00267" lon="5.27818">
        <ele>279.60583496094</ele>
        <time>2010-03-13T13:58:11Z</time>
      </trkpt>
      <trkpt lat="45.00029" lon="5.27603">
        <ele>271.78930664062</ele>
        <time>2010-03-13T13:58:54Z</time>
      </trkpt>
      <trkpt lat="44.99972" lon="5.27542">
        <ele>273.4543762207</ele>
        <time>2010-03-13T13:59:05Z</time>
      </trkpt>
      <trkpt lat="44.99954" lon="5.27531">
        <ele>273.17449951172</ele>
        <time>2010-03-13T13:59:08Z</time>
      </trkpt>
      <trkpt lat="44.99924" lon="5.27498">
        <ele>277.43054199219</ele>
        <time>2010-03-13T13:59:14Z</time>
      </trkpt>
      <trkpt lat="44.99909" lon="5.27474">
        <ele>282.61126708984</ele>
        <time>2010-03-13T13:59:18Z</time>
      </trkpt>
      <trkpt lat="44.99865" lon="5.27428">
        <ele>291.9587097168</ele>
        <time>2010-03-13T13:59:26Z</time>
      </trkpt>
      <trkpt lat="44.99834" lon="5.27408">
        <ele>295.87634277344</ele>
        <time>2010-03-13T13:59:31Z</time>
      </trkpt>
      <trkpt lat="44.99782" lon="5.27393">
        <ele>300.79339599609</ele>
        <time>2010-03-13T13:59:39Z</time>
      </trkpt>
      <trkpt lat="44.99771" lon="5.27395">
        <ele>300.67785644531</ele>
        <time>2010-03-13T13:59:41Z</time>
      </trkpt>
      <trkpt lat="44.99736" lon="5.27416">
        <ele>297.15234375</ele>
        <time>2010-03-13T13:59:47Z</time>
      </trkpt>
      <trkpt lat="44.99732" lon="5.27427">
        <ele>295.57614135742</ele>
        <time>2010-03-13T13:59:48Z</time>
      </trkpt>
      <trkpt lat="44.99707" lon="5.27435">
        <ele>294.69702148438</ele>
        <time>2010-03-13T13:59:52Z</time>
      </trkpt>
      <trkpt lat="44.99637" lon="5.27437">
        <ele>294.33651733398</ele>
        <time>2010-03-13T14:00:03Z</time>
      </trkpt>
      <trkpt lat="44.99619" lon="5.27442">
        <ele>293.44387817383</ele>
        <time>2010-03-13T14:00:06Z</time>
      </trkpt>
      <trkpt lat="44.99612" lon="5.27456">
        <ele>289.67272949219</ele>
        <time>2010-03-13T14:00:08Z</time>
      </trkpt>
      <trkpt lat="44.99595" lon="5.27561">
        <ele>260</ele>
        <time>2010-03-13T14:00:19Z</time>
      </trkpt>
      <trkpt lat="44.99587" lon="5.27579">
        <ele>260</ele>
        <time>2010-03-13T14:00:22Z</time>
      </trkpt>
      <trkpt lat="44.99524" lon="5.27569">
        <ele>259.58288574219</ele>
        <time>2010-03-13T14:00:31Z</time>
      </trkpt>
      <trkpt lat="44.9942" lon="5.27598">
        <ele>259.05944824219</ele>
        <time>2010-03-13T14:00:48Z</time>
      </trkpt>
      <trkpt lat="44.99407" lon="5.27652">
        <ele>259</ele>
        <time>2010-03-13T14:00:54Z</time>
      </trkpt>
      <trkpt lat="44.99382" lon="5.27711">
        <ele>259</ele>
        <time>2010-03-13T14:01:01Z</time>
      </trkpt>
      <trkpt lat="44.9937" lon="5.27717">
        <ele>259</ele>
        <time>2010-03-13T14:01:03Z</time>
      </trkpt>
      <trkpt lat="44.99335" lon="5.27714">
        <ele>259</ele>
        <time>2010-03-13T14:01:09Z</time>
      </trkpt>
      <trkpt lat="44.99324" lon="5.27718">
        <ele>259</ele>
        <time>2010-03-13T14:01:10Z</time>
      </trkpt>
      <trkpt lat="44.99301" lon="5.27767">
        <ele>268.8193359375</ele>
        <time>2010-03-13T14:01:17Z</time>
      </trkpt>
      <trkpt lat="44.99231" lon="5.27913">
        <ele>303.28936767578</ele>
        <time>2010-03-13T14:01:36Z</time>
      </trkpt>
      <trkpt lat="44.99218" lon="5.27933">
        <ele>305.38980102539</ele>
        <time>2010-03-13T14:01:39Z</time>
      </trkpt>
      <trkpt lat="44.99273" lon="5.27952">
        <ele>304.39074707031</ele>
        <time>2010-03-13T14:01:47Z</time>
      </trkpt>
      <trkpt lat="44.99295" lon="5.27968">
        <ele>307.01034545898</ele>
        <time>2010-03-13T14:01:51Z</time>
      </trkpt>
      <trkpt lat="44.9931" lon="5.27987">
        <ele>309.91070556641</ele>
        <time>2010-03-13T14:01:54Z</time>
      </trkpt>
      <trkpt lat="44.99491" lon="5.27922">
        <ele>309.95834350586</ele>
        <time>2010-03-13T14:02:23Z</time>
      </trkpt>
      <trkpt lat="44.99502" lon="5.27927">
        <ele>309.96075439453</ele>
        <time>2010-03-13T14:02:25Z</time>
      </trkpt>
      <trkpt lat="44.9951" lon="5.27949">
        <ele>312.27746582031</ele>
        <time>2010-03-13T14:02:27Z</time>
      </trkpt>
      <trkpt lat="44.99508" lon="5.27969">
        <ele>316.73034667969</ele>
        <time>2010-03-13T14:02:30Z</time>
      </trkpt>
      <trkpt lat="44.99503" lon="5.27973">
        <ele>317.84866333008</ele>
        <time>2010-03-13T14:02:31Z</time>
      </trkpt>
      <trkpt lat="44.99511" lon="5.27989">
        <ele>318.89624023438</ele>
        <time>2010-03-13T14:02:33Z</time>
      </trkpt>
      <trkpt lat="44.99523" lon="5.28056">
        <ele>322.18218994141</ele>
        <time>2010-03-13T14:02:40Z</time>
      </trkpt>
      <trkpt lat="44.99535" lon="5.2808">
        <ele>322.3603515625</ele>
        <time>2010-03-13T14:02:43Z</time>
      </trkpt>
      <trkpt lat="44.99546" lon="5.28092">
        <ele>321.99642944336</ele>
        <time>2010-03-13T14:02:46Z</time>
      </trkpt>
      <trkpt lat="44.9956" lon="5.281">
        <ele>320.97003173828</ele>
        <time>2010-03-13T14:02:48Z</time>
      </trkpt>
      <trkpt lat="44.99644" lon="5.28093">
        <ele>312.48287963867</ele>
        <time>2010-03-13T14:03:01Z</time>
      </trkpt>
      <trkpt lat="44.99661" lon="5.28098">
        <ele>311.21087646484</ele>
        <time>2010-03-13T14:03:03Z</time>
      </trkpt>
      <trkpt lat="44.9979" lon="5.28225">
        <ele>308.37634277344</ele>
        <time>2010-03-13T14:03:28Z</time>
      </trkpt>
      <trkpt lat="44.99921" lon="5.28421">
        <ele>312.18029785156</ele>
        <time>2010-03-13T14:03:57Z</time>
      </trkpt>
      <trkpt lat="44.99979" lon="5.28499">
        <ele>312.44970703125</ele>
        <time>2010-03-13T14:04:09Z</time>
      </trkpt>
      <trkpt lat="45.00003" lon="5.2852">
        <ele>310.14337158203</ele>
        <time>2010-03-13T14:04:13Z</time>
      </trkpt>
      <trkpt lat="45.00027" lon="5.28533">
        <ele>305.73211669922</ele>
        <time>2010-03-13T14:04:17Z</time>
      </trkpt>
      <trkpt lat="45.00104" lon="5.28548">
        <ele>294.20892333984</ele>
        <time>2010-03-13T14:04:29Z</time>
      </trkpt>
      <trkpt lat="45.00223" lon="5.28569">
        <ele>289.38265991211</ele>
        <time>2010-03-13T14:04:48Z</time>
      </trkpt>
      <trkpt lat="45.00252" lon="5.28587">
        <ele>289.10961914062</ele>
        <time>2010-03-13T14:04:53Z</time>
      </trkpt>
      <trkpt lat="45.0033" lon="5.28676">
        <ele>287.32891845703</ele>
        <time>2010-03-13T14:05:08Z</time>
      </trkpt>
      <trkpt lat="45.00393" lon="5.28707">
        <ele>286.20892333984</ele>
        <time>2010-03-13T14:05:18Z</time>
      </trkpt>
      <trkpt lat="45.00546" lon="5.28714">
        <ele>279.96948242188</ele>
        <time>2010-03-13T14:05:42Z</time>
      </trkpt>
      <trkpt lat="45.00603" lon="5.28734">
        <ele>276.72903442383</ele>
        <time>2010-03-13T14:05:51Z</time>
      </trkpt>
      <trkpt lat="45.00653" lon="5.28763">
        <ele>273.80923461914</ele>
        <time>2010-03-13T14:05:59Z</time>
      </trkpt>
      <trkpt lat="45.00757" lon="5.28854">
        <ele>273.73858642578</ele>
        <time>2010-03-13T14:06:18Z</time>
      </trkpt>
      <trkpt lat="45.00898" lon="5.28926">
        <ele>276.25335693359</ele>
        <time>2010-03-13T14:06:41Z</time>
      </trkpt>
      <trkpt lat="45.00964" lon="5.28968">
        <ele>274.27581787109</ele>
        <time>2010-03-13T14:06:52Z</time>
      </trkpt>
      <trkpt lat="45.00994" lon="5.28981">
        <ele>269.21240234375</ele>
        <time>2010-03-13T14:06:57Z</time>
      </trkpt>
      <trkpt lat="45.00978" lon="5.2902">
        <ele>278.57232666016</ele>
        <time>2010-03-13T14:07:02Z</time>
      </trkpt>
      <trkpt lat="45.0094" lon="5.29031">
        <ele>282.43988037109</ele>
        <time>2010-03-13T14:07:08Z</time>
      </trkpt>
      <trkpt lat="45.00924" lon="5.29058">
        <ele>284.62951660156</ele>
        <time>2010-03-13T14:07:11Z</time>
      </trkpt>
      <trkpt lat="45.00838" lon="5.29115">
        <ele>293.05456542969</ele>
        <time>2010-03-13T14:07:26Z</time>
      </trkpt>
      <trkpt lat="45.00875" lon="5.29136">
        <ele>291.83721923828</ele>
        <time>2010-03-13T14:07:32Z</time>
      </trkpt>
      <trkpt lat="45.00895" lon="5.29166">
        <ele>292.52133178711</ele>
        <time>2010-03-13T14:07:37Z</time>
      </trkpt>
      <trkpt lat="45.00963" lon="5.29305">
        <ele>291.34555053711</ele>
        <time>2010-03-13T14:07:55Z</time>
      </trkpt>
      <trkpt lat="45.00994" lon="5.29348">
        <ele>290.83987426758</ele>
        <time>2010-03-13T14:08:02Z</time>
      </trkpt>
      <trkpt lat="45.01086" lon="5.29447">
        <ele>290.8962097168</ele>
        <time>2010-03-13T14:08:19Z</time>
      </trkpt>
      <trkpt lat="45.01156" lon="5.29543">
        <ele>290.93792724609</ele>
        <time>2010-03-13T14:08:34Z</time>
      </trkpt>
      <trkpt lat="45.01171" lon="5.29553">
        <ele>290.74740600586</ele>
        <time>2010-03-13T14:08:37Z</time>
      </trkpt>
      <trkpt lat="45.01194" lon="5.2958">
        <ele>290.01599121094</ele>
        <time>2010-03-13T14:08:41Z</time>
      </trkpt>
      <trkpt lat="45.01337" lon="5.29688">
        <ele>287.63330078125</ele>
        <time>2010-03-13T14:09:06Z</time>
      </trkpt>
      <trkpt lat="45.01361" lon="5.29711">
        <ele>287.59725952148</ele>
        <time>2010-03-13T14:09:11Z</time>
      </trkpt>
      <trkpt lat="45.01443" lon="5.29813">
        <ele>286.31652832031</ele>
        <time>2010-03-13T14:09:27Z</time>
      </trkpt>
      <trkpt lat="45.01497" lon="5.29872">
        <ele>284.5036315918</ele>
        <time>2010-03-13T14:09:38Z</time>
      </trkpt>
      <trkpt lat="45.016" lon="5.29964">
        <ele>282.28479003906</ele>
        <time>2010-03-13T14:09:57Z</time>
      </trkpt>
      <trkpt lat="45.01733" lon="5.3007">
        <ele>280</ele>
        <time>2010-03-13T14:10:20Z</time>
      </trkpt>
      <trkpt lat="45.01791" lon="5.30103">
        <ele>280</ele>
        <time>2010-03-13T14:10:30Z</time>
      </trkpt>
      <trkpt lat="45.01801" lon="5.30119">
        <ele>279.76370239258</ele>
        <time>2010-03-13T14:10:32Z</time>
      </trkpt>
      <trkpt lat="45.01832" lon="5.30197">
        <ele>277.09201049805</ele>
        <time>2010-03-13T14:10:42Z</time>
      </trkpt>
      <trkpt lat="45.01889" lon="5.30261">
        <ele>273.38708496094</ele>
        <time>2010-03-13T14:10:53Z</time>
      </trkpt>
      <trkpt lat="45.01992" lon="5.30335">
        <ele>273.40655517578</ele>
        <time>2010-03-13T14:11:11Z</time>
      </trkpt>
      <trkpt lat="45.02082" lon="5.30418">
        <ele>284.00274658203</ele>
        <time>2010-03-13T14:11:27Z</time>
      </trkpt>
      <trkpt lat="45.02189" lon="5.30501">
        <ele>289.0354309082</ele>
        <time>2010-03-13T14:11:46Z</time>
      </trkpt>
      <trkpt lat="45.02204" lon="5.30517">
        <ele>289.26345825195</ele>
        <time>2010-03-13T14:11:49Z</time>
      </trkpt>
      <trkpt lat="45.02236" lon="5.30577">
        <ele>286.63848876953</ele>
        <time>2010-03-13T14:11:57Z</time>
      </trkpt>
      <trkpt lat="45.02259" lon="5.30638">
        <ele>285.93450927734</ele>
        <time>2010-03-13T14:12:04Z</time>
      </trkpt>
      <trkpt lat="45.02282" lon="5.30704">
        <ele>289.04425048828</ele>
        <time>2010-03-13T14:12:12Z</time>
      </trkpt>
      <trkpt lat="45.02289" lon="5.30751">
        <ele>290.857421875</ele>
        <time>2010-03-13T14:12:18Z</time>
      </trkpt>
      <trkpt lat="45.02285" lon="5.30806">
        <ele>293.50863647461</ele>
        <time>2010-03-13T14:12:24Z</time>
      </trkpt>
      <trkpt lat="45.02274" lon="5.30832">
        <ele>296.31869506836</ele>
        <time>2010-03-13T14:12:27Z</time>
      </trkpt>
      <trkpt lat="45.02218" lon="5.30931">
        <ele>300</ele>
        <time>2010-03-13T14:12:41Z</time>
      </trkpt>
      <trkpt lat="45.02219" lon="5.30944">
        <ele>300</ele>
        <time>2010-03-13T14:12:42Z</time>
      </trkpt>
      <trkpt lat="45.02223" lon="5.3095">
        <ele>299.48574829102</ele>
        <time>2010-03-13T14:12:43Z</time>
      </trkpt>
      <trkpt lat="45.02259" lon="5.3095">
        <ele>292.76617431641</ele>
        <time>2010-03-13T14:12:48Z</time>
      </trkpt>
      <trkpt lat="45.02269" lon="5.3097">
        <ele>288.82312011719</ele>
        <time>2010-03-13T14:12:51Z</time>
      </trkpt>
      <trkpt lat="45.02285" lon="5.31021">
        <ele>279.40615844727</ele>
        <time>2010-03-13T14:12:57Z</time>
      </trkpt>
      <trkpt lat="45.02277" lon="5.31059">
        <ele>278.90502929688</ele>
        <time>2010-03-13T14:13:01Z</time>
      </trkpt>
      <trkpt lat="45.02269" lon="5.31198">
        <ele>274.59301757812</ele>
        <time>2010-03-13T14:13:17Z</time>
      </trkpt>
      <trkpt lat="45.0226" lon="5.31274">
        <ele>272.78277587891</ele>
        <time>2010-03-13T14:13:25Z</time>
      </trkpt>
      <trkpt lat="45.02251" lon="5.31358">
        <ele>270.9284362793</ele>
        <time>2010-03-13T14:13:34Z</time>
      </trkpt>
      <trkpt lat="45.02292" lon="5.31449">
        <ele>266.32925415039</ele>
        <time>2010-03-13T14:13:46Z</time>
      </trkpt>
      <trkpt lat="45.02257" lon="5.31493">
        <ele>265.99450683594</ele>
        <time>2010-03-13T14:13:53Z</time>
      </trkpt>
      <trkpt lat="45.0214" lon="5.31684">
        <ele>266.29211425781</ele>
        <time>2010-03-13T14:14:20Z</time>
      </trkpt>
      <trkpt lat="45.02015" lon="5.31816">
        <ele>270.92553710938</ele>
        <time>2010-03-13T14:14:44Z</time>
      </trkpt>
      <trkpt lat="45.01967" lon="5.31878">
        <ele>272.89581298828</ele>
        <time>2010-03-13T14:14:54Z</time>
      </trkpt>
      <trkpt lat="45.01929" lon="5.31965">
        <ele>274.77404785156</ele>
        <time>2010-03-13T14:15:05Z</time>
      </trkpt>
      <trkpt lat="45.01867" lon="5.32193">
        <ele>281.24655151367</ele>
        <time>2010-03-13T14:15:32Z</time>
      </trkpt>
      <trkpt lat="45.01848" lon="5.32229">
        <ele>284.0188293457</ele>
        <time>2010-03-13T14:15:37Z</time>
      </trkpt>
      <trkpt lat="45.01805" lon="5.32292">
        <ele>283.53689575195</ele>
        <time>2010-03-13T14:15:46Z</time>
      </trkpt>
      <trkpt lat="45.01799" lon="5.3231">
        <ele>281.98043823242</ele>
        <time>2010-03-13T14:15:49Z</time>
      </trkpt>
      <trkpt lat="45.01799" lon="5.32332">
        <ele>277.23229980469</ele>
        <time>2010-03-13T14:15:51Z</time>
      </trkpt>
      <trkpt lat="45.0181" lon="5.32383">
        <ele>265.6330871582</ele>
        <time>2010-03-13T14:15:57Z</time>
      </trkpt>
      <trkpt lat="45.01835" lon="5.32423">
        <ele>258.67333984375</ele>
        <time>2010-03-13T14:16:03Z</time>
      </trkpt>
      <trkpt lat="45.01885" lon="5.32483">
        <ele>257.38818359375</ele>
        <time>2010-03-13T14:16:13Z</time>
      </trkpt>
      <trkpt lat="45.01897" lon="5.32489">
        <ele>257.6044921875</ele>
        <time>2010-03-13T14:16:15Z</time>
      </trkpt>
      <trkpt lat="45.0195" lon="5.3248">
        <ele>257.13415527344</ele>
        <time>2010-03-13T14:16:23Z</time>
      </trkpt>
      <trkpt lat="45.01989" lon="5.3247">
        <ele>256.47442626953</ele>
        <time>2010-03-13T14:16:29Z</time>
      </trkpt>
      <trkpt lat="45.02011" lon="5.32494">
        <ele>267.99063110352</ele>
        <time>2010-03-13T14:16:33Z</time>
      </trkpt>
      <trkpt lat="45.02041" lon="5.32505">
        <ele>280.79180908203</ele>
        <time>2010-03-13T14:16:38Z</time>
      </trkpt>
      <trkpt lat="45.02175" lon="5.32499">
        <ele>293.45196533203</ele>
        <time>2010-03-13T14:16:58Z</time>
      </trkpt>
      <trkpt lat="45.02276" lon="5.32477">
        <ele>292.68762207031</ele>
        <time>2010-03-13T14:17:14Z</time>
      </trkpt>
      <trkpt lat="45.02369" lon="5.32445">
        <ele>292.20007324219</ele>
        <time>2010-03-13T14:17:29Z</time>
      </trkpt>
      <trkpt lat="45.02443" lon="5.32394">
        <ele>294.38650512695</ele>
        <time>2010-03-13T14:17:41Z</time>
      </trkpt>
      <trkpt lat="45.02493" lon="5.32377">
        <ele>299.90405273438</ele>
        <time>2010-03-13T14:17:49Z</time>
      </trkpt>
      <trkpt lat="45.02519" lon="5.32333">
        <ele>299.30380249023</ele>
        <time>2010-03-13T14:17:56Z</time>
      </trkpt>
      <trkpt lat="45.02647" lon="5.32203">
        <ele>291.72808837891</ele>
        <time>2010-03-13T14:18:20Z</time>
      </trkpt>
      <trkpt lat="45.02665" lon="5.32185">
        <ele>290.17303466797</ele>
        <time>2010-03-13T14:18:23Z</time>
      </trkpt>
      <trkpt lat="45.02713" lon="5.32152">
        <ele>286.41439819336</ele>
        <time>2010-03-13T14:18:31Z</time>
      </trkpt>
      <trkpt lat="45.02738" lon="5.32148">
        <ele>286.36853027344</ele>
        <time>2010-03-13T14:18:35Z</time>
      </trkpt>
      <trkpt lat="45.02746" lon="5.32136">
        <ele>285.43508911133</ele>
        <time>2010-03-13T14:18:37Z</time>
      </trkpt>
      <trkpt lat="45.02812" lon="5.32108">
        <ele>284.10412597656</ele>
        <time>2010-03-13T14:18:48Z</time>
      </trkpt>
      <trkpt lat="45.02793" lon="5.32193">
        <ele>291.81988525391</ele>
        <time>2010-03-13T14:18:57Z</time>
      </trkpt>
      <trkpt lat="45.02786" lon="5.32206">
        <ele>292.95413208008</ele>
        <time>2010-03-13T14:18:59Z</time>
      </trkpt>
      <trkpt lat="45.02788" lon="5.32241">
        <ele>296.82650756836</ele>
        <time>2010-03-13T14:19:03Z</time>
      </trkpt>
      <trkpt lat="45.02767" lon="5.32429">
        <ele>305.44326782227</ele>
        <time>2010-03-13T14:19:23Z</time>
      </trkpt>
      <trkpt lat="45.0277" lon="5.32458">
        <ele>306.13943481445</ele>
        <time>2010-03-13T14:19:27Z</time>
      </trkpt>
      <trkpt lat="45.02783" lon="5.32509">
        <ele>308.14218139648</ele>
        <time>2010-03-13T14:19:32Z</time>
      </trkpt>
      <trkpt lat="45.02805" lon="5.32568">
        <ele>309.44720458984</ele>
        <time>2010-03-13T14:19:40Z</time>
      </trkpt>
      <trkpt lat="45.02805" lon="5.32589">
        <ele>310.00448608398</ele>
        <time>2010-03-13T14:19:42Z</time>
      </trkpt>
      <trkpt lat="45.02791" lon="5.3262">
        <ele>310.85006713867</ele>
        <time>2010-03-13T14:19:46Z</time>
      </trkpt>
      <trkpt lat="45.02791" lon="5.32628">
        <ele>311.13845825195</ele>
        <time>2010-03-13T14:19:47Z</time>
      </trkpt>
      <trkpt lat="45.02874" lon="5.32732">
        <ele>313.18896484375</ele>
        <time>2010-03-13T14:20:04Z</time>
      </trkpt>
      <trkpt lat="45.02874" lon="5.3274">
        <ele>313.34359741211</ele>
        <time>2010-03-13T14:20:05Z</time>
      </trkpt>
      <trkpt lat="45.02911" lon="5.32802">
        <ele>314.07650756836</ele>
        <time>2010-03-13T14:20:14Z</time>
      </trkpt>
      <trkpt lat="45.02917" lon="5.32805">
        <ele>313.96524047852</ele>
        <time>2010-03-13T14:20:15Z</time>
      </trkpt>
      <trkpt lat="45.02961" lon="5.32888">
        <ele>313.37255859375</ele>
        <time>2010-03-13T14:20:26Z</time>
      </trkpt>
      <trkpt lat="45.03013" lon="5.32998">
        <ele>312.53747558594</ele>
        <time>2010-03-13T14:20:40Z</time>
      </trkpt>
      <trkpt lat="45.03057" lon="5.33107">
        <ele>309.94445800781</ele>
        <time>2010-03-13T14:20:54Z</time>
      </trkpt>
      <trkpt lat="45.03082" lon="5.3314">
        <ele>309.05181884766</ele>
        <time>2010-03-13T14:20:59Z</time>
      </trkpt>
      <trkpt lat="45.03084" lon="5.33148">
        <ele>308.96942138672</ele>
        <time>2010-03-13T14:21:00Z</time>
      </trkpt>
      <trkpt lat="45.03113" lon="5.33172">
        <ele>308.11727905273</ele>
        <time>2010-03-13T14:21:05Z</time>
      </trkpt>
      <trkpt lat="45.03143" lon="5.33189">
        <ele>307.68737792969</ele>
        <time>2010-03-13T14:21:10Z</time>
      </trkpt>
      <trkpt lat="45.03183" lon="5.33203">
        <ele>305.8251953125</ele>
        <time>2010-03-13T14:21:16Z</time>
      </trkpt>
      <trkpt lat="45.0328" lon="5.33212">
        <ele>300.92443847656</ele>
        <time>2010-03-13T14:21:31Z</time>
      </trkpt>
      <trkpt lat="45.03363" lon="5.33211">
        <ele>298.9306640625</ele>
        <time>2010-03-13T14:21:44Z</time>
      </trkpt>
      <trkpt lat="45.03446" lon="5.33198">
        <ele>296</ele>
        <time>2010-03-13T14:21:57Z</time>
      </trkpt>
      <trkpt lat="45.03599" lon="5.33248">
        <ele>291.42999267578</ele>
        <time>2010-03-13T14:22:21Z</time>
      </trkpt>
      <trkpt lat="45.03612" lon="5.33256">
        <ele>291</ele>
        <time>2010-03-13T14:22:23Z</time>
      </trkpt>
      <trkpt lat="45.03682" lon="5.33319">
        <ele>289.44995117188</ele>
        <time>2010-03-13T14:22:36Z</time>
      </trkpt>
      <trkpt lat="45.03773" lon="5.33418">
        <ele>287.16778564453</ele>
        <time>2010-03-13T14:22:53Z</time>
      </trkpt>
      <trkpt lat="45.03796" lon="5.33449">
        <ele>286.34381103516</ele>
        <time>2010-03-13T14:22:58Z</time>
      </trkpt>
      <trkpt lat="45.03823" lon="5.33503">
        <ele>285.36877441406</ele>
        <time>2010-03-13T14:23:06Z</time>
      </trkpt>
      <trkpt lat="45.0385" lon="5.33594">
        <ele>286.77731323242</ele>
        <time>2010-03-13T14:23:16Z</time>
      </trkpt>
      <trkpt lat="45.03892" lon="5.33643">
        <ele>287.03137207031</ele>
        <time>2010-03-13T14:23:25Z</time>
      </trkpt>
      <trkpt lat="45.03946" lon="5.33695">
        <ele>287.96615600586</ele>
        <time>2010-03-13T14:23:35Z</time>
      </trkpt>
      <trkpt lat="45.04151" lon="5.33754">
        <ele>283.70300292969</ele>
        <time>2010-03-13T14:24:07Z</time>
      </trkpt>
      <trkpt lat="45.04222" lon="5.33788">
        <ele>289.34927368164</ele>
        <time>2010-03-13T14:24:18Z</time>
      </trkpt>
      <trkpt lat="45.04295" lon="5.33835">
        <ele>292.05935668945</ele>
        <time>2010-03-13T14:24:31Z</time>
      </trkpt>
      <trkpt lat="45.04485" lon="5.33909">
        <ele>294</ele>
        <time>2010-03-13T14:25:01Z</time>
      </trkpt>
      <trkpt lat="45.04677" lon="5.34021">
        <ele>288.92126464844</ele>
        <time>2010-03-13T14:25:33Z</time>
      </trkpt>
      <trkpt lat="45.04745" lon="5.34076">
        <ele>282.17633056641</ele>
        <time>2010-03-13T14:25:45Z</time>
      </trkpt>
      <trkpt lat="45.04781" lon="5.34102">
        <ele>281</ele>
        <time>2010-03-13T14:25:51Z</time>
      </trkpt>
      <trkpt lat="45.04804" lon="5.34103">
        <ele>281</ele>
        <time>2010-03-13T14:25:54Z</time>
      </trkpt>
      <trkpt lat="45.04854" lon="5.34036">
        <ele>280</ele>
        <time>2010-03-13T14:26:05Z</time>
      </trkpt>
      <trkpt lat="45.04896" lon="5.33991">
        <ele>280</ele>
        <time>2010-03-13T14:26:13Z</time>
      </trkpt>
      <trkpt lat="45.04918" lon="5.33985">
        <ele>280</ele>
        <time>2010-03-13T14:26:16Z</time>
      </trkpt>
      <trkpt lat="45.04958" lon="5.33992">
        <ele>280</ele>
        <time>2010-03-13T14:26:23Z</time>
      </trkpt>
      <trkpt lat="45.04981" lon="5.34008">
        <ele>280</ele>
        <time>2010-03-13T14:26:27Z</time>
      </trkpt>
      <trkpt lat="45.05151" lon="5.34244">
        <ele>262.43109130859</ele>
        <time>2010-03-13T14:27:03Z</time>
      </trkpt>
      <trkpt lat="45.05187" lon="5.34286">
        <ele>255.79484558106</ele>
        <time>2010-03-13T14:27:10Z</time>
      </trkpt>
      <trkpt lat="45.05208" lon="5.34303">
        <ele>249.82878112793</ele>
        <time>2010-03-13T14:27:14Z</time>
      </trkpt>
      <trkpt lat="45.05244" lon="5.34303">
        <ele>248.89764404297</ele>
        <time>2010-03-13T14:27:20Z</time>
      </trkpt>
      <trkpt lat="45.0535" lon="5.3424">
        <ele>256.80783081055</ele>
        <time>2010-03-13T14:27:37Z</time>
      </trkpt>
      <trkpt lat="45.0539" lon="5.34233">
        <ele>255.58041381836</ele>
        <time>2010-03-13T14:27:43Z</time>
      </trkpt>
      <trkpt lat="45.05528" lon="5.34226">
        <ele>247.17521667481</ele>
        <time>2010-03-13T14:28:05Z</time>
      </trkpt>
      <trkpt lat="45.05573" lon="5.34217">
        <ele>243.88317871094</ele>
        <time>2010-03-13T14:28:12Z</time>
      </trkpt>
      <trkpt lat="45.05589" lon="5.34206">
        <ele>243.93298339844</ele>
        <time>2010-03-13T14:28:14Z</time>
      </trkpt>
      <trkpt lat="45.05617" lon="5.34174">
        <ele>247.97895812988</ele>
        <time>2010-03-13T14:28:20Z</time>
      </trkpt>
      <trkpt lat="45.05699" lon="5.34052">
        <ele>260</ele>
        <time>2010-03-13T14:28:38Z</time>
      </trkpt>
      <trkpt lat="45.05712" lon="5.34043">
        <ele>260</ele>
        <time>2010-03-13T14:28:40Z</time>
      </trkpt>
      <trkpt lat="45.05717" lon="5.34045">
        <ele>260</ele>
        <time>2010-03-13T14:28:41Z</time>
      </trkpt>
      <trkpt lat="45.0572" lon="5.34058">
        <ele>259.58004760742</ele>
        <time>2010-03-13T14:28:43Z</time>
      </trkpt>
      <trkpt lat="45.05718" lon="5.34066">
        <ele>258.29602050781</ele>
        <time>2010-03-13T14:28:43Z</time>
      </trkpt>
      <trkpt lat="45.05666" lon="5.34139">
        <ele>250.00727844238</ele>
        <time>2010-03-13T14:28:55Z</time>
      </trkpt>
      <trkpt lat="45.0564" lon="5.34206">
        <ele>239.78494262695</ele>
        <time>2010-03-13T14:29:03Z</time>
      </trkpt>
      <trkpt lat="45.05621" lon="5.3424">
        <ele>232.90686035156</ele>
        <time>2010-03-13T14:29:08Z</time>
      </trkpt>
      <trkpt lat="45.05565" lon="5.34277">
        <ele>232.1311340332</ele>
        <time>2010-03-13T14:29:17Z</time>
      </trkpt>
      <trkpt lat="45.05559" lon="5.34285">
        <ele>230.49108886719</ele>
        <time>2010-03-13T14:29:18Z</time>
      </trkpt>
      <trkpt lat="45.05556" lon="5.343">
        <ele>226.52648925781</ele>
        <time>2010-03-13T14:29:20Z</time>
      </trkpt>
      <trkpt lat="45.05569" lon="5.34356">
        <ele>220</ele>
        <time>2010-03-13T14:29:27Z</time>
      </trkpt>
      <trkpt lat="45.05627" lon="5.34409">
        <ele>229.61825561523</ele>
        <time>2010-03-13T14:29:37Z</time>
      </trkpt>
      <trkpt lat="45.05641" lon="5.34416">
        <ele>231.90515136719</ele>
        <time>2010-03-13T14:29:39Z</time>
      </trkpt>
      <trkpt lat="45.05661" lon="5.34417">
        <ele>232.07402038574</ele>
        <time>2010-03-13T14:29:43Z</time>
      </trkpt>
      <trkpt lat="45.05697" lon="5.34406">
        <ele>228.28863525391</ele>
        <time>2010-03-13T14:29:48Z</time>
      </trkpt>
      <trkpt lat="45.05741" lon="5.34403">
        <ele>226.03060913086</ele>
        <time>2010-03-13T14:29:55Z</time>
      </trkpt>
      <trkpt lat="45.05778" lon="5.34391">
        <ele>222.30712890625</ele>
        <time>2010-03-13T14:30:01Z</time>
      </trkpt>
      <trkpt lat="45.0583" lon="5.34415">
        <ele>224.00082397461</ele>
        <time>2010-03-13T14:30:09Z</time>
      </trkpt>
      <trkpt lat="45.0589" lon="5.34429">
        <ele>225.12774658203</ele>
        <time>2010-03-13T14:30:18Z</time>
      </trkpt>
      <trkpt lat="45.05953" lon="5.34434">
        <ele>217.9981842041</ele>
        <time>2010-03-13T14:30:28Z</time>
      </trkpt>
      <trkpt lat="45.05974" lon="5.34445">
        <ele>208.71687316894</ele>
        <time>2010-03-13T14:30:32Z</time>
      </trkpt>
      <trkpt lat="45.05985" lon="5.34456">
        <ele>207.70559692383</ele>
        <time>2010-03-13T14:30:34Z</time>
      </trkpt>
      <trkpt lat="45.05997" lon="5.34479">
        <ele>208.76986694336</ele>
        <time>2010-03-13T14:30:37Z</time>
      </trkpt>
      <trkpt lat="45.06009" lon="5.34567">
        <ele>216.34272766113</ele>
        <time>2010-03-13T14:30:46Z</time>
      </trkpt>
      <trkpt lat="45.06009" lon="5.34629">
        <ele>228.27729797363</ele>
        <time>2010-03-13T14:30:53Z</time>
      </trkpt>
      <trkpt lat="45.06038" lon="5.34728">
        <ele>242.70037841797</ele>
        <time>2010-03-13T14:31:05Z</time>
      </trkpt>
      <trkpt lat="45.06048" lon="5.34744">
        <ele>245.05212402344</ele>
        <time>2010-03-13T14:31:07Z</time>
      </trkpt>
      <trkpt lat="45.06057" lon="5.34675">
        <ele>209.68315124512</ele>
        <time>2010-03-13T14:31:15Z</time>
      </trkpt>
      <trkpt lat="45.06103" lon="5.34587">
        <ele>199.38131713867</ele>
        <time>2010-03-13T14:31:27Z</time>
      </trkpt>
      <trkpt lat="45.06107" lon="5.34513">
        <ele>199.14984130859</ele>
        <time>2010-03-13T14:31:35Z</time>
      </trkpt>
      <trkpt lat="45.06115" lon="5.34468">
        <ele>199</ele>
        <time>2010-03-13T14:31:40Z</time>
      </trkpt>
      <trkpt lat="45.06141" lon="5.34409">
        <ele>199</ele>
        <time>2010-03-13T14:31:47Z</time>
      </trkpt>
      <trkpt lat="45.06174" lon="5.34365">
        <ele>199</ele>
        <time>2010-03-13T14:31:54Z</time>
      </trkpt>
      <trkpt lat="45.06206" lon="5.34284">
        <ele>198</ele>
        <time>2010-03-13T14:32:04Z</time>
      </trkpt>
      <trkpt lat="45.06222" lon="5.3423">
        <ele>198.00180053711</ele>
        <time>2010-03-13T14:32:11Z</time>
      </trkpt>
      <trkpt lat="45.06247" lon="5.34094">
        <ele>198</ele>
        <time>2010-03-13T14:32:26Z</time>
      </trkpt>
      <trkpt lat="45.06283" lon="5.33994">
        <ele>198</ele>
        <time>2010-03-13T14:32:38Z</time>
      </trkpt>
      <trkpt lat="45.06329" lon="5.33882">
        <ele>197.96098327637</ele>
        <time>2010-03-13T14:32:52Z</time>
      </trkpt>
      <trkpt lat="45.06391" lon="5.33783">
        <ele>199</ele>
        <time>2010-03-13T14:33:06Z</time>
      </trkpt>
      <trkpt lat="45.06412" lon="5.33737">
        <ele>199</ele>
        <time>2010-03-13T14:33:12Z</time>
      </trkpt>
      <trkpt lat="45.0644" lon="5.33656">
        <ele>198.83898925781</ele>
        <time>2010-03-13T14:33:22Z</time>
      </trkpt>
      <trkpt lat="45.06457" lon="5.3359">
        <ele>199.45697021484</ele>
        <time>2010-03-13T14:33:30Z</time>
      </trkpt>
      <trkpt lat="45.06458" lon="5.33574">
        <ele>199.6575012207</ele>
        <time>2010-03-13T14:33:31Z</time>
      </trkpt>
      <trkpt lat="45.06453" lon="5.33557">
        <ele>199.96426391602</ele>
        <time>2010-03-13T14:33:33Z</time>
      </trkpt>
      <trkpt lat="45.06446" lon="5.33548">
        <ele>201.26011657715</ele>
        <time>2010-03-13T14:33:35Z</time>
      </trkpt>
      <trkpt lat="45.06386" lon="5.33491">
        <ele>202.27607727051</ele>
        <time>2010-03-13T14:33:46Z</time>
      </trkpt>
      <trkpt lat="45.06306" lon="5.33466">
        <ele>198.25709533691</ele>
        <time>2010-03-13T14:33:59Z</time>
      </trkpt>
      <trkpt lat="45.06256" lon="5.33434">
        <ele>197.67791748047</ele>
        <time>2010-03-13T14:34:07Z</time>
      </trkpt>
      <trkpt lat="45.06246" lon="5.33438">
        <ele>197.09413146973</ele>
        <time>2010-03-13T14:34:09Z</time>
      </trkpt>
      <trkpt lat="45.06214" lon="5.33405">
        <ele>197.29736328125</ele>
        <time>2010-03-13T14:34:15Z</time>
      </trkpt>
      <trkpt lat="45.06163" lon="5.3329">
        <ele>198.42872619629</ele>
        <time>2010-03-13T14:34:29Z</time>
      </trkpt>
      <trkpt lat="45.06146" lon="5.33239">
        <ele>198.79891967773</ele>
        <time>2010-03-13T14:34:36Z</time>
      </trkpt>
      <trkpt lat="45.06131" lon="5.33189">
        <ele>198.71533203125</ele>
        <time>2010-03-13T14:34:41Z</time>
      </trkpt>
      <trkpt lat="45.06109" lon="5.33073">
        <ele>199.26075744629</ele>
        <time>2010-03-13T14:34:54Z</time>
      </trkpt>
      <trkpt lat="45.06078" lon="5.32982">
        <ele>199.32858276367</ele>
        <time>2010-03-13T14:35:05Z</time>
      </trkpt>
      <trkpt lat="45.06074" lon="5.32957">
        <ele>199.51979064941</ele>
        <time>2010-03-13T14:35:08Z</time>
      </trkpt>
      <trkpt lat="45.06071" lon="5.32862">
        <ele>205.50360107422</ele>
        <time>2010-03-13T14:35:18Z</time>
      </trkpt>
      <trkpt lat="45.06056" lon="5.32815">
        <ele>206.06069946289</ele>
        <time>2010-03-13T14:35:24Z</time>
      </trkpt>
      <trkpt lat="45.06008" lon="5.32739">
        <ele>206.6025390625</ele>
        <time>2010-03-13T14:35:35Z</time>
      </trkpt>
      <trkpt lat="45.05961" lon="5.32684">
        <ele>208.08908081055</ele>
        <time>2010-03-13T14:35:44Z</time>
      </trkpt>
      <trkpt lat="45.05951" lon="5.32677">
        <ele>207.59477233887</ele>
        <time>2010-03-13T14:35:46Z</time>
      </trkpt>
      <trkpt lat="45.05901" lon="5.32662">
        <ele>202.71124267578</ele>
        <time>2010-03-13T14:35:54Z</time>
      </trkpt>
      <trkpt lat="45.05892" lon="5.32654">
        <ele>202.32168579102</ele>
        <time>2010-03-13T14:35:56Z</time>
      </trkpt>
      <trkpt lat="45.05887" lon="5.32641">
        <ele>202.77558898926</ele>
        <time>2010-03-13T14:35:57Z</time>
      </trkpt>
      <trkpt lat="45.05886" lon="5.32623">
        <ele>204.55641174316</ele>
        <time>2010-03-13T14:35:59Z</time>
      </trkpt>
      <trkpt lat="45.05906" lon="5.3245">
        <ele>220.76121520996</ele>
        <time>2010-03-13T14:36:18Z</time>
      </trkpt>
      <trkpt lat="45.05896" lon="5.32319">
        <ele>217.50820922852</ele>
        <time>2010-03-13T14:36:33Z</time>
      </trkpt>
      <trkpt lat="45.05883" lon="5.32287">
        <ele>213.64273071289</ele>
        <time>2010-03-13T14:36:37Z</time>
      </trkpt>
      <trkpt lat="45.05825" lon="5.32212">
        <ele>196.84692382812</ele>
        <time>2010-03-13T14:36:49Z</time>
      </trkpt>
      <trkpt lat="45.05813" lon="5.32184">
        <ele>195.24620056152</ele>
        <time>2010-03-13T14:36:52Z</time>
      </trkpt>
      <trkpt lat="45.05817" lon="5.32084">
        <ele>197.63874816894</ele>
        <time>2010-03-13T14:37:03Z</time>
      </trkpt>
      <trkpt lat="45.05811" lon="5.32043">
        <ele>198.51866149902</ele>
        <time>2010-03-13T14:37:08Z</time>
      </trkpt>
      <trkpt lat="45.05788" lon="5.32">
        <ele>200.84375</ele>
        <time>2010-03-13T14:37:13Z</time>
      </trkpt>
      <trkpt lat="45.05721" lon="5.31897">
        <ele>206.82960510254</ele>
        <time>2010-03-13T14:37:29Z</time>
      </trkpt>
      <trkpt lat="45.05702" lon="5.31884">
        <ele>204.36283874512</ele>
        <time>2010-03-13T14:37:32Z</time>
      </trkpt>
      <trkpt lat="45.05556" lon="5.31834">
        <ele>211.9382019043</ele>
        <time>2010-03-13T14:37:55Z</time>
      </trkpt>
      <trkpt lat="45.05546" lon="5.31827">
        <ele>212.99034118652</ele>
        <time>2010-03-13T14:37:57Z</time>
      </trkpt>
      <trkpt lat="45.05532" lon="5.318">
        <ele>217.35891723633</ele>
        <time>2010-03-13T14:38:00Z</time>
      </trkpt>
      <trkpt lat="45.05527" lon="5.3175">
        <ele>221.95143127441</ele>
        <time>2010-03-13T14:38:06Z</time>
      </trkpt>
      <trkpt lat="45.05533" lon="5.31553">
        <ele>229.8211517334</ele>
        <time>2010-03-13T14:38:27Z</time>
      </trkpt>
      <trkpt lat="45.05531" lon="5.31513">
        <ele>231.04528808594</ele>
        <time>2010-03-13T14:38:31Z</time>
      </trkpt>
      <trkpt lat="45.05462" lon="5.31309">
        <ele>206.10684204102</ele>
        <time>2010-03-13T14:38:56Z</time>
      </trkpt>
      <trkpt lat="45.05464" lon="5.31217">
        <ele>199.30584716797</ele>
        <time>2010-03-13T14:39:06Z</time>
      </trkpt>
      <trkpt lat="45.05476" lon="5.31096">
        <ele>195.99807739258</ele>
        <time>2010-03-13T14:39:19Z</time>
      </trkpt>
      <trkpt lat="45.05484" lon="5.31066">
        <ele>196.14570617676</ele>
        <time>2010-03-13T14:39:23Z</time>
      </trkpt>
      <trkpt lat="45.05553" lon="5.3089">
        <ele>191.8595123291</ele>
        <time>2010-03-13T14:39:44Z</time>
      </trkpt>
      <trkpt lat="45.05575" lon="5.30858">
        <ele>189.48191833496</ele>
        <time>2010-03-13T14:39:49Z</time>
      </trkpt>
      <trkpt lat="45.05667" lon="5.308">
        <ele>184.36871337891</ele>
        <time>2010-03-13T14:40:05Z</time>
      </trkpt>
      <trkpt lat="45.05679" lon="5.30795">
        <ele>182.97654724121</ele>
        <time>2010-03-13T14:40:07Z</time>
      </trkpt>
      <trkpt lat="45.05705" lon="5.30797">
        <ele>181.06513977051</ele>
        <time>2010-03-13T14:40:11Z</time>
      </trkpt>
      <trkpt lat="45.05733" lon="5.30806">
        <ele>179.70123291016</ele>
        <time>2010-03-13T14:40:15Z</time>
      </trkpt>
      <trkpt lat="45.05851" lon="5.30867">
        <ele>183.27294921875</ele>
        <time>2010-03-13T14:40:34Z</time>
      </trkpt>
      <trkpt lat="45.05934" lon="5.30813">
        <ele>182.19354248047</ele>
        <time>2010-03-13T14:40:48Z</time>
      </trkpt>
      <trkpt lat="45.05965" lon="5.30812">
        <ele>186.52461242676</ele>
        <time>2010-03-13T14:40:53Z</time>
      </trkpt>
      <trkpt lat="45.05977" lon="5.30805">
        <ele>187.08964538574</ele>
        <time>2010-03-13T14:40:55Z</time>
      </trkpt>
      <trkpt lat="45.06043" lon="5.30759">
        <ele>188.98718261719</ele>
        <time>2010-03-13T14:41:06Z</time>
      </trkpt>
      <trkpt lat="45.06058" lon="5.30744">
        <ele>185.81242370606</ele>
        <time>2010-03-13T14:41:09Z</time>
      </trkpt>
      <trkpt lat="45.06087" lon="5.30699">
        <ele>179.69677734375</ele>
        <time>2010-03-13T14:41:16Z</time>
      </trkpt>
      <trkpt lat="45.06159" lon="5.30545">
        <ele>175.77337646484</ele>
        <time>2010-03-13T14:41:36Z</time>
      </trkpt>
      <trkpt lat="45.06179" lon="5.3047">
        <ele>174.33703613281</ele>
        <time>2010-03-13T14:41:45Z</time>
      </trkpt>
      <trkpt lat="45.0619" lon="5.30442">
        <ele>175.45751953125</ele>
        <time>2010-03-13T14:41:48Z</time>
      </trkpt>
      <trkpt lat="45.0627" lon="5.30312">
        <ele>175.94659423828</ele>
        <time>2010-03-13T14:42:07Z</time>
      </trkpt>
      <trkpt lat="45.06274" lon="5.30273">
        <ele>175.69348144531</ele>
        <time>2010-03-13T14:42:11Z</time>
      </trkpt>
      <trkpt lat="45.06292" lon="5.30217">
        <ele>174.83251953125</ele>
        <time>2010-03-13T14:42:18Z</time>
      </trkpt>
      <trkpt lat="45.06312" lon="5.30234">
        <ele>176.90103149414</ele>
        <time>2010-03-13T14:42:21Z</time>
      </trkpt>
      <trkpt lat="45.06321" lon="5.30248">
        <ele>178.03744506836</ele>
        <time>2010-03-13T14:42:23Z</time>
      </trkpt>
      <trkpt lat="45.06386" lon="5.30374">
        <ele>197.75598144531</ele>
        <time>2010-03-13T14:42:40Z</time>
      </trkpt>
      <trkpt lat="45.06432" lon="5.30514">
        <ele>213.21418762207</ele>
        <time>2010-03-13T14:42:57Z</time>
      </trkpt>
      <trkpt lat="45.06434" lon="5.3059">
        <ele>220.38919067383</ele>
        <time>2010-03-13T14:43:05Z</time>
      </trkpt>
      <trkpt lat="45.06418" lon="5.30864">
        <ele>239.14207458496</ele>
        <time>2010-03-13T14:43:35Z</time>
      </trkpt>
      <trkpt lat="45.0643" lon="5.30888">
        <ele>239.98313903809</ele>
        <time>2010-03-13T14:43:38Z</time>
      </trkpt>
      <trkpt lat="45.06466" lon="5.30985">
        <ele>240.77282714844</ele>
        <time>2010-03-13T14:43:50Z</time>
      </trkpt>
      <trkpt lat="45.06488" lon="5.31028">
        <ele>241</ele>
        <time>2010-03-13T14:43:56Z</time>
      </trkpt>
      <trkpt lat="45.06516" lon="5.31102">
        <ele>241.85940551758</ele>
        <time>2010-03-13T14:44:05Z</time>
      </trkpt>
      <trkpt lat="45.06539" lon="5.3122">
        <ele>241.18090820312</ele>
        <time>2010-03-13T14:44:18Z</time>
      </trkpt>
      <trkpt lat="45.06604" lon="5.31415">
        <ele>241</ele>
        <time>2010-03-13T14:44:42Z</time>
      </trkpt>
      <trkpt lat="45.06627" lon="5.31487">
        <ele>242</ele>
        <time>2010-03-13T14:44:50Z</time>
      </trkpt>
      <trkpt lat="45.06644" lon="5.31583">
        <ele>242.99792480469</ele>
        <time>2010-03-13T14:45:01Z</time>
      </trkpt>
      <trkpt lat="45.06683" lon="5.31701">
        <ele>244</ele>
        <time>2010-03-13T14:45:15Z</time>
      </trkpt>
      <trkpt lat="45.06753" lon="5.31898">
        <ele>249.88629150391</ele>
        <time>2010-03-13T14:45:39Z</time>
      </trkpt>
      <trkpt lat="45.06779" lon="5.31982">
        <ele>249.95245361328</ele>
        <time>2010-03-13T14:45:49Z</time>
      </trkpt>
      <trkpt lat="45.06805" lon="5.32047">
        <ele>250.01861572266</ele>
        <time>2010-03-13T14:45:57Z</time>
      </trkpt>
      <trkpt lat="45.06824" lon="5.32066">
        <ele>250</ele>
        <time>2010-03-13T14:46:01Z</time>
      </trkpt>
      <trkpt lat="45.06901" lon="5.32113">
        <ele>244.65493774414</ele>
        <time>2010-03-13T14:46:13Z</time>
      </trkpt>
      <trkpt lat="45.06942" lon="5.32144">
        <ele>244.34544372559</ele>
        <time>2010-03-13T14:46:21Z</time>
      </trkpt>
      <trkpt lat="45.06949" lon="5.32162">
        <ele>244.48789978027</ele>
        <time>2010-03-13T14:46:23Z</time>
      </trkpt>
      <trkpt lat="45.06949" lon="5.32197">
        <ele>246.78915405273</ele>
        <time>2010-03-13T14:46:27Z</time>
      </trkpt>
      <trkpt lat="45.06932" lon="5.32276">
        <ele>250.93637084961</ele>
        <time>2010-03-13T14:46:35Z</time>
      </trkpt>
      <trkpt lat="45.06934" lon="5.32322">
        <ele>252.95957946777</ele>
        <time>2010-03-13T14:46:40Z</time>
      </trkpt>
      <trkpt lat="45.06951" lon="5.32376">
        <ele>256.68365478516</ele>
        <time>2010-03-13T14:46:47Z</time>
      </trkpt>
      <trkpt lat="45.07049" lon="5.32615">
        <ele>265.13977050781</ele>
        <time>2010-03-13T14:47:17Z</time>
      </trkpt>
      <trkpt lat="45.07057" lon="5.3265">
        <ele>265.96469116211</ele>
        <time>2010-03-13T14:47:21Z</time>
      </trkpt>
      <trkpt lat="45.07098" lon="5.32812">
        <ele>268.70458984375</ele>
        <time>2010-03-13T14:47:39Z</time>
      </trkpt>
      <trkpt lat="45.07118" lon="5.3287">
        <ele>269.07788085938</ele>
        <time>2010-03-13T14:47:46Z</time>
      </trkpt>
      <trkpt lat="45.07133" lon="5.329">
        <ele>269.60830688477</ele>
        <time>2010-03-13T14:47:50Z</time>
      </trkpt>
      <trkpt lat="45.07179" lon="5.3291">
        <ele>267.10723876953</ele>
        <time>2010-03-13T14:47:58Z</time>
      </trkpt>
      <trkpt lat="45.07198" lon="5.32921">
        <ele>264.67919921875</ele>
        <time>2010-03-13T14:48:01Z</time>
      </trkpt>
      <trkpt lat="45.07248" lon="5.32996">
        <ele>264.44369506836</ele>
        <time>2010-03-13T14:48:12Z</time>
      </trkpt>
      <trkpt lat="45.07263" lon="5.33007">
        <ele>264.21667480469</ele>
        <time>2010-03-13T14:48:15Z</time>
      </trkpt>
      <trkpt lat="45.07297" lon="5.33017">
        <ele>263.55163574219</ele>
        <time>2010-03-13T14:48:20Z</time>
      </trkpt>
      <trkpt lat="45.07317" lon="5.33015">
        <ele>262.70230102539</ele>
        <time>2010-03-13T14:48:23Z</time>
      </trkpt>
      <trkpt lat="45.07374" lon="5.32996">
        <ele>261.17333984375</ele>
        <time>2010-03-13T14:48:32Z</time>
      </trkpt>
      <trkpt lat="45.07396" lon="5.33005">
        <ele>264.89688110352</ele>
        <time>2010-03-13T14:48:35Z</time>
      </trkpt>
      <trkpt lat="45.0743" lon="5.33025">
        <ele>270.79818725586</ele>
        <time>2010-03-13T14:48:41Z</time>
      </trkpt>
      <trkpt lat="45.07482" lon="5.33105">
        <ele>276.85842895508</ele>
        <time>2010-03-13T14:48:53Z</time>
      </trkpt>
      <trkpt lat="45.07505" lon="5.33101">
        <ele>277.36254882812</ele>
        <time>2010-03-13T14:48:56Z</time>
      </trkpt>
      <trkpt lat="45.07534" lon="5.3308">
        <ele>279.10516357422</ele>
        <time>2010-03-13T14:49:01Z</time>
      </trkpt>
      <trkpt lat="45.07557" lon="5.33084">
        <ele>280</ele>
        <time>2010-03-13T14:49:05Z</time>
      </trkpt>
      <trkpt lat="45.07765" lon="5.33278">
        <ele>280</ele>
        <time>2010-03-13T14:49:43Z</time>
      </trkpt>
      <trkpt lat="45.07819" lon="5.33294">
        <ele>280.6028137207</ele>
        <time>2010-03-13T14:49:52Z</time>
      </trkpt>
      <trkpt lat="45.07882" lon="5.33297">
        <ele>290.03378295898</ele>
        <time>2010-03-13T14:50:01Z</time>
      </trkpt>
      <trkpt lat="45.0795" lon="5.33317">
        <ele>299.51599121094</ele>
        <time>2010-03-13T14:50:12Z</time>
      </trkpt>
      <trkpt lat="45.07985" lon="5.33336">
        <ele>303.54727172852</ele>
        <time>2010-03-13T14:50:18Z</time>
      </trkpt>
      <trkpt lat="45.08019" lon="5.33384">
        <ele>303.43035888672</ele>
        <time>2010-03-13T14:50:25Z</time>
      </trkpt>
      <trkpt lat="45.08046" lon="5.33437">
        <ele>303.49365234375</ele>
        <time>2010-03-13T14:50:32Z</time>
      </trkpt>
      <trkpt lat="45.0821" lon="5.33604">
        <ele>328.85940551758</ele>
        <time>2010-03-13T14:51:03Z</time>
      </trkpt>
      <trkpt lat="45.08367" lon="5.33662">
        <ele>341.83148193359</ele>
        <time>2010-03-13T14:51:28Z</time>
      </trkpt>
      <trkpt lat="45.08389" lon="5.33678">
        <ele>342</ele>
        <time>2010-03-13T14:51:32Z</time>
      </trkpt>
      <trkpt lat="45.08393" lon="5.33692">
        <ele>342</ele>
        <time>2010-03-13T14:51:34Z</time>
      </trkpt>
      <trkpt lat="45.08394" lon="5.33779">
        <ele>340.00787353516</ele>
        <time>2010-03-13T14:51:43Z</time>
      </trkpt>
      <trkpt lat="45.08398" lon="5.33802">
        <ele>340.28759765625</ele>
        <time>2010-03-13T14:51:46Z</time>
      </trkpt>
      <trkpt lat="45.08519" lon="5.33978">
        <ele>366.11706542969</ele>
        <time>2010-03-13T14:52:12Z</time>
      </trkpt>
      <trkpt lat="45.08525" lon="5.34016">
        <ele>370.9323425293</ele>
        <time>2010-03-13T14:52:16Z</time>
      </trkpt>
      <trkpt lat="45.08504" lon="5.34065">
        <ele>368.02828979492</ele>
        <time>2010-03-13T14:52:23Z</time>
      </trkpt>
      <trkpt lat="45.08509" lon="5.34081">
        <ele>371.94369506836</ele>
        <time>2010-03-13T14:52:25Z</time>
      </trkpt>
      <trkpt lat="45.08516" lon="5.34082">
        <ele>373.85504150391</ele>
        <time>2010-03-13T14:52:26Z</time>
      </trkpt>
      <trkpt lat="45.08525" lon="5.34075">
        <ele>375.63610839844</ele>
        <time>2010-03-13T14:52:27Z</time>
      </trkpt>
      <trkpt lat="45.08571" lon="5.34008">
        <ele>373.83825683594</ele>
        <time>2010-03-13T14:52:37Z</time>
      </trkpt>
      <trkpt lat="45.08581" lon="5.33997">
        <ele>373.70660400391</ele>
        <time>2010-03-13T14:52:39Z</time>
      </trkpt>
      <trkpt lat="45.08586" lon="5.33997">
        <ele>373.78479003906</ele>
        <time>2010-03-13T14:52:40Z</time>
      </trkpt>
      <trkpt lat="45.0859" lon="5.34006">
        <ele>374.21685791016</ele>
        <time>2010-03-13T14:52:41Z</time>
      </trkpt>
      <trkpt lat="45.08592" lon="5.34047">
        <ele>375.69140625</ele>
        <time>2010-03-13T14:52:46Z</time>
      </trkpt>
      <trkpt lat="45.0863" lon="5.34129">
        <ele>380.25234985352</ele>
        <time>2010-03-13T14:52:56Z</time>
      </trkpt>
      <trkpt lat="45.08691" lon="5.34305">
        <ele>391.43246459961</ele>
        <time>2010-03-13T14:53:17Z</time>
      </trkpt>
      <trkpt lat="45.08705" lon="5.34326">
        <ele>392.08563232422</ele>
        <time>2010-03-13T14:53:21Z</time>
      </trkpt>
      <trkpt lat="45.08733" lon="5.34345">
        <ele>391.67797851562</ele>
        <time>2010-03-13T14:53:25Z</time>
      </trkpt>
      <trkpt lat="45.08746" lon="5.34346">
        <ele>390.34930419922</ele>
        <time>2010-03-13T14:53:27Z</time>
      </trkpt>
      <trkpt lat="45.08807" lon="5.34323">
        <ele>385.57354736328</ele>
        <time>2010-03-13T14:53:37Z</time>
      </trkpt>
      <trkpt lat="45.08817" lon="5.34325">
        <ele>386.36874389648</ele>
        <time>2010-03-13T14:53:39Z</time>
      </trkpt>
      <trkpt lat="45.08857" lon="5.34353">
        <ele>392.57946777344</ele>
        <time>2010-03-13T14:53:45Z</time>
      </trkpt>
      <trkpt lat="45.08871" lon="5.34356">
        <ele>393.26715087891</ele>
        <time>2010-03-13T14:53:48Z</time>
      </trkpt>
      <trkpt lat="45.08911" lon="5.34352">
        <ele>393.49114990234</ele>
        <time>2010-03-13T14:53:54Z</time>
      </trkpt>
      <trkpt lat="45.08954" lon="5.34339">
        <ele>393.8291015625</ele>
        <time>2010-03-13T14:54:01Z</time>
      </trkpt>
      <trkpt lat="45.08981" lon="5.34313">
        <ele>396.25170898438</ele>
        <time>2010-03-13T14:54:06Z</time>
      </trkpt>
      <trkpt lat="45.08994" lon="5.34268">
        <ele>395.47485351562</ele>
        <time>2010-03-13T14:54:11Z</time>
      </trkpt>
      <trkpt lat="45.08997" lon="5.34216">
        <ele>392.92211914062</ele>
        <time>2010-03-13T14:54:16Z</time>
      </trkpt>
      <trkpt lat="45.09013" lon="5.34195">
        <ele>393.43270874023</ele>
        <time>2010-03-13T14:54:20Z</time>
      </trkpt>
      <trkpt lat="45.09022" lon="5.34193">
        <ele>394.2448425293</ele>
        <time>2010-03-13T14:54:21Z</time>
      </trkpt>
      <trkpt lat="45.09039" lon="5.34198">
        <ele>395.17926025391</ele>
        <time>2010-03-13T14:54:24Z</time>
      </trkpt>
      <trkpt lat="45.09111" lon="5.34252">
        <ele>396.15521240234</ele>
        <time>2010-03-13T14:54:36Z</time>
      </trkpt>
      <trkpt lat="45.09167" lon="5.34262">
        <ele>389.81655883789</ele>
        <time>2010-03-13T14:54:45Z</time>
      </trkpt>
      <trkpt lat="45.09181" lon="5.3427">
        <ele>388.91018676758</ele>
        <time>2010-03-13T14:54:47Z</time>
      </trkpt>
      <trkpt lat="45.09215" lon="5.34278">
        <ele>385.7958984375</ele>
        <time>2010-03-13T14:54:53Z</time>
      </trkpt>
      <trkpt lat="45.09226" lon="5.34274">
        <ele>384.72842407227</ele>
        <time>2010-03-13T14:54:54Z</time>
      </trkpt>
      <trkpt lat="45.09233" lon="5.34265">
        <ele>384.07952880859</ele>
        <time>2010-03-13T14:54:56Z</time>
      </trkpt>
      <trkpt lat="45.09241" lon="5.34236">
        <ele>381.48822021484</ele>
        <time>2010-03-13T14:54:59Z</time>
      </trkpt>
      <trkpt lat="45.09247" lon="5.34179">
        <ele>378.44470214844</ele>
        <time>2010-03-13T14:55:05Z</time>
      </trkpt>
      <trkpt lat="45.09253" lon="5.34168">
        <ele>378.26419067383</ele>
        <time>2010-03-13T14:55:07Z</time>
      </trkpt>
      <trkpt lat="45.09271" lon="5.34157">
        <ele>379.15347290039</ele>
        <time>2010-03-13T14:55:10Z</time>
      </trkpt>
      <trkpt lat="45.09283" lon="5.34156">
        <ele>380.68463134766</ele>
        <time>2010-03-13T14:55:12Z</time>
      </trkpt>
      <trkpt lat="45.09324" lon="5.34171">
        <ele>388.29202270508</ele>
        <time>2010-03-13T14:55:18Z</time>
      </trkpt>
      <trkpt lat="45.09408" lon="5.34226">
        <ele>390.88165283203</ele>
        <time>2010-03-13T14:55:33Z</time>
      </trkpt>
      <trkpt lat="45.09439" lon="5.34241">
        <ele>386.50985717773</ele>
        <time>2010-03-13T14:55:38Z</time>
      </trkpt>
      <trkpt lat="45.09476" lon="5.34247">
        <ele>381.21337890625</ele>
        <time>2010-03-13T14:55:43Z</time>
      </trkpt>
      <trkpt lat="45.09494" lon="5.34239">
        <ele>377.75921630859</ele>
        <time>2010-03-13T14:55:46Z</time>
      </trkpt>
      <trkpt lat="45.09506" lon="5.34219">
        <ele>374.55609130859</ele>
        <time>2010-03-13T14:55:49Z</time>
      </trkpt>
      <trkpt lat="45.09555" lon="5.34077">
        <ele>361.52838134766</ele>
        <time>2010-03-13T14:56:06Z</time>
      </trkpt>
      <trkpt lat="45.0957" lon="5.34059">
        <ele>363.02810668945</ele>
        <time>2010-03-13T14:56:09Z</time>
      </trkpt>
      <trkpt lat="45.09586" lon="5.34054">
        <ele>365.14691162109</ele>
        <time>2010-03-13T14:56:12Z</time>
      </trkpt>
      <trkpt lat="45.09685" lon="5.34098">
        <ele>374.56311035156</ele>
        <time>2010-03-13T14:56:28Z</time>
      </trkpt>
      <trkpt lat="45.09768" lon="5.34186">
        <ele>387.07873535156</ele>
        <time>2010-03-13T14:56:44Z</time>
      </trkpt>
      <trkpt lat="45.09789" lon="5.34177">
        <ele>384.71395874023</ele>
        <time>2010-03-13T14:56:47Z</time>
      </trkpt>
      <trkpt lat="45.09855" lon="5.34104">
        <ele>379.37942504883</ele>
        <time>2010-03-13T14:57:00Z</time>
      </trkpt>
      <trkpt lat="45.09877" lon="5.34096">
        <ele>378.91217041016</ele>
        <time>2010-03-13T14:57:03Z</time>
      </trkpt>
      <trkpt lat="45.10087" lon="5.34134">
        <ele>375.79895019531</ele>
        <time>2010-03-13T14:57:36Z</time>
      </trkpt>
      <trkpt lat="45.10151" lon="5.34141">
        <ele>368.66864013672</ele>
        <time>2010-03-13T14:57:46Z</time>
      </trkpt>
      <trkpt lat="45.10196" lon="5.34139">
        <ele>362.84033203125</ele>
        <time>2010-03-13T14:57:52Z</time>
      </trkpt>
      <trkpt lat="45.10251" lon="5.34092">
        <ele>360</ele>
        <time>2010-03-13T14:58:02Z</time>
      </trkpt>
      <trkpt lat="45.10272" lon="5.34083">
        <ele>360</ele>
        <time>2010-03-13T14:58:06Z</time>
      </trkpt>
      <trkpt lat="45.10446" lon="5.34101">
        <ele>357.33062744141</ele>
        <time>2010-03-13T14:58:33Z</time>
      </trkpt>
      <trkpt lat="45.1059" lon="5.34109">
        <ele>343.9684753418</ele>
        <time>2010-03-13T14:58:55Z</time>
      </trkpt>
      <trkpt lat="45.1063" lon="5.34106">
        <ele>341.87933349609</ele>
        <time>2010-03-13T14:59:01Z</time>
      </trkpt>
      <trkpt lat="45.10658" lon="5.34115">
        <ele>340.06890869141</ele>
        <time>2010-03-13T14:59:05Z</time>
      </trkpt>
      <trkpt lat="45.10724" lon="5.34123">
        <ele>337.21029663086</ele>
        <time>2010-03-13T14:59:15Z</time>
      </trkpt>
      <trkpt lat="45.10797" lon="5.3412">
        <ele>323.73638916016</ele>
        <time>2010-03-13T14:59:27Z</time>
      </trkpt>
      <trkpt lat="45.1083" lon="5.34104">
        <ele>322.72021484375</ele>
        <time>2010-03-13T14:59:32Z</time>
      </trkpt>
      <trkpt lat="45.10875" lon="5.34063">
        <ele>319.69668579102</ele>
        <time>2010-03-13T14:59:40Z</time>
      </trkpt>
      <trkpt lat="45.10899" lon="5.34034">
        <ele>322.87518310547</ele>
        <time>2010-03-13T14:59:45Z</time>
      </trkpt>
      <trkpt lat="45.10982" lon="5.33892">
        <ele>318.02362060547</ele>
        <time>2010-03-13T15:00:05Z</time>
      </trkpt>
      <trkpt lat="45.10993" lon="5.33882">
        <ele>316.10974121094</ele>
        <time>2010-03-13T15:00:07Z</time>
      </trkpt>
      <trkpt lat="45.11037" lon="5.33861">
        <ele>303.99426269531</ele>
        <time>2010-03-13T15:00:14Z</time>
      </trkpt>
      <trkpt lat="45.11074" lon="5.33786">
        <ele>291.509765625</ele>
        <time>2010-03-13T15:00:24Z</time>
      </trkpt>
      <trkpt lat="45.11089" lon="5.33745">
        <ele>283.06323242188</ele>
        <time>2010-03-13T15:00:29Z</time>
      </trkpt>
      <trkpt lat="45.11101" lon="5.33687">
        <ele>271.82388305664</ele>
        <time>2010-03-13T15:00:36Z</time>
      </trkpt>
      <trkpt lat="45.11102" lon="5.33648">
        <ele>269.07955932617</ele>
        <time>2010-03-13T15:00:40Z</time>
      </trkpt>
      <trkpt lat="45.11099" lon="5.33626">
        <ele>268.51190185547</ele>
        <time>2010-03-13T15:00:42Z</time>
      </trkpt>
      <trkpt lat="45.11087" lon="5.336">
        <ele>270.05337524414</ele>
        <time>2010-03-13T15:00:46Z</time>
      </trkpt>
      <trkpt lat="45.1092" lon="5.33481">
        <ele>262.34997558594</ele>
        <time>2010-03-13T15:01:14Z</time>
      </trkpt>
      <trkpt lat="45.10905" lon="5.33449">
        <ele>262.87164306641</ele>
        <time>2010-03-13T15:01:18Z</time>
      </trkpt>
      <trkpt lat="45.109" lon="5.33415">
        <ele>259.1555480957</ele>
        <time>2010-03-13T15:01:22Z</time>
      </trkpt>
      <trkpt lat="45.10892" lon="5.33394">
        <ele>259.04699707031</ele>
        <time>2010-03-13T15:01:25Z</time>
      </trkpt>
      <trkpt lat="45.10807" lon="5.33313">
        <ele>256.28186035156</ele>
        <time>2010-03-13T15:01:40Z</time>
      </trkpt>
      <trkpt lat="45.10795" lon="5.33287">
        <ele>255.33203125</ele>
        <time>2010-03-13T15:01:44Z</time>
      </trkpt>
      <trkpt lat="45.10795" lon="5.3326">
        <ele>254.36041259766</ele>
        <time>2010-03-13T15:01:47Z</time>
      </trkpt>
      <trkpt lat="45.10872" lon="5.32965">
        <ele>244.73973083496</ele>
        <time>2010-03-13T15:02:21Z</time>
      </trkpt>
      <trkpt lat="45.10882" lon="5.32887">
        <ele>241.93135070801</ele>
        <time>2010-03-13T15:02:29Z</time>
      </trkpt>
      <trkpt lat="45.10893" lon="5.32865">
        <ele>241.13998413086</ele>
        <time>2010-03-13T15:02:32Z</time>
      </trkpt>
      <trkpt lat="45.10926" lon="5.32855">
        <ele>240.92547607422</ele>
        <time>2010-03-13T15:02:38Z</time>
      </trkpt>
      <trkpt lat="45.10983" lon="5.32848">
        <ele>240.52716064453</ele>
        <time>2010-03-13T15:02:46Z</time>
      </trkpt>
      <trkpt lat="45.11042" lon="5.3286">
        <ele>240.95974731445</ele>
        <time>2010-03-13T15:02:55Z</time>
      </trkpt>
      <trkpt lat="45.1105" lon="5.32855">
        <ele>240.77951049805</ele>
        <time>2010-03-13T15:02:57Z</time>
      </trkpt>
      <trkpt lat="45.11116" lon="5.3269">
        <ele>232.66302490234</ele>
        <time>2010-03-13T15:03:17Z</time>
      </trkpt>
      <trkpt lat="45.11149" lon="5.32576">
        <ele>226.20782470703</ele>
        <time>2010-03-13T15:03:31Z</time>
      </trkpt>
      <trkpt lat="45.11202" lon="5.32578">
        <ele>224.34848022461</ele>
        <time>2010-03-13T15:03:39Z</time>
      </trkpt>
      <trkpt lat="45.11268" lon="5.326">
        <ele>220.92926025391</ele>
        <time>2010-03-13T15:03:49Z</time>
      </trkpt>
      <trkpt lat="45.11298" lon="5.3262">
        <ele>220.3200378418</ele>
        <time>2010-03-13T15:03:54Z</time>
      </trkpt>
      <trkpt lat="45.11345" lon="5.32669">
        <ele>219.21591186523</ele>
        <time>2010-03-13T15:04:03Z</time>
      </trkpt>
      <trkpt lat="45.11366" lon="5.32684">
        <ele>217.82794189453</ele>
        <time>2010-03-13T15:04:07Z</time>
      </trkpt>
      <trkpt lat="45.1155" lon="5.32742">
        <ele>214.90779113769</ele>
        <time>2010-03-13T15:04:36Z</time>
      </trkpt>
      <trkpt lat="45.11585" lon="5.32746">
        <ele>213.85531616211</ele>
        <time>2010-03-13T15:04:41Z</time>
      </trkpt>
      <trkpt lat="45.11585" lon="5.3276">
        <ele>214.72001647949</ele>
        <time>2010-03-13T15:04:43Z</time>
      </trkpt>
      <trkpt lat="45.11585" lon="5.32746">
        <ele>213.85531616211</ele>
        <time>2010-03-13T15:04:44Z</time>
      </trkpt>
      <trkpt lat="45.11692" lon="5.3274">
        <ele>211.3125</ele>
        <time>2010-03-13T15:05:01Z</time>
      </trkpt>
      <trkpt lat="45.1171" lon="5.32717">
        <ele>210.08305358887</ele>
        <time>2010-03-13T15:05:04Z</time>
      </trkpt>
      <trkpt lat="45.12029" lon="5.33182">
        <ele>209.94229125977</ele>
        <time>2010-03-13T15:06:15Z</time>
      </trkpt>
      <trkpt lat="45.121" lon="5.33285">
        <ele>206.47738647461</ele>
        <time>2010-03-13T15:06:30Z</time>
      </trkpt>
      <trkpt lat="45.12127" lon="5.33331">
        <ele>204.86157226562</ele>
        <time>2010-03-13T15:06:37Z</time>
      </trkpt>
      <trkpt lat="45.12158" lon="5.33367">
        <ele>202.8493347168</ele>
        <time>2010-03-13T15:06:43Z</time>
      </trkpt>
      <trkpt lat="45.12438" lon="5.33623">
        <ele>201.90420532227</ele>
        <time>2010-03-13T15:07:34Z</time>
      </trkpt>
      <trkpt lat="45.12454" lon="5.33642">
        <ele>201.32336425781</ele>
        <time>2010-03-13T15:07:37Z</time>
      </trkpt>
      <trkpt lat="45.12463" lon="5.33663">
        <ele>200.66418457031</ele>
        <time>2010-03-13T15:07:40Z</time>
      </trkpt>
      <trkpt lat="45.12478" lon="5.33721">
        <ele>198.19505310059</ele>
        <time>2010-03-13T15:07:47Z</time>
      </trkpt>
      <trkpt lat="45.12455" lon="5.33725">
        <ele>201.24096679688</ele>
        <time>2010-03-13T15:07:50Z</time>
      </trkpt>
      <trkpt lat="45.12442" lon="5.33735">
        <ele>202.18186950684</ele>
        <time>2010-03-13T15:07:52Z</time>
      </trkpt>
      <trkpt lat="45.12397" lon="5.33812">
        <ele>202.89172363281</ele>
        <time>2010-03-13T15:08:03Z</time>
      </trkpt>
      <trkpt lat="45.12374" lon="5.3384">
        <ele>206.07899475098</ele>
        <time>2010-03-13T15:08:08Z</time>
      </trkpt>
      <trkpt lat="45.12349" lon="5.33854">
        <ele>211.62939453125</ele>
        <time>2010-03-13T15:08:12Z</time>
      </trkpt>
      <trkpt lat="45.12328" lon="5.33842">
        <ele>216.22157287598</ele>
        <time>2010-03-13T15:08:15Z</time>
      </trkpt>
      <trkpt lat="45.1228" lon="5.33797">
        <ele>226.82054138184</ele>
        <time>2010-03-13T15:08:24Z</time>
      </trkpt>
      <trkpt lat="45.12171" lon="5.33642">
        <ele>236.73170471191</ele>
        <time>2010-03-13T15:08:48Z</time>
      </trkpt>
      <trkpt lat="45.12098" lon="5.33579">
        <ele>224.43746948242</ele>
        <time>2010-03-13T15:09:01Z</time>
      </trkpt>
      <trkpt lat="45.12074" lon="5.33573">
        <ele>222.52416992188</ele>
        <time>2010-03-13T15:09:05Z</time>
      </trkpt>
      <trkpt lat="45.12064" lon="5.33564">
        <ele>220.61186218262</ele>
        <time>2010-03-13T15:09:07Z</time>
      </trkpt>
      <trkpt lat="45.12045" lon="5.33527">
        <ele>217.98257446289</ele>
        <time>2010-03-13T15:09:12Z</time>
      </trkpt>
      <trkpt lat="45.12031" lon="5.33529">
        <ele>218.04383850098</ele>
        <time>2010-03-13T15:09:14Z</time>
      </trkpt>
      <trkpt lat="45.12034" lon="5.3356">
        <ele>219.70826721191</ele>
        <time>2010-03-13T15:09:17Z</time>
      </trkpt>
      <trkpt lat="45.12041" lon="5.33576">
        <ele>222.65162658691</ele>
        <time>2010-03-13T15:09:19Z</time>
      </trkpt>
      <trkpt lat="45.12059" lon="5.336">
        <ele>230.99876403809</ele>
        <time>2010-03-13T15:09:23Z</time>
      </trkpt>
      <trkpt lat="45.121" lon="5.33628">
        <ele>238.78630065918</ele>
        <time>2010-03-13T15:09:30Z</time>
      </trkpt>
      <trkpt lat="45.12123" lon="5.33662">
        <ele>244.46212768555</ele>
        <time>2010-03-13T15:09:35Z</time>
      </trkpt>
      <trkpt lat="45.12106" lon="5.33717">
        <ele>254.1681060791</ele>
        <time>2010-03-13T15:09:42Z</time>
      </trkpt>
      <trkpt lat="45.12108" lon="5.33735">
        <ele>257.07986450195</ele>
        <time>2010-03-13T15:09:44Z</time>
      </trkpt>
      <trkpt lat="45.12124" lon="5.33786">
        <ele>260.7008972168</ele>
        <time>2010-03-13T15:09:50Z</time>
      </trkpt>
      <trkpt lat="45.12114" lon="5.33833">
        <ele>262.78265380859</ele>
        <time>2010-03-13T15:09:55Z</time>
      </trkpt>
      <trkpt lat="45.12148" lon="5.33859">
        <ele>260.67547607422</ele>
        <time>2010-03-13T15:10:01Z</time>
      </trkpt>
      <trkpt lat="45.12114" lon="5.33833">
        <ele>262.78265380859</ele>
        <time>2010-03-13T15:10:07Z</time>
      </trkpt>
      <trkpt lat="45.12124" lon="5.33786">
        <ele>260.7008972168</ele>
        <time>2010-03-13T15:10:12Z</time>
      </trkpt>
      <trkpt lat="45.12108" lon="5.33735">
        <ele>257.07986450195</ele>
        <time>2010-03-13T15:10:18Z</time>
      </trkpt>
      <trkpt lat="45.12106" lon="5.33717">
        <ele>254.1681060791</ele>
        <time>2010-03-13T15:10:20Z</time>
      </trkpt>
      <trkpt lat="45.12123" lon="5.33662">
        <ele>244.46212768555</ele>
        <time>2010-03-13T15:10:27Z</time>
      </trkpt>
      <trkpt lat="45.121" lon="5.33628">
        <ele>238.78630065918</ele>
        <time>2010-03-13T15:10:32Z</time>
      </trkpt>
      <trkpt lat="45.12059" lon="5.336">
        <ele>230.99876403809</ele>
        <time>2010-03-13T15:10:39Z</time>
      </trkpt>
      <trkpt lat="45.12041" lon="5.33576">
        <ele>222.65162658691</ele>
        <time>2010-03-13T15:10:43Z</time>
      </trkpt>
      <trkpt lat="45.12034" lon="5.3356">
        <ele>219.70826721191</ele>
        <time>2010-03-13T15:10:45Z</time>
      </trkpt>
      <trkpt lat="45.12031" lon="5.33529">
        <ele>218.04383850098</ele>
        <time>2010-03-13T15:10:48Z</time>
      </trkpt>
      <trkpt lat="45.12045" lon="5.33527">
        <ele>217.98257446289</ele>
        <time>2010-03-13T15:10:50Z</time>
      </trkpt>
      <trkpt lat="45.12064" lon="5.33564">
        <ele>220.61186218262</ele>
        <time>2010-03-13T15:10:55Z</time>
      </trkpt>
      <trkpt lat="45.12074" lon="5.33573">
        <ele>222.52416992188</ele>
        <time>2010-03-13T15:10:57Z</time>
      </trkpt>
      <trkpt lat="45.12098" lon="5.33579">
        <ele>224.43746948242</ele>
        <time>2010-03-13T15:11:01Z</time>
      </trkpt>
      <trkpt lat="45.12171" lon="5.33642">
        <ele>236.73170471191</ele>
        <time>2010-03-13T15:11:14Z</time>
      </trkpt>
      <trkpt lat="45.1228" lon="5.33797">
        <ele>226.82054138184</ele>
        <time>2010-03-13T15:11:37Z</time>
      </trkpt>
      <trkpt lat="45.12328" lon="5.33842">
        <ele>216.22157287598</ele>
        <time>2010-03-13T15:11:46Z</time>
      </trkpt>
      <trkpt lat="45.12349" lon="5.33854">
        <ele>211.62939453125</ele>
        <time>2010-03-13T15:11:50Z</time>
      </trkpt>
      <trkpt lat="45.12374" lon="5.3384">
        <ele>206.07899475098</ele>
        <time>2010-03-13T15:11:54Z</time>
      </trkpt>
      <trkpt lat="45.12397" lon="5.33812">
        <ele>202.89172363281</ele>
        <time>2010-03-13T15:11:59Z</time>
      </trkpt>
      <trkpt lat="45.12442" lon="5.33735">
        <ele>202.18186950684</ele>
        <time>2010-03-13T15:12:09Z</time>
      </trkpt>
      <trkpt lat="45.12455" lon="5.33725">
        <ele>201.24096679688</ele>
        <time>2010-03-13T15:12:12Z</time>
      </trkpt>
      <trkpt lat="45.12478" lon="5.33721">
        <ele>198.19505310059</ele>
        <time>2010-03-13T15:12:15Z</time>
      </trkpt>
      <trkpt lat="45.12547" lon="5.33722">
        <ele>182.94944763184</ele>
        <time>2010-03-13T15:12:26Z</time>
      </trkpt>
      <trkpt lat="45.12578" lon="5.33721">
        <ele>179.64741516113</ele>
        <time>2010-03-13T15:12:31Z</time>
      </trkpt>
      <trkpt lat="45.12585" lon="5.33708">
        <ele>179.32318115234</ele>
        <time>2010-03-13T15:12:32Z</time>
      </trkpt>
      <trkpt lat="45.12584" lon="5.33689">
        <ele>180.10609436035</ele>
        <time>2010-03-13T15:12:34Z</time>
      </trkpt>
      <trkpt lat="45.12548" lon="5.33613">
        <ele>182.94598388672</ele>
        <time>2010-03-13T15:12:44Z</time>
      </trkpt>
      <trkpt lat="45.12523" lon="5.33527">
        <ele>180.64758300781</ele>
        <time>2010-03-13T15:12:54Z</time>
      </trkpt>
      <trkpt lat="45.12494" lon="5.33479">
        <ele>181.91560363769</ele>
        <time>2010-03-13T15:13:01Z</time>
      </trkpt>
      <trkpt lat="45.12479" lon="5.3344">
        <ele>181.58215332031</ele>
        <time>2010-03-13T15:13:06Z</time>
      </trkpt>
      <trkpt lat="45.12474" lon="5.33405">
        <ele>178.96279907227</ele>
        <time>2010-03-13T15:13:10Z</time>
      </trkpt>
      <trkpt lat="45.12477" lon="5.3334">
        <ele>174.57717895508</ele>
        <time>2010-03-13T15:13:17Z</time>
      </trkpt>
      <trkpt lat="45.12476" lon="5.333">
        <ele>172.06201171875</ele>
        <time>2010-03-13T15:13:21Z</time>
      </trkpt>
      <trkpt lat="45.12472" lon="5.33282">
        <ele>171.31106567383</ele>
        <time>2010-03-13T15:13:23Z</time>
      </trkpt>
      <trkpt lat="45.12434" lon="5.33227">
        <ele>174.78109741211</ele>
        <time>2010-03-13T15:13:32Z</time>
      </trkpt>
      <trkpt lat="45.12398" lon="5.3316">
        <ele>184.00012207031</ele>
        <time>2010-03-13T15:13:41Z</time>
      </trkpt>
      <trkpt lat="45.12398" lon="5.33131">
        <ele>182.95610046387</ele>
        <time>2010-03-13T15:13:44Z</time>
      </trkpt>
      <trkpt lat="45.12406" lon="5.33089">
        <ele>175.94117736816</ele>
        <time>2010-03-13T15:13:49Z</time>
      </trkpt>
      <trkpt lat="45.12435" lon="5.33073">
        <ele>166.17869567871</ele>
        <time>2010-03-13T15:13:53Z</time>
      </trkpt>
      <trkpt lat="45.12489" lon="5.33016">
        <ele>164</ele>
        <time>2010-03-13T15:14:04Z</time>
      </trkpt>
      <trkpt lat="45.12562" lon="5.32963">
        <ele>168.81091308594</ele>
        <time>2010-03-13T15:14:16Z</time>
      </trkpt>
      <trkpt lat="45.12566" lon="5.32951">
        <ele>170.90861511231</ele>
        <time>2010-03-13T15:14:18Z</time>
      </trkpt>
      <trkpt lat="45.12565" lon="5.32928">
        <ele>172.78843688965</ele>
        <time>2010-03-13T15:14:20Z</time>
      </trkpt>
      <trkpt lat="45.12471" lon="5.32575">
        <ele>170.8251953125</ele>
        <time>2010-03-13T15:15:01Z</time>
      </trkpt>
      <trkpt lat="45.12412" lon="5.32386">
        <ele>164.74212646484</ele>
        <time>2010-03-13T15:15:24Z</time>
      </trkpt>
      <trkpt lat="45.12407" lon="5.32339">
        <ele>164</ele>
        <time>2010-03-13T15:15:29Z</time>
      </trkpt>
      <trkpt lat="45.1242" lon="5.32294">
        <ele>167.29727172852</ele>
        <time>2010-03-13T15:15:34Z</time>
      </trkpt>
      <trkpt lat="45.12435" lon="5.32269">
        <ele>171.6095123291</ele>
        <time>2010-03-13T15:15:37Z</time>
      </trkpt>
      <trkpt lat="45.12431" lon="5.32249">
        <ele>173.18016052246</ele>
        <time>2010-03-13T15:15:40Z</time>
      </trkpt>
      <trkpt lat="45.12418" lon="5.32217">
        <ele>175.51985168457</ele>
        <time>2010-03-13T15:15:44Z</time>
      </trkpt>
      <trkpt lat="45.1239" lon="5.32183">
        <ele>175.37297058106</ele>
        <time>2010-03-13T15:15:49Z</time>
      </trkpt>
      <trkpt lat="45.12363" lon="5.32133">
        <ele>174.98466491699</ele>
        <time>2010-03-13T15:15:56Z</time>
      </trkpt>
      <trkpt lat="45.1234" lon="5.32054">
        <ele>177.54545593262</ele>
        <time>2010-03-13T15:16:05Z</time>
      </trkpt>
      <trkpt lat="45.12328" lon="5.31979">
        <ele>179.78869628906</ele>
        <time>2010-03-13T15:16:14Z</time>
      </trkpt>
      <trkpt lat="45.12278" lon="5.31772">
        <ele>178.50891113281</ele>
        <time>2010-03-13T15:16:37Z</time>
      </trkpt>
      <trkpt lat="45.12264" lon="5.31682">
        <ele>179.61578369141</ele>
        <time>2010-03-13T15:16:47Z</time>
      </trkpt>
      <trkpt lat="45.12267" lon="5.31581">
        <ele>188.12239074707</ele>
        <time>2010-03-13T15:16:58Z</time>
      </trkpt>
      <trkpt lat="45.12253" lon="5.3153">
        <ele>182.16297912598</ele>
        <time>2010-03-13T15:17:04Z</time>
      </trkpt>
      <trkpt lat="45.12247" lon="5.31488">
        <ele>186.02346801758</ele>
        <time>2010-03-13T15:17:09Z</time>
      </trkpt>
      <trkpt lat="45.12241" lon="5.31291">
        <ele>205.47930908203</ele>
        <time>2010-03-13T15:17:30Z</time>
      </trkpt>
      <trkpt lat="45.12225" lon="5.31173">
        <ele>215.74880981445</ele>
        <time>2010-03-13T15:17:43Z</time>
      </trkpt>
      <trkpt lat="45.12109" lon="5.30615">
        <ele>235.42176818848</ele>
        <time>2010-03-13T15:18:46Z</time>
      </trkpt>
      <trkpt lat="45.12093" lon="5.3056">
        <ele>230.03276062012</ele>
        <time>2010-03-13T15:18:53Z</time>
      </trkpt>
      <trkpt lat="45.12086" lon="5.30508">
        <ele>231.27679443359</ele>
        <time>2010-03-13T15:18:59Z</time>
      </trkpt>
      <trkpt lat="45.12099" lon="5.30474">
        <ele>236.54483032227</ele>
        <time>2010-03-13T15:19:03Z</time>
      </trkpt>
      <trkpt lat="45.12128" lon="5.30448">
        <ele>243.32763671875</ele>
        <time>2010-03-13T15:19:08Z</time>
      </trkpt>
      <trkpt lat="45.1215" lon="5.30443">
        <ele>248.173828125</ele>
        <time>2010-03-13T15:19:11Z</time>
      </trkpt>
      <trkpt lat="45.12205" lon="5.30444">
        <ele>255.58929443359</ele>
        <time>2010-03-13T15:19:20Z</time>
      </trkpt>
      <trkpt lat="45.12252" lon="5.30433">
        <ele>260</ele>
        <time>2010-03-13T15:19:27Z</time>
      </trkpt>
      <trkpt lat="45.123" lon="5.3042">
        <ele>260</ele>
        <time>2010-03-13T15:19:35Z</time>
      </trkpt>
      <trkpt lat="45.12379" lon="5.30387">
        <ele>260</ele>
        <time>2010-03-13T15:19:47Z</time>
      </trkpt>
      <trkpt lat="45.12497" lon="5.30557">
        <ele>260</ele>
        <time>2010-03-13T15:20:13Z</time>
      </trkpt>
      <trkpt lat="45.12512" lon="5.30571">
        <ele>260.42572021484</ele>
        <time>2010-03-13T15:20:16Z</time>
      </trkpt>
      <trkpt lat="45.12529" lon="5.30549">
        <ele>261</ele>
        <time>2010-03-13T15:20:19Z</time>
      </trkpt>
      <trkpt lat="45.12577" lon="5.30461">
        <ele>261</ele>
        <time>2010-03-13T15:20:31Z</time>
      </trkpt>
      <trkpt lat="45.1263" lon="5.30376">
        <ele>260.85293579102</ele>
        <time>2010-03-13T15:20:44Z</time>
      </trkpt>
      <trkpt lat="45.12644" lon="5.30348">
        <ele>261</ele>
        <time>2010-03-13T15:20:47Z</time>
      </trkpt>
      <trkpt lat="45.12655" lon="5.30309">
        <ele>261</ele>
        <time>2010-03-13T15:20:52Z</time>
      </trkpt>
      <trkpt lat="45.12669" lon="5.30255">
        <ele>260.1794128418</ele>
        <time>2010-03-13T15:20:58Z</time>
      </trkpt>
      <trkpt lat="45.12744" lon="5.30166">
        <ele>260</ele>
        <time>2010-03-13T15:21:13Z</time>
      </trkpt>
      <trkpt lat="45.12775" lon="5.30145">
        <ele>260</ele>
        <time>2010-03-13T15:21:19Z</time>
      </trkpt>
      <trkpt lat="45.12828" lon="5.30128">
        <ele>261</ele>
        <time>2010-03-13T15:21:27Z</time>
      </trkpt>
      <trkpt lat="45.12847" lon="5.30117">
        <ele>261</ele>
        <time>2010-03-13T15:21:30Z</time>
      </trkpt>
      <trkpt lat="45.12873" lon="5.30099">
        <ele>261</ele>
        <time>2010-03-13T15:21:34Z</time>
      </trkpt>
      <trkpt lat="45.12994" lon="5.29994">
        <ele>263</ele>
        <time>2010-03-13T15:21:56Z</time>
      </trkpt>
      <trkpt lat="45.13068" lon="5.29908">
        <ele>263.44830322266</ele>
        <time>2010-03-13T15:22:11Z</time>
      </trkpt>
      <trkpt lat="45.13216" lon="5.29714">
        <ele>265.77667236328</ele>
        <time>2010-03-13T15:22:42Z</time>
      </trkpt>
      <trkpt lat="45.13377" lon="5.29539">
        <ele>267</ele>
        <time>2010-03-13T15:23:13Z</time>
      </trkpt>
      <trkpt lat="45.13434" lon="5.29471">
        <ele>267</ele>
        <time>2010-03-13T15:23:24Z</time>
      </trkpt>
      <trkpt lat="45.13504" lon="5.29403">
        <ele>268.14501953125</ele>
        <time>2010-03-13T15:23:37Z</time>
      </trkpt>
      <trkpt lat="45.13669" lon="5.29216">
        <ele>270.01739501953</ele>
        <time>2010-03-13T15:24:10Z</time>
      </trkpt>
      <trkpt lat="45.13754" lon="5.29102">
        <ele>272.32830810547</ele>
        <time>2010-03-13T15:24:28Z</time>
      </trkpt>
      <trkpt lat="45.13823" lon="5.29018">
        <ele>273.75720214844</ele>
        <time>2010-03-13T15:24:42Z</time>
      </trkpt>
      <trkpt lat="45.14024" lon="5.2884">
        <ele>278.86297607422</ele>
        <time>2010-03-13T15:25:18Z</time>
      </trkpt>
      <trkpt lat="45.14056" lon="5.28829">
        <ele>279.01654052734</ele>
        <time>2010-03-13T15:25:23Z</time>
      </trkpt>
      <trkpt lat="45.14084" lon="5.28805">
        <ele>280</ele>
        <time>2010-03-13T15:25:28Z</time>
      </trkpt>
      <trkpt lat="45.14139" lon="5.28769">
        <ele>280</ele>
        <time>2010-03-13T15:25:38Z</time>
      </trkpt>
      <trkpt lat="45.14142" lon="5.28775">
        <ele>280</ele>
        <time>2010-03-13T15:25:38Z</time>
      </trkpt>
      <trkpt lat="45.14149" lon="5.28774">
        <ele>280</ele>
        <time>2010-03-13T15:25:39Z</time>
      </trkpt>
      <trkpt lat="45.14151" lon="5.28767">
        <ele>280</ele>
        <time>2010-03-13T15:25:40Z</time>
      </trkpt>
      <trkpt lat="45.14148" lon="5.2876">
        <ele>280</ele>
        <time>2010-03-13T15:25:41Z</time>
      </trkpt>
      <trkpt lat="45.14153" lon="5.28746">
        <ele>280</ele>
        <time>2010-03-13T15:25:43Z</time>
      </trkpt>
      <trkpt lat="45.14198" lon="5.28672">
        <ele>280</ele>
        <time>2010-03-13T15:25:53Z</time>
      </trkpt>
      <trkpt lat="45.14221" lon="5.28614">
        <ele>280</ele>
        <time>2010-03-13T15:26:01Z</time>
      </trkpt>
      <trkpt lat="45.14269" lon="5.28468">
        <ele>281.83190917969</ele>
        <time>2010-03-13T15:26:18Z</time>
      </trkpt>
      <trkpt lat="45.14303" lon="5.28382">
        <ele>284.654296875</ele>
        <time>2010-03-13T15:26:29Z</time>
      </trkpt>
      <trkpt lat="45.1434" lon="5.28302">
        <ele>284.23382568359</ele>
        <time>2010-03-13T15:26:39Z</time>
      </trkpt>
      <trkpt lat="45.14348" lon="5.28272">
        <ele>284.41375732422</ele>
        <time>2010-03-13T15:26:43Z</time>
      </trkpt>
      <trkpt lat="45.14357" lon="5.28159">
        <ele>283.61666870117</ele>
        <time>2010-03-13T15:26:55Z</time>
      </trkpt>
      <trkpt lat="45.14364" lon="5.28122">
        <ele>283.09899902344</ele>
        <time>2010-03-13T15:26:59Z</time>
      </trkpt>
      <trkpt lat="45.14506" lon="5.27821">
        <ele>288.44274902344</ele>
        <time>2010-03-13T15:27:38Z</time>
      </trkpt>
      <trkpt lat="45.14525" lon="5.27763">
        <ele>289.78857421875</ele>
        <time>2010-03-13T15:27:45Z</time>
      </trkpt>
      <trkpt lat="45.14551" lon="5.27658">
        <ele>292.99621582031</ele>
        <time>2010-03-13T15:27:57Z</time>
      </trkpt>
      <trkpt lat="45.14579" lon="5.27595">
        <ele>296.33422851562</ele>
        <time>2010-03-13T15:28:05Z</time>
      </trkpt>
      <trkpt lat="45.14615" lon="5.27562">
        <ele>297.9033203125</ele>
        <time>2010-03-13T15:28:12Z</time>
      </trkpt>
      <trkpt lat="45.14771" lon="5.27482">
        <ele>300</ele>
        <time>2010-03-13T15:28:37Z</time>
      </trkpt>
      <trkpt lat="45.14839" lon="5.27434">
        <ele>300</ele>
        <time>2010-03-13T15:28:49Z</time>
      </trkpt>
      <trkpt lat="45.15063" lon="5.27176">
        <ele>300</ele>
        <time>2010-03-13T15:29:33Z</time>
      </trkpt>
      <trkpt lat="45.15127" lon="5.27117">
        <ele>300</ele>
        <time>2010-03-13T15:29:45Z</time>
      </trkpt>
      <trkpt lat="45.15259" lon="5.26971">
        <ele>300</ele>
        <time>2010-03-13T15:30:11Z</time>
      </trkpt>
      <trkpt lat="45.15331" lon="5.26905">
        <ele>307.18786621094</ele>
        <time>2010-03-13T15:30:24Z</time>
      </trkpt>
      <trkpt lat="45.15411" lon="5.26814">
        <ele>319.63464355469</ele>
        <time>2010-03-13T15:30:40Z</time>
      </trkpt>
      <trkpt lat="45.15439" lon="5.26757">
        <ele>321.05578613281</ele>
        <time>2010-03-13T15:30:47Z</time>
      </trkpt>
      <trkpt lat="45.15507" lon="5.26585">
        <ele>320</ele>
        <time>2010-03-13T15:31:08Z</time>
      </trkpt>
      <trkpt lat="45.15522" lon="5.26497">
        <ele>320</ele>
        <time>2010-03-13T15:31:18Z</time>
      </trkpt>
      <trkpt lat="45.15537" lon="5.26438">
        <ele>323.22613525391</ele>
        <time>2010-03-13T15:31:25Z</time>
      </trkpt>
      <trkpt lat="45.15602" lon="5.26286">
        <ele>339.904296875</ele>
        <time>2010-03-13T15:31:44Z</time>
      </trkpt>
      <trkpt lat="45.15606" lon="5.26272">
        <ele>340.07748413086</ele>
        <time>2010-03-13T15:31:46Z</time>
      </trkpt>
      <trkpt lat="45.15616" lon="5.26109">
        <ele>346.89321899414</ele>
        <time>2010-03-13T15:32:04Z</time>
      </trkpt>
      <trkpt lat="45.15622" lon="5.26076">
        <ele>347.48434448242</ele>
        <time>2010-03-13T15:32:07Z</time>
      </trkpt>
      <trkpt lat="45.15653" lon="5.25987">
        <ele>351.20037841797</ele>
        <time>2010-03-13T15:32:18Z</time>
      </trkpt>
      <trkpt lat="45.1566" lon="5.25952">
        <ele>353.45562744141</ele>
        <time>2010-03-13T15:32:22Z</time>
      </trkpt>
      <trkpt lat="45.15655" lon="5.25924">
        <ele>355.16561889648</ele>
        <time>2010-03-13T15:32:25Z</time>
      </trkpt>
      <trkpt lat="45.15602" lon="5.25817">
        <ele>359.58752441406</ele>
        <time>2010-03-13T15:32:39Z</time>
      </trkpt>
      <trkpt lat="45.15543" lon="5.25747">
        <ele>359.54742431641</ele>
        <time>2010-03-13T15:32:51Z</time>
      </trkpt>
      <trkpt lat="45.15458" lon="5.2561">
        <ele>349.93994140625</ele>
        <time>2010-03-13T15:33:11Z</time>
      </trkpt>
      <trkpt lat="45.15447" lon="5.25575">
        <ele>348.32095336914</ele>
        <time>2010-03-13T15:33:15Z</time>
      </trkpt>
      <trkpt lat="45.15437" lon="5.25511">
        <ele>345.85458374023</ele>
        <time>2010-03-13T15:33:22Z</time>
      </trkpt>
      <trkpt lat="45.1545" lon="5.25487">
        <ele>345.92495727539</ele>
        <time>2010-03-13T15:33:25Z</time>
      </trkpt>
      <trkpt lat="45.15478" lon="5.2548">
        <ele>347.49224853516</ele>
        <time>2010-03-13T15:33:30Z</time>
      </trkpt>
      <trkpt lat="45.15543" lon="5.25445">
        <ele>341.88989257812</ele>
        <time>2010-03-13T15:33:40Z</time>
      </trkpt>
      <trkpt lat="45.15644" lon="5.25421">
        <ele>335.34106445312</ele>
        <time>2010-03-13T15:33:56Z</time>
      </trkpt>
      <trkpt lat="45.15712" lon="5.25416">
        <ele>338.41204833984</ele>
        <time>2010-03-13T15:34:07Z</time>
      </trkpt>
      <trkpt lat="45.15752" lon="5.2542">
        <ele>340.27798461914</ele>
        <time>2010-03-13T15:34:13Z</time>
      </trkpt>
      <trkpt lat="45.15872" lon="5.25447">
        <ele>339.49774169922</ele>
        <time>2010-03-13T15:34:31Z</time>
      </trkpt>
      <trkpt lat="45.15905" lon="5.2544">
        <ele>340</ele>
        <time>2010-03-13T15:34:36Z</time>
      </trkpt>
      <trkpt lat="45.15935" lon="5.25425">
        <ele>341.06399536133</ele>
        <time>2010-03-13T15:34:41Z</time>
      </trkpt>
      <trkpt lat="45.16041" lon="5.25325">
        <ele>348.00369262695</ele>
        <time>2010-03-13T15:35:01Z</time>
      </trkpt>
      <trkpt lat="45.16084" lon="5.25311">
        <ele>351.38195800781</ele>
        <time>2010-03-13T15:35:08Z</time>
      </trkpt>
      <trkpt lat="45.16121" lon="5.25308">
        <ele>361.4987487793</ele>
        <time>2010-03-13T15:35:13Z</time>
      </trkpt>
      <trkpt lat="45.16153" lon="5.25296">
        <ele>364.49563598633</ele>
        <time>2010-03-13T15:35:18Z</time>
      </trkpt>
      <trkpt lat="45.16314" lon="5.25215">
        <ele>361.52227783203</ele>
        <time>2010-03-13T15:35:45Z</time>
      </trkpt>
      <trkpt lat="45.16381" lon="5.25171">
        <ele>362.03018188477</ele>
        <time>2010-03-13T15:35:56Z</time>
      </trkpt>
      <trkpt lat="45.1645" lon="5.25105">
        <ele>359.93933105469</ele>
        <time>2010-03-13T15:36:09Z</time>
      </trkpt>
      <trkpt lat="45.1649" lon="5.2506">
        <ele>359.64624023438</ele>
        <time>2010-03-13T15:36:17Z</time>
      </trkpt>
      <trkpt lat="45.16555" lon="5.24943">
        <ele>360.05038452148</ele>
        <time>2010-03-13T15:36:33Z</time>
      </trkpt>
      <trkpt lat="45.16592" lon="5.24891">
        <ele>363.23712158203</ele>
        <time>2010-03-13T15:36:41Z</time>
      </trkpt>
      <trkpt lat="45.16692" lon="5.24789">
        <ele>368.31494140625</ele>
        <time>2010-03-13T15:37:00Z</time>
      </trkpt>
      <trkpt lat="45.16864" lon="5.24584">
        <ele>363.15301513672</ele>
        <time>2010-03-13T15:37:34Z</time>
      </trkpt>
      <trkpt lat="45.16945" lon="5.24478">
        <ele>362.28756713867</ele>
        <time>2010-03-13T15:37:51Z</time>
      </trkpt>
      <trkpt lat="45.16953" lon="5.2444">
        <ele>363.07269287109</ele>
        <time>2010-03-13T15:37:55Z</time>
      </trkpt>
      <trkpt lat="45.16952" lon="5.2442">
        <ele>363.70956420898</ele>
        <time>2010-03-13T15:37:57Z</time>
      </trkpt>
      <trkpt lat="45.16942" lon="5.24378">
        <ele>365.20352172852</ele>
        <time>2010-03-13T15:38:02Z</time>
      </trkpt>
      <trkpt lat="45.16907" lon="5.24325">
        <ele>365.91339111328</ele>
        <time>2010-03-13T15:38:10Z</time>
      </trkpt>
      <trkpt lat="45.16684" lon="5.24261">
        <ele>360.60406494141</ele>
        <time>2010-03-13T15:38:45Z</time>
      </trkpt>
      <trkpt lat="45.16605" lon="5.24232">
        <ele>359.77984619141</ele>
        <time>2010-03-13T15:38:58Z</time>
      </trkpt>
      <trkpt lat="45.16583" lon="5.24221">
        <ele>358.93902587891</ele>
        <time>2010-03-13T15:39:01Z</time>
      </trkpt>
      <trkpt lat="45.16572" lon="5.2421">
        <ele>358.15795898438</ele>
        <time>2010-03-13T15:39:03Z</time>
      </trkpt>
      <trkpt lat="45.16562" lon="5.24196">
        <ele>357.28421020508</ele>
        <time>2010-03-13T15:39:05Z</time>
      </trkpt>
      <trkpt lat="45.16543" lon="5.24145">
        <ele>355.76077270508</ele>
        <time>2010-03-13T15:39:12Z</time>
      </trkpt>
      <trkpt lat="45.16519" lon="5.24038">
        <ele>353.68994140625</ele>
        <time>2010-03-13T15:39:24Z</time>
      </trkpt>
      <trkpt lat="45.16487" lon="5.2386">
        <ele>345.45477294922</ele>
        <time>2010-03-13T15:39:44Z</time>
      </trkpt>
      <trkpt lat="45.16483" lon="5.23809">
        <ele>341.63360595703</ele>
        <time>2010-03-13T15:39:49Z</time>
      </trkpt>
      <trkpt lat="45.16485" lon="5.23795">
        <ele>341.07342529297</ele>
        <time>2010-03-13T15:39:51Z</time>
      </trkpt>
      <trkpt lat="45.1651" lon="5.23736">
        <ele>340</ele>
        <time>2010-03-13T15:39:58Z</time>
      </trkpt>
      <trkpt lat="45.16522" lon="5.23726">
        <ele>340</ele>
        <time>2010-03-13T15:40:00Z</time>
      </trkpt>
      <trkpt lat="45.16739" lon="5.23657">
        <ele>340</ele>
        <time>2010-03-13T15:40:34Z</time>
      </trkpt>
      <trkpt lat="45.16766" lon="5.23651">
        <ele>340</ele>
        <time>2010-03-13T15:40:39Z</time>
      </trkpt>
      <trkpt lat="45.168" lon="5.23653">
        <ele>340</ele>
        <time>2010-03-13T15:40:44Z</time>
      </trkpt>
      <trkpt lat="45.16902" lon="5.23687">
        <ele>340</ele>
        <time>2010-03-13T15:41:00Z</time>
      </trkpt>
      <trkpt lat="45.16931" lon="5.23687">
        <ele>340</ele>
        <time>2010-03-13T15:41:04Z</time>
      </trkpt>
      <trkpt lat="45.16946" lon="5.23678">
        <ele>340</ele>
        <time>2010-03-13T15:41:07Z</time>
      </trkpt>
      <trkpt lat="45.16976" lon="5.23648">
        <ele>340</ele>
        <time>2010-03-13T15:41:13Z</time>
      </trkpt>
      <trkpt lat="45.1699" lon="5.2362">
        <ele>340</ele>
        <time>2010-03-13T15:41:16Z</time>
      </trkpt>
      <trkpt lat="45.16983" lon="5.23557">
        <ele>347.80462646484</ele>
        <time>2010-03-13T15:41:23Z</time>
      </trkpt>
      <trkpt lat="45.16969" lon="5.23501">
        <ele>360.62100219727</ele>
        <time>2010-03-13T15:41:30Z</time>
      </trkpt>
      <trkpt lat="45.16963" lon="5.2349">
        <ele>360.78323364258</ele>
        <time>2010-03-13T15:41:31Z</time>
      </trkpt>
      <trkpt lat="45.16938" lon="5.23473">
        <ele>360.96026611328</ele>
        <time>2010-03-13T15:41:35Z</time>
      </trkpt>
      <trkpt lat="45.1686" lon="5.23446">
        <ele>353.54751586914</ele>
        <time>2010-03-13T15:41:48Z</time>
      </trkpt>
      <trkpt lat="45.16831" lon="5.23413">
        <ele>350.73498535156</ele>
        <time>2010-03-13T15:41:53Z</time>
      </trkpt>
      <trkpt lat="45.16825" lon="5.23388">
        <ele>351.55996704102</ele>
        <time>2010-03-13T15:41:56Z</time>
      </trkpt>
      <trkpt lat="45.16826" lon="5.23369">
        <ele>352.56546020508</ele>
        <time>2010-03-13T15:41:58Z</time>
      </trkpt>
      <trkpt lat="45.16835" lon="5.2334">
        <ele>355.65710449219</ele>
        <time>2010-03-13T15:42:02Z</time>
      </trkpt>
      <trkpt lat="45.16895" lon="5.23238">
        <ele>360</ele>
        <time>2010-03-13T15:42:16Z</time>
      </trkpt>
      <trkpt lat="45.16917" lon="5.23185">
        <ele>360</ele>
        <time>2010-03-13T15:42:23Z</time>
      </trkpt>
      <trkpt lat="45.16922" lon="5.23156">
        <ele>361.53268432617</ele>
        <time>2010-03-13T15:42:26Z</time>
      </trkpt>
      <trkpt lat="45.16924" lon="5.23109">
        <ele>363.92425537109</ele>
        <time>2010-03-13T15:42:31Z</time>
      </trkpt>
      <trkpt lat="45.16922" lon="5.23065">
        <ele>363</ele>
        <time>2010-03-13T15:42:36Z</time>
      </trkpt>
      <trkpt lat="45.16916" lon="5.23036">
        <ele>362.29611206055</ele>
        <time>2010-03-13T15:42:39Z</time>
      </trkpt>
      <trkpt lat="45.17016" lon="5.22923">
        <ele>360.22772216797</ele>
        <time>2010-03-13T15:42:59Z</time>
      </trkpt>
      <trkpt lat="45.17071" lon="5.22848">
        <ele>362.05969238281</ele>
        <time>2010-03-13T15:43:10Z</time>
      </trkpt>
      <trkpt lat="45.17099" lon="5.22772">
        <ele>358.53848266602</ele>
        <time>2010-03-13T15:43:20Z</time>
      </trkpt>
      <trkpt lat="45.17162" lon="5.22637">
        <ele>349.51110839844</ele>
        <time>2010-03-13T15:43:37Z</time>
      </trkpt>
      <trkpt lat="45.17169" lon="5.22603">
        <ele>347.0383605957</ele>
        <time>2010-03-13T15:43:41Z</time>
      </trkpt>
      <trkpt lat="45.17168" lon="5.22528">
        <ele>340.10690307617</ele>
        <time>2010-03-13T15:43:49Z</time>
      </trkpt>
      <trkpt lat="45.17174" lon="5.22494">
        <ele>340</ele>
        <time>2010-03-13T15:43:53Z</time>
      </trkpt>
      <trkpt lat="45.17208" lon="5.22454">
        <ele>340.16952514648</ele>
        <time>2010-03-13T15:44:00Z</time>
      </trkpt>
      <trkpt lat="45.17349" lon="5.22247">
        <ele>358.80444335938</ele>
        <time>2010-03-13T15:44:31Z</time>
      </trkpt>
      <trkpt lat="45.1737" lon="5.22163">
        <ele>362.20031738281</ele>
        <time>2010-03-13T15:44:41Z</time>
      </trkpt>
      <trkpt lat="45.17405" lon="5.21867">
        <ele>360.70001220703</ele>
        <time>2010-03-13T15:45:13Z</time>
      </trkpt>
      <trkpt lat="45.17426" lon="5.21803">
        <ele>360.30239868164</ele>
        <time>2010-03-13T15:45:21Z</time>
      </trkpt>
      <trkpt lat="45.17459" lon="5.21759">
        <ele>360</ele>
        <time>2010-03-13T15:45:28Z</time>
      </trkpt>
      <trkpt lat="45.17487" lon="5.21734">
        <ele>360.22485351562</ele>
        <time>2010-03-13T15:45:33Z</time>
      </trkpt>
      <trkpt lat="45.17495" lon="5.21688">
        <ele>360</ele>
        <time>2010-03-13T15:45:38Z</time>
      </trkpt>
      <trkpt lat="45.17505" lon="5.21675">
        <ele>360</ele>
        <time>2010-03-13T15:45:40Z</time>
      </trkpt>
      <trkpt lat="45.17587" lon="5.21571">
        <ele>360</ele>
        <time>2010-03-13T15:45:57Z</time>
      </trkpt>
      <trkpt lat="45.17638" lon="5.21533">
        <ele>360</ele>
        <time>2010-03-13T15:46:06Z</time>
      </trkpt>
      <trkpt lat="45.17655" lon="5.21511">
        <ele>360</ele>
        <time>2010-03-13T15:46:09Z</time>
      </trkpt>
      <trkpt lat="45.17673" lon="5.21467">
        <ele>360</ele>
        <time>2010-03-13T15:46:15Z</time>
      </trkpt>
      <trkpt lat="45.17682" lon="5.21463">
        <ele>360</ele>
        <time>2010-03-13T15:46:16Z</time>
      </trkpt>
      <trkpt lat="45.17758" lon="5.21376">
        <ele>367.30960083008</ele>
        <time>2010-03-13T15:46:31Z</time>
      </trkpt>
      <trkpt lat="45.17839" lon="5.2136">
        <ele>372.28466796875</ele>
        <time>2010-03-13T15:46:44Z</time>
      </trkpt>
      <trkpt lat="45.17908" lon="5.21355">
        <ele>375.67037963867</ele>
        <time>2010-03-13T15:46:54Z</time>
      </trkpt>
      <trkpt lat="45.18001" lon="5.21427">
        <ele>380.68563842773</ele>
        <time>2010-03-13T15:47:11Z</time>
      </trkpt>
      <trkpt lat="45.18025" lon="5.21441">
        <ele>381.80072021484</ele>
        <time>2010-03-13T15:47:15Z</time>
      </trkpt>
      <trkpt lat="45.18106" lon="5.2143">
        <ele>391.97598266602</ele>
        <time>2010-03-13T15:47:27Z</time>
      </trkpt>
      <trkpt lat="45.18189" lon="5.21447">
        <ele>399.79888916016</ele>
        <time>2010-03-13T15:47:40Z</time>
      </trkpt>
      <trkpt lat="45.18253" lon="5.21442">
        <ele>400</ele>
        <time>2010-03-13T15:47:50Z</time>
      </trkpt>
      <trkpt lat="45.18397" lon="5.21369">
        <ele>402.09030151367</ele>
        <time>2010-03-13T15:48:13Z</time>
      </trkpt>
      <trkpt lat="45.18716" lon="5.21181">
        <ele>420</ele>
        <time>2010-03-13T15:49:06Z</time>
      </trkpt>
      <trkpt lat="45.18783" lon="5.21153">
        <ele>420</ele>
        <time>2010-03-13T15:49:17Z</time>
      </trkpt>
      <trkpt lat="45.1887" lon="5.21135">
        <ele>420</ele>
        <time>2010-03-13T15:49:30Z</time>
      </trkpt>
      <trkpt lat="45.1892" lon="5.21109">
        <ele>420</ele>
        <time>2010-03-13T15:49:39Z</time>
      </trkpt>
      <trkpt lat="45.18961" lon="5.21081">
        <ele>420</ele>
        <time>2010-03-13T15:49:46Z</time>
      </trkpt>
      <trkpt lat="45.19026" lon="5.21017">
        <ele>420</ele>
        <time>2010-03-13T15:49:58Z</time>
      </trkpt>
      <trkpt lat="45.19051" lon="5.20983">
        <ele>421.73715209961</ele>
        <time>2010-03-13T15:50:03Z</time>
      </trkpt>
      <trkpt lat="45.19071" lon="5.20949">
        <ele>426.42916870117</ele>
        <time>2010-03-13T15:50:08Z</time>
      </trkpt>
      <trkpt lat="45.1909" lon="5.2089">
        <ele>435.30297851562</ele>
        <time>2010-03-13T15:50:15Z</time>
      </trkpt>
      <trkpt lat="45.19107" lon="5.20855">
        <ele>439.86383056641</ele>
        <time>2010-03-13T15:50:19Z</time>
      </trkpt>
      <trkpt lat="45.19136" lon="5.20816">
        <ele>440.93612670898</ele>
        <time>2010-03-13T15:50:26Z</time>
      </trkpt>
      <trkpt lat="45.19294" lon="5.20674">
        <ele>442.42990112305</ele>
        <time>2010-03-13T15:50:54Z</time>
      </trkpt>
      <trkpt lat="45.1933" lon="5.2066">
        <ele>445.35260009766</ele>
        <time>2010-03-13T15:51:00Z</time>
      </trkpt>
      <trkpt lat="45.19393" lon="5.20649">
        <ele>452.8251953125</ele>
        <time>2010-03-13T15:51:10Z</time>
      </trkpt>
      <trkpt lat="45.19451" lon="5.20628">
        <ele>458.57318115234</ele>
        <time>2010-03-13T15:51:19Z</time>
      </trkpt>
      <trkpt lat="45.19473" lon="5.20609">
        <ele>461.06344604492</ele>
        <time>2010-03-13T15:51:23Z</time>
      </trkpt>
      <trkpt lat="45.19513" lon="5.20557">
        <ele>465.38189697266</ele>
        <time>2010-03-13T15:51:31Z</time>
      </trkpt>
      <trkpt lat="45.1953" lon="5.20516">
        <ele>468.01010131836</ele>
        <time>2010-03-13T15:51:36Z</time>
      </trkpt>
      <trkpt lat="45.19536" lon="5.20489">
        <ele>470.31039428711</ele>
        <time>2010-03-13T15:51:39Z</time>
      </trkpt>
      <trkpt lat="45.19536" lon="5.20396">
        <ele>468.99456787109</ele>
        <time>2010-03-13T15:51:49Z</time>
      </trkpt>
      <trkpt lat="45.19539" lon="5.20375">
        <ele>469.39794921875</ele>
        <time>2010-03-13T15:51:52Z</time>
      </trkpt>
      <trkpt lat="45.19567" lon="5.20302">
        <ele>475.3271484375</ele>
        <time>2010-03-13T15:52:01Z</time>
      </trkpt>
      <trkpt lat="45.19584" lon="5.20271">
        <ele>480.05551147461</ele>
        <time>2010-03-13T15:52:05Z</time>
      </trkpt>
      <trkpt lat="45.19611" lon="5.20239">
        <ele>481.99035644531</ele>
        <time>2010-03-13T15:52:10Z</time>
      </trkpt>
      <trkpt lat="45.19652" lon="5.20223">
        <ele>490.39166259766</ele>
        <time>2010-03-13T15:52:17Z</time>
      </trkpt>
      <trkpt lat="45.19663" lon="5.20215">
        <ele>491.82904052734</ele>
        <time>2010-03-13T15:52:19Z</time>
      </trkpt>
      <trkpt lat="45.19672" lon="5.20198">
        <ele>492.72222900391</ele>
        <time>2010-03-13T15:52:21Z</time>
      </trkpt>
      <trkpt lat="45.19672" lon="5.20178">
        <ele>492.6535949707</ele>
        <time>2010-03-13T15:52:23Z</time>
      </trkpt>
      <trkpt lat="45.19643" lon="5.20135">
        <ele>487.57424926758</ele>
        <time>2010-03-13T15:52:30Z</time>
      </trkpt>
      <trkpt lat="45.19636" lon="5.20107">
        <ele>486.27532958984</ele>
        <time>2010-03-13T15:52:33Z</time>
      </trkpt>
      <trkpt lat="45.19635" lon="5.19911">
        <ele>484.44140625</ele>
        <time>2010-03-13T15:52:54Z</time>
      </trkpt>
      <trkpt lat="45.19634" lon="5.19848">
        <ele>483.8903503418</ele>
        <time>2010-03-13T15:53:01Z</time>
      </trkpt>
      <trkpt lat="45.19618" lon="5.19776">
        <ele>481.67892456055</ele>
        <time>2010-03-13T15:53:09Z</time>
      </trkpt>
      <trkpt lat="45.19611" lon="5.19719">
        <ele>480</ele>
        <time>2010-03-13T15:53:15Z</time>
      </trkpt>
      <trkpt lat="45.19608" lon="5.19559">
        <ele>480</ele>
        <time>2010-03-13T15:53:33Z</time>
      </trkpt>
      <trkpt lat="45.19612" lon="5.19385">
        <ele>480.03128051758</ele>
        <time>2010-03-13T15:53:52Z</time>
      </trkpt>
      <trkpt lat="45.19622" lon="5.19198">
        <ele>476.38528442383</ele>
        <time>2010-03-13T15:54:12Z</time>
      </trkpt>
      <trkpt lat="45.19646" lon="5.18981">
        <ele>471.0910949707</ele>
        <time>2010-03-13T15:54:36Z</time>
      </trkpt>
      <trkpt lat="45.19648" lon="5.1895">
        <ele>470.18127441406</ele>
        <time>2010-03-13T15:54:39Z</time>
      </trkpt>
      <trkpt lat="45.19645" lon="5.18886">
        <ele>467.54800415039</ele>
        <time>2010-03-13T15:54:46Z</time>
      </trkpt>
      <trkpt lat="45.19665" lon="5.18785">
        <ele>466.09576416016</ele>
        <time>2010-03-13T15:54:57Z</time>
      </trkpt>
      <trkpt lat="45.19654" lon="5.18692">
        <ele>461.0544128418</ele>
        <time>2010-03-13T15:55:07Z</time>
      </trkpt>
      <trkpt lat="45.19661" lon="5.18463">
        <ele>456.5302734375</ele>
        <time>2010-03-13T15:55:32Z</time>
      </trkpt>
      <trkpt lat="45.19668" lon="5.18413">
        <ele>455.07733154297</ele>
        <time>2010-03-13T15:55:38Z</time>
      </trkpt>
      <trkpt lat="45.19702" lon="5.18325">
        <ele>454.53186035156</ele>
        <time>2010-03-13T15:55:49Z</time>
      </trkpt>
      <trkpt lat="45.19709" lon="5.18294">
        <ele>454.15762329102</ele>
        <time>2010-03-13T15:55:52Z</time>
      </trkpt>
      <trkpt lat="45.19717" lon="5.18249">
        <ele>453.37268066406</ele>
        <time>2010-03-13T15:55:57Z</time>
      </trkpt>
      <trkpt lat="45.1973" lon="5.18121">
        <ele>447.91583251953</ele>
        <time>2010-03-13T15:56:11Z</time>
      </trkpt>
      <trkpt lat="45.19735" lon="5.17974">
        <ele>441.09307861328</ele>
        <time>2010-03-13T15:56:27Z</time>
      </trkpt>
      <trkpt lat="45.19733" lon="5.17938">
        <ele>440</ele>
        <time>2010-03-13T15:56:31Z</time>
      </trkpt>
      <trkpt lat="45.19727" lon="5.17911">
        <ele>440</ele>
        <time>2010-03-13T15:56:34Z</time>
      </trkpt>
      <trkpt lat="45.1971" lon="5.17884">
        <ele>440</ele>
        <time>2010-03-13T15:56:38Z</time>
      </trkpt>
      <trkpt lat="45.19704" lon="5.17865">
        <ele>440</ele>
        <time>2010-03-13T15:56:40Z</time>
      </trkpt>
      <trkpt lat="45.19772" lon="5.1762">
        <ele>440</ele>
        <time>2010-03-13T15:57:09Z</time>
      </trkpt>
      <trkpt lat="45.19776" lon="5.17595">
        <ele>439.42016601562</ele>
        <time>2010-03-13T15:57:11Z</time>
      </trkpt>
      <trkpt lat="45.19774" lon="5.17515">
        <ele>438.93994140625</ele>
        <time>2010-03-13T15:57:20Z</time>
      </trkpt>
      <trkpt lat="45.19777" lon="5.1749">
        <ele>438.57061767578</ele>
        <time>2010-03-13T15:57:23Z</time>
      </trkpt>
      <trkpt lat="45.19801" lon="5.17414">
        <ele>438.52935791016</ele>
        <time>2010-03-13T15:57:32Z</time>
      </trkpt>
      <trkpt lat="45.19859" lon="5.17264">
        <ele>432.39215087891</ele>
        <time>2010-03-13T15:57:50Z</time>
      </trkpt>
      <trkpt lat="45.19872" lon="5.17209">
        <ele>430.8151550293</ele>
        <time>2010-03-13T15:57:57Z</time>
      </trkpt>
      <trkpt lat="45.19872" lon="5.17075">
        <ele>427.61151123047</ele>
        <time>2010-03-13T15:58:11Z</time>
      </trkpt>
      <trkpt lat="45.19881" lon="5.16958">
        <ele>424.05178833008</ele>
        <time>2010-03-13T15:58:24Z</time>
      </trkpt>
      <trkpt lat="45.19881" lon="5.16831">
        <ele>420.822265625</ele>
        <time>2010-03-13T15:58:38Z</time>
      </trkpt>
      <trkpt lat="45.19875" lon="5.1681">
        <ele>421.08334350586</ele>
        <time>2010-03-13T15:58:40Z</time>
      </trkpt>
      <trkpt lat="45.19838" lon="5.16746">
        <ele>426.57189941406</ele>
        <time>2010-03-13T15:58:49Z</time>
      </trkpt>
      <trkpt lat="45.19807" lon="5.16665">
        <ele>425.6057434082</ele>
        <time>2010-03-13T15:58:59Z</time>
      </trkpt>
      <trkpt lat="45.19786" lon="5.16587">
        <ele>422.8655090332</ele>
        <time>2010-03-13T15:59:08Z</time>
      </trkpt>
      <trkpt lat="45.19783" lon="5.16536">
        <ele>419.53146362305</ele>
        <time>2010-03-13T15:59:14Z</time>
      </trkpt>
      <trkpt lat="45.19814" lon="5.1627">
        <ele>416.61480712891</ele>
        <time>2010-03-13T15:59:43Z</time>
      </trkpt>
      <trkpt lat="45.19834" lon="5.16196">
        <ele>415.91320800781</ele>
        <time>2010-03-13T15:59:51Z</time>
      </trkpt>
      <trkpt lat="45.19879" lon="5.16067">
        <ele>411.25814819336</ele>
        <time>2010-03-13T16:00:07Z</time>
      </trkpt>
      <trkpt lat="45.19897" lon="5.15984">
        <ele>410.03820800781</ele>
        <time>2010-03-13T16:00:16Z</time>
      </trkpt>
      <trkpt lat="45.19903" lon="5.15787">
        <ele>411.25201416016</ele>
        <time>2010-03-13T16:00:38Z</time>
      </trkpt>
      <trkpt lat="45.1989" lon="5.15631">
        <ele>412.03497314453</ele>
        <time>2010-03-13T16:00:55Z</time>
      </trkpt>
      <trkpt lat="45.1987" lon="5.15528">
        <ele>411.18731689453</ele>
        <time>2010-03-13T16:01:06Z</time>
      </trkpt>
      <trkpt lat="45.19757" lon="5.15171">
        <ele>426.48828125</ele>
        <time>2010-03-13T16:01:48Z</time>
      </trkpt>
      <trkpt lat="45.1974" lon="5.15065">
        <ele>424.42938232422</ele>
        <time>2010-03-13T16:02:00Z</time>
      </trkpt>
      <trkpt lat="45.19733" lon="5.14993">
        <ele>421.87036132812</ele>
        <time>2010-03-13T16:02:08Z</time>
      </trkpt>
      <trkpt lat="45.19725" lon="5.14819">
        <ele>408.56286621094</ele>
        <time>2010-03-13T16:02:27Z</time>
      </trkpt>
      <trkpt lat="45.19716" lon="5.14769">
        <ele>404.20748901367</ele>
        <time>2010-03-13T16:02:33Z</time>
      </trkpt>
      <trkpt lat="45.19709" lon="5.14752">
        <ele>403.6051940918</ele>
        <time>2010-03-13T16:02:35Z</time>
      </trkpt>
      <trkpt lat="45.19686" lon="5.14725">
        <ele>401.10308837891</ele>
        <time>2010-03-13T16:02:39Z</time>
      </trkpt>
      <trkpt lat="45.19609" lon="5.14659">
        <ele>398.61688232422</ele>
        <time>2010-03-13T16:02:53Z</time>
      </trkpt>
      <trkpt lat="45.19598" lon="5.14631">
        <ele>398.41522216797</ele>
        <time>2010-03-13T16:02:56Z</time>
      </trkpt>
      <trkpt lat="45.19596" lon="5.14536">
        <ele>395.59362792969</ele>
        <time>2010-03-13T16:03:07Z</time>
      </trkpt>
      <trkpt lat="45.19587" lon="5.14454">
        <ele>392.95336914062</ele>
        <time>2010-03-13T16:03:16Z</time>
      </trkpt>
      <trkpt lat="45.19575" lon="5.14431">
        <ele>393.99456787109</ele>
        <time>2010-03-13T16:03:19Z</time>
      </trkpt>
      <trkpt lat="45.19529" lon="5.14378">
        <ele>396.52362060547</ele>
        <time>2010-03-13T16:03:28Z</time>
      </trkpt>
      <trkpt lat="45.19512" lon="5.14346">
        <ele>396.57855224609</ele>
        <time>2010-03-13T16:03:32Z</time>
      </trkpt>
      <trkpt lat="45.19511" lon="5.14314">
        <ele>395.50909423828</ele>
        <time>2010-03-13T16:03:36Z</time>
      </trkpt>
      <trkpt lat="45.19541" lon="5.14232">
        <ele>392.88916015625</ele>
        <time>2010-03-13T16:03:46Z</time>
      </trkpt>
      <trkpt lat="45.19544" lon="5.14194">
        <ele>392.69381713867</ele>
        <time>2010-03-13T16:03:50Z</time>
      </trkpt>
      <trkpt lat="45.19532" lon="5.14164">
        <ele>395.04699707031</ele>
        <time>2010-03-13T16:03:54Z</time>
      </trkpt>
      <trkpt lat="45.19514" lon="5.14087">
        <ele>393.2366027832</ele>
        <time>2010-03-13T16:04:02Z</time>
      </trkpt>
      <trkpt lat="45.19482" lon="5.13865">
        <ele>386.462890625</ele>
        <time>2010-03-13T16:04:27Z</time>
      </trkpt>
      <trkpt lat="45.19477" lon="5.13774">
        <ele>381.36340332031</ele>
        <time>2010-03-13T16:04:37Z</time>
      </trkpt>
      <trkpt lat="45.19469" lon="5.13336">
        <ele>376.46078491211</ele>
        <time>2010-03-13T16:05:24Z</time>
      </trkpt>
      <trkpt lat="45.19505" lon="5.13115">
        <ele>367.82257080078</ele>
        <time>2010-03-13T16:05:49Z</time>
      </trkpt>
      <trkpt lat="45.19519" lon="5.12992">
        <ele>365.02648925781</ele>
        <time>2010-03-13T16:06:02Z</time>
      </trkpt>
      <trkpt lat="45.19522" lon="5.1293">
        <ele>363.68499755859</ele>
        <time>2010-03-13T16:06:09Z</time>
      </trkpt>
      <trkpt lat="45.19518" lon="5.12757">
        <ele>360.60821533203</ele>
        <time>2010-03-13T16:06:28Z</time>
      </trkpt>
      <trkpt lat="45.19529" lon="5.12668">
        <ele>358.91680908203</ele>
        <time>2010-03-13T16:06:37Z</time>
      </trkpt>
      <trkpt lat="45.19537" lon="5.12647">
        <ele>357.86456298828</ele>
        <time>2010-03-13T16:06:40Z</time>
      </trkpt>
      <trkpt lat="45.1956" lon="5.12625">
        <ele>356.84503173828</ele>
        <time>2010-03-13T16:06:44Z</time>
      </trkpt>
      <trkpt lat="45.19654" lon="5.12572">
        <ele>354</ele>
        <time>2010-03-13T16:07:00Z</time>
      </trkpt>
      <trkpt lat="45.19669" lon="5.12555">
        <ele>354</ele>
        <time>2010-03-13T16:07:03Z</time>
      </trkpt>
      <trkpt lat="45.19682" lon="5.12531">
        <ele>354</ele>
        <time>2010-03-13T16:07:06Z</time>
      </trkpt>
      <trkpt lat="45.19568" lon="5.1206">
        <ele>349.72592163086</ele>
        <time>2010-03-13T16:08:00Z</time>
      </trkpt>
      <trkpt lat="45.19568" lon="5.12033">
        <ele>350.69921875</ele>
        <time>2010-03-13T16:08:03Z</time>
      </trkpt>
      <trkpt lat="45.19592" lon="5.11975">
        <ele>353.20843505859</ele>
        <time>2010-03-13T16:08:10Z</time>
      </trkpt>
      <trkpt lat="45.19593" lon="5.11965">
        <ele>353.51907348633</ele>
        <time>2010-03-13T16:08:11Z</time>
      </trkpt>
      <trkpt lat="45.19592" lon="5.11917">
        <ele>354.9873046875</ele>
        <time>2010-03-13T16:08:16Z</time>
      </trkpt>
      <trkpt lat="45.19578" lon="5.11755">
        <ele>360</ele>
        <time>2010-03-13T16:08:34Z</time>
      </trkpt>
      <trkpt lat="45.19581" lon="5.11734">
        <ele>361.1513671875</ele>
        <time>2010-03-13T16:08:36Z</time>
      </trkpt>
      <trkpt lat="45.19522" lon="5.11688">
        <ele>362.0276184082</ele>
        <time>2010-03-13T16:08:47Z</time>
      </trkpt>
      <trkpt lat="45.19511" lon="5.1167">
        <ele>362.27655029297</ele>
        <time>2010-03-13T16:08:49Z</time>
      </trkpt>
      <trkpt lat="45.19494" lon="5.11624">
        <ele>362.09426879883</ele>
        <time>2010-03-13T16:08:55Z</time>
      </trkpt>
      <trkpt lat="45.19442" lon="5.11432">
        <ele>359.82299804688</ele>
        <time>2010-03-13T16:09:17Z</time>
      </trkpt>
      <trkpt lat="45.19408" lon="5.11328">
        <ele>357.94973754883</ele>
        <time>2010-03-13T16:09:29Z</time>
      </trkpt>
      <trkpt lat="45.1933" lon="5.11053">
        <ele>352.49609375</ele>
        <time>2010-03-13T16:10:02Z</time>
      </trkpt>
      <trkpt lat="45.18976" lon="5.09784">
        <ele>332.48315429688</ele>
        <time>2010-03-13T16:12:29Z</time>
      </trkpt>
      <trkpt lat="45.18625" lon="5.08722">
        <ele>318.49923706055</ele>
        <time>2010-03-13T16:14:36Z</time>
      </trkpt>
      <trkpt lat="45.18608" lon="5.08684">
        <ele>318.0495300293</ele>
        <time>2010-03-13T16:14:41Z</time>
      </trkpt>
      <trkpt lat="45.18332" lon="5.08296">
        <ele>313.24099731445</ele>
        <time>2010-03-13T16:15:41Z</time>
      </trkpt>
      <trkpt lat="45.18021" lon="5.07858">
        <ele>303.59780883789</ele>
        <time>2010-03-13T16:16:48Z</time>
      </trkpt>
      <trkpt lat="45.17798" lon="5.07521">
        <ele>299.72265625</ele>
        <time>2010-03-13T16:17:38Z</time>
      </trkpt>
      <trkpt lat="45.17525" lon="5.07142">
        <ele>309.35647583008</ele>
        <time>2010-03-13T16:18:36Z</time>
      </trkpt>
      <trkpt lat="45.17469" lon="5.07072">
        <ele>315.57601928711</ele>
        <time>2010-03-13T16:18:48Z</time>
      </trkpt>
      <trkpt lat="45.17429" lon="5.07034">
        <ele>313.98388671875</ele>
        <time>2010-03-13T16:18:55Z</time>
      </trkpt>
      <trkpt lat="45.17407" lon="5.07021">
        <ele>312.46493530273</ele>
        <time>2010-03-13T16:18:59Z</time>
      </trkpt>
      <trkpt lat="45.17323" lon="5.07">
        <ele>311.87246704102</ele>
        <time>2010-03-13T16:19:12Z</time>
      </trkpt>
      <trkpt lat="45.17293" lon="5.06983">
        <ele>311.38394165039</ele>
        <time>2010-03-13T16:19:17Z</time>
      </trkpt>
      <trkpt lat="45.17246" lon="5.06947">
        <ele>309.63302612305</ele>
        <time>2010-03-13T16:19:25Z</time>
      </trkpt>
      <trkpt lat="45.17212" lon="5.06944">
        <ele>308.96875</ele>
        <time>2010-03-13T16:19:30Z</time>
      </trkpt>
      <trkpt lat="45.17191" lon="5.06934">
        <ele>308.54409790039</ele>
        <time>2010-03-13T16:19:34Z</time>
      </trkpt>
      <trkpt lat="45.17009" lon="5.06769">
        <ele>313.12567138672</ele>
        <time>2010-03-13T16:20:07Z</time>
      </trkpt>
      <trkpt lat="45.16837" lon="5.06587">
        <ele>299.01513671875</ele>
        <time>2010-03-13T16:20:40Z</time>
      </trkpt>
      <trkpt lat="45.16766" lon="5.06505">
        <ele>298.36450195312</ele>
        <time>2010-03-13T16:20:54Z</time>
      </trkpt>
      <trkpt lat="45.16755" lon="5.06476">
        <ele>299.10446166992</ele>
        <time>2010-03-13T16:20:58Z</time>
      </trkpt>
      <trkpt lat="45.16729" lon="5.06375">
        <ele>299.85195922852</ele>
        <time>2010-03-13T16:21:09Z</time>
      </trkpt>
      <trkpt lat="45.16648" lon="5.0599">
        <ele>299.69235229492</ele>
        <time>2010-03-13T16:21:53Z</time>
      </trkpt>
      <trkpt lat="45.16627" lon="5.0593">
        <ele>301.09655761719</ele>
        <time>2010-03-13T16:22:00Z</time>
      </trkpt>
      <trkpt lat="45.16528" lon="5.05675">
        <ele>294.70993041992</ele>
        <time>2010-03-13T16:22:31Z</time>
      </trkpt>
      <trkpt lat="45.16252" lon="5.05163">
        <ele>281.14367675781</ele>
        <time>2010-03-13T16:23:41Z</time>
      </trkpt>
      <trkpt lat="45.16221" lon="5.05082">
        <ele>279.90472412109</ele>
        <time>2010-03-13T16:23:51Z</time>
      </trkpt>
      <trkpt lat="45.16168" lon="5.04882">
        <ele>275.76245117188</ele>
        <time>2010-03-13T16:24:14Z</time>
      </trkpt>
      <trkpt lat="45.16161" lon="5.04852">
        <ele>275</ele>
        <time>2010-03-13T16:24:18Z</time>
      </trkpt>
      <trkpt lat="45.16159" lon="5.04824">
        <ele>274.90814208984</ele>
        <time>2010-03-13T16:24:21Z</time>
      </trkpt>
      <trkpt lat="45.16165" lon="5.04585">
        <ele>272</ele>
        <time>2010-03-13T16:24:47Z</time>
      </trkpt>
      <trkpt lat="45.16169" lon="5.04542">
        <ele>272.04260253906</ele>
        <time>2010-03-13T16:24:51Z</time>
      </trkpt>
      <trkpt lat="45.16177" lon="5.04498">
        <ele>271.37152099609</ele>
        <time>2010-03-13T16:24:56Z</time>
      </trkpt>
      <trkpt lat="45.16223" lon="5.04323">
        <ele>271.033203125</ele>
        <time>2010-03-13T16:25:16Z</time>
      </trkpt>
      <trkpt lat="45.16229" lon="5.04281">
        <ele>271.23919677734</ele>
        <time>2010-03-13T16:25:21Z</time>
      </trkpt>
      <trkpt lat="45.16194" lon="5.04018">
        <ele>267.98950195312</ele>
        <time>2010-03-13T16:25:50Z</time>
      </trkpt>
      <trkpt lat="45.16183" lon="5.03975">
        <ele>267.59124755859</ele>
        <time>2010-03-13T16:25:55Z</time>
      </trkpt>
      <trkpt lat="45.16167" lon="5.03949">
        <ele>267.01446533203</ele>
        <time>2010-03-13T16:25:59Z</time>
      </trkpt>
      <trkpt lat="45.16183" lon="5.03915">
        <ele>266.59124755859</ele>
        <time>2010-03-13T16:26:03Z</time>
      </trkpt>
      <trkpt lat="45.16193" lon="5.03883">
        <ele>266.94830322266</ele>
        <time>2010-03-13T16:26:07Z</time>
      </trkpt>
      <trkpt lat="45.16187" lon="5.03873">
        <ele>266.72857666016</ele>
        <time>2010-03-13T16:26:08Z</time>
      </trkpt>
      <trkpt lat="45.16192" lon="5.03543">
        <ele>272.26635742188</ele>
        <time>2010-03-13T16:26:44Z</time>
      </trkpt>
      <trkpt lat="45.16184" lon="5.03475">
        <ele>275.13748168945</ele>
        <time>2010-03-13T16:26:52Z</time>
      </trkpt>
      <trkpt lat="45.16161" lon="5.03394">
        <ele>278.40606689453</ele>
        <time>2010-03-13T16:27:01Z</time>
      </trkpt>
      <trkpt lat="45.16131" lon="5.03328">
        <ele>278.94097900391</ele>
        <time>2010-03-13T16:27:09Z</time>
      </trkpt>
      <trkpt lat="45.16105" lon="5.03284">
        <ele>278.43280029297</ele>
        <time>2010-03-13T16:27:16Z</time>
      </trkpt>
      <trkpt lat="45.15975" lon="5.0308">
        <ele>260</ele>
        <time>2010-03-13T16:27:45Z</time>
      </trkpt>
      <trkpt lat="45.15863" lon="5.02917">
        <ele>261.26351928711</ele>
        <time>2010-03-13T16:28:10Z</time>
      </trkpt>
      <trkpt lat="45.15636" lon="5.02696">
        <ele>259.89825439453</ele>
        <time>2010-03-13T16:28:52Z</time>
      </trkpt>
      <trkpt lat="45.15406" lon="5.02402">
        <ele>258.81909179688</ele>
        <time>2010-03-13T16:29:40Z</time>
      </trkpt>
      <trkpt lat="45.15341" lon="5.02329">
        <ele>257.28271484375</ele>
        <time>2010-03-13T16:29:53Z</time>
      </trkpt>
      <trkpt lat="45.15259" lon="5.02183">
        <ele>255.66027832031</ele>
        <time>2010-03-13T16:30:13Z</time>
      </trkpt>
      <trkpt lat="45.15189" lon="5.02071">
        <ele>257.24731445312</ele>
        <time>2010-03-13T16:30:29Z</time>
      </trkpt>
      <trkpt lat="45.15193" lon="5.02066">
        <ele>257.57861328125</ele>
        <time>2010-03-13T16:30:30Z</time>
      </trkpt>
      <trkpt lat="45.15193" lon="5.02057">
        <ele>257.90307617188</ele>
        <time>2010-03-13T16:30:31Z</time>
      </trkpt>
      <trkpt lat="45.15174" lon="5.02049">
        <ele>257.50308227539</ele>
        <time>2010-03-13T16:30:34Z</time>
      </trkpt>
      <trkpt lat="45.14867" lon="5.01622">
        <ele>259.89926147461</ele>
        <time>2010-03-13T16:31:40Z</time>
      </trkpt>
      <trkpt lat="45.14759" lon="5.01507">
        <ele>247.48260498047</ele>
        <time>2010-03-13T16:32:01Z</time>
      </trkpt>
      <trkpt lat="45.14736" lon="5.01474">
        <ele>244.06860351562</ele>
        <time>2010-03-13T16:32:06Z</time>
      </trkpt>
      <trkpt lat="45.14669" lon="5.01279">
        <ele>240</ele>
        <time>2010-03-13T16:32:29Z</time>
      </trkpt>
      <trkpt lat="45.14652" lon="5.01248">
        <ele>244.50473022461</ele>
        <time>2010-03-13T16:32:33Z</time>
      </trkpt>
      <trkpt lat="45.14609" lon="5.01195">
        <ele>259.33770751953</ele>
        <time>2010-03-13T16:32:42Z</time>
      </trkpt>
      <trkpt lat="45.14484" lon="5.01105">
        <ele>267.24450683594</ele>
        <time>2010-03-13T16:33:04Z</time>
      </trkpt>
      <trkpt lat="45.14329" lon="5.00935">
        <ele>268.60906982422</ele>
        <time>2010-03-13T16:33:34Z</time>
      </trkpt>
      <trkpt lat="45.14292" lon="5.00904">
        <ele>268.26391601562</ele>
        <time>2010-03-13T16:33:40Z</time>
      </trkpt>
      <trkpt lat="45.13869" lon="5.00681">
        <ele>269.02709960938</ele>
        <time>2010-03-13T16:34:50Z</time>
      </trkpt>
      <trkpt lat="45.13858" lon="5.00662">
        <ele>268.36059570312</ele>
        <time>2010-03-13T16:34:52Z</time>
      </trkpt>
      <trkpt lat="45.13787" lon="5.00595">
        <ele>261.25427246094</ele>
        <time>2010-03-13T16:35:05Z</time>
      </trkpt>
      <trkpt lat="45.13684" lon="5.00487">
        <ele>240</ele>
        <time>2010-03-13T16:35:25Z</time>
      </trkpt>
      <trkpt lat="45.1362" lon="5.00453">
        <ele>242.76867675781</ele>
        <time>2010-03-13T16:35:35Z</time>
      </trkpt>
      <trkpt lat="45.1351" lon="5.00416">
        <ele>252.54998779297</ele>
        <time>2010-03-13T16:35:53Z</time>
      </trkpt>
      <trkpt lat="45.13491" lon="5.0042">
        <ele>250.67520141602</ele>
        <time>2010-03-13T16:35:56Z</time>
      </trkpt>
      <trkpt lat="45.13484" lon="5.00417">
        <ele>250.77049255371</ele>
        <time>2010-03-13T16:35:57Z</time>
      </trkpt>
      <trkpt lat="45.13361" lon="5.00334">
        <ele>259.8600769043</ele>
        <time>2010-03-13T16:36:18Z</time>
      </trkpt>
      <trkpt lat="45.13334" lon="5.00329">
        <ele>256.18511962891</ele>
        <time>2010-03-13T16:36:22Z</time>
      </trkpt>
      <trkpt lat="45.13195" lon="5.00332">
        <ele>242.32502746582</ele>
        <time>2010-03-13T16:36:43Z</time>
      </trkpt>
      <trkpt lat="45.12995" lon="5.00257">
        <ele>242.27909851074</ele>
        <time>2010-03-13T16:37:15Z</time>
      </trkpt>
      <trkpt lat="45.12971" lon="5.00245">
        <ele>242.43000793457</ele>
        <time>2010-03-13T16:37:19Z</time>
      </trkpt>
      <trkpt lat="45.1293" lon="5.00213">
        <ele>242.43983459473</ele>
        <time>2010-03-13T16:37:26Z</time>
      </trkpt>
      <trkpt lat="45.12848" lon="5.00087">
        <ele>238.47491455078</ele>
        <time>2010-03-13T16:37:45Z</time>
      </trkpt>
      <trkpt lat="45.12824" lon="5.00063">
        <ele>235.3857421875</ele>
        <time>2010-03-13T16:37:49Z</time>
      </trkpt>
      <trkpt lat="45.12792" lon="5.00051">
        <ele>228.7741394043</ele>
        <time>2010-03-13T16:37:54Z</time>
      </trkpt>
      <trkpt lat="45.12743" lon="5.00041">
        <ele>220.8713684082</ele>
        <time>2010-03-13T16:38:02Z</time>
      </trkpt>
      <trkpt lat="45.12708" lon="5.00013">
        <ele>217.75764465332</ele>
        <time>2010-03-13T16:38:08Z</time>
      </trkpt>
      <trkpt lat="45.12683" lon="4.99981">
        <ele>222.73124694824</ele>
        <time>2010-03-13T16:38:13Z</time>
      </trkpt>
      <trkpt lat="45.12666" lon="4.9995">
        <ele>219.37881469727</ele>
        <time>2010-03-13T16:38:17Z</time>
      </trkpt>
      <trkpt lat="45.12648" lon="4.99875">
        <ele>220.87944030762</ele>
        <time>2010-03-13T16:38:26Z</time>
      </trkpt>
      <trkpt lat="45.12639" lon="4.99857">
        <ele>221.19493103027</ele>
        <time>2010-03-13T16:38:28Z</time>
      </trkpt>
      <trkpt lat="45.12596" lon="4.99804">
        <ele>221.88052368164</ele>
        <time>2010-03-13T16:38:37Z</time>
      </trkpt>
      <trkpt lat="45.12559" lon="4.99734">
        <ele>224.17254638672</ele>
        <time>2010-03-13T16:38:47Z</time>
      </trkpt>
      <trkpt lat="45.12518" lon="4.9969">
        <ele>224.53611755371</ele>
        <time>2010-03-13T16:38:55Z</time>
      </trkpt>
      <trkpt lat="45.1247" lon="4.99623">
        <ele>230.05352783203</ele>
        <time>2010-03-13T16:39:05Z</time>
      </trkpt>
      <trkpt lat="45.12405" lon="4.99517">
        <ele>229.64819335938</ele>
        <time>2010-03-13T16:39:20Z</time>
      </trkpt>
      <trkpt lat="45.12395" lon="4.99491">
        <ele>229.47958374023</ele>
        <time>2010-03-13T16:39:23Z</time>
      </trkpt>
      <trkpt lat="45.12384" lon="4.99441">
        <ele>228.82498168945</ele>
        <time>2010-03-13T16:39:29Z</time>
      </trkpt>
      <trkpt lat="45.12352" lon="4.99269">
        <ele>229.85308837891</ele>
        <time>2010-03-13T16:39:48Z</time>
      </trkpt>
      <trkpt lat="45.12278" lon="4.9908">
        <ele>227.29624938965</ele>
        <time>2010-03-13T16:40:12Z</time>
      </trkpt>
      <trkpt lat="45.12269" lon="4.99067">
        <ele>224.41636657715</ele>
        <time>2010-03-13T16:40:14Z</time>
      </trkpt>
      <trkpt lat="45.12242" lon="4.99055">
        <ele>216.31861877441</ele>
        <time>2010-03-13T16:40:18Z</time>
      </trkpt>
      <trkpt lat="45.12244" lon="4.99043">
        <ele>217.11665344238</ele>
        <time>2010-03-13T16:40:19Z</time>
      </trkpt>
      <trkpt lat="45.12238" lon="4.99023">
        <ele>217.13269042969</ele>
        <time>2010-03-13T16:40:22Z</time>
      </trkpt>
      <trkpt lat="45.12226" lon="4.99019">
        <ele>215.5563659668</ele>
        <time>2010-03-13T16:40:24Z</time>
      </trkpt>
      <trkpt lat="45.12215" lon="4.99027">
        <ele>213.65786743164</ele>
        <time>2010-03-13T16:40:25Z</time>
      </trkpt>
      <trkpt lat="45.12161" lon="4.98968">
        <ele>206.76472473144</ele>
        <time>2010-03-13T16:40:36Z</time>
      </trkpt>
      <trkpt lat="45.12103" lon="4.98886">
        <ele>204.13391113281</ele>
        <time>2010-03-13T16:40:49Z</time>
      </trkpt>
      <trkpt lat="45.12065" lon="4.98815">
        <ele>203.9052734375</ele>
        <time>2010-03-13T16:40:58Z</time>
      </trkpt>
      <trkpt lat="45.12048" lon="4.98766">
        <ele>203.69752502441</ele>
        <time>2010-03-13T16:41:04Z</time>
      </trkpt>
      <trkpt lat="45.12028" lon="4.98671">
        <ele>203.64041137695</ele>
        <time>2010-03-13T16:41:15Z</time>
      </trkpt>
      <trkpt lat="45.12017" lon="4.98555">
        <ele>204.40971374512</ele>
        <time>2010-03-13T16:41:27Z</time>
      </trkpt>
      <trkpt lat="45.12019" lon="4.98496">
        <ele>205.22760009766</ele>
        <time>2010-03-13T16:41:34Z</time>
      </trkpt>
    </trkseg>
  </trk>
</gpx>